<?xml version="1.0" encoding="UTF-8" standalone="no" ?>
<gpx xmlns="http://www.topografix.com/GPX/1/1" xmlns:xsi="http://www.w3.org/2001/XMLSchema-instance" xsi:schemaLocation="http://www.topografix.com/GPX/1/1 http://www.topografix.com/GPX/1/1/gpx.xsd" version="1.1" creator="VisuGPX - https://www.visugpx.com">
  <metadata>
    <name>Jura_Clairvaux les lacs</name>
    <desc><![CDATA[Possibilité de cumuler une rando pédestre sur les Tourbière de Nanchez]]></desc>
  </metadata>
  <trk>
    <name><![CDATA[23-JUIL-22 02:20:30 PM]]></name>
    <extensions>
      <line xmlns="http://www.topografix.com/GPX/gpx_style/0/2">
        <color>0000FF</color>
        <width>4</width>
      </line>
    </extensions>
    <trkseg>
      <trkpt lat="46.56317" lon="5.75488">
        <ele>497.62</ele>
        <time>2022-07-23T09:08:01Z</time>
      </trkpt>
      <trkpt lat="46.56322" lon="5.75489">
        <ele>501.46</ele>
        <time>2022-07-23T09:08:06Z</time>
      </trkpt>
      <trkpt lat="46.56322" lon="5.75486">
        <ele>545.2</ele>
        <time>2022-07-23T09:08:08Z</time>
      </trkpt>
      <trkpt lat="46.56322" lon="5.75486">
        <ele>545.2</ele>
        <time>2022-07-23T09:08:09Z</time>
      </trkpt>
      <trkpt lat="46.56322" lon="5.75485">
        <ele>538.96</ele>
        <time>2022-07-23T09:08:13Z</time>
      </trkpt>
      <trkpt lat="46.56322" lon="5.75485">
        <ele>538.96</ele>
        <time>2022-07-23T09:08:14Z</time>
      </trkpt>
      <trkpt lat="46.5632" lon="5.75486">
        <ele>538.96</ele>
        <time>2022-07-23T09:08:42Z</time>
      </trkpt>
      <trkpt lat="46.56321" lon="5.75493">
        <ele>538.96</ele>
        <time>2022-07-23T09:09:20Z</time>
      </trkpt>
      <trkpt lat="46.56319" lon="5.75498">
        <ele>538.96</ele>
        <time>2022-07-23T09:09:45Z</time>
      </trkpt>
      <trkpt lat="46.56321" lon="5.75498">
        <ele>538.96</ele>
        <time>2022-07-23T09:10:18Z</time>
      </trkpt>
      <trkpt lat="46.5632" lon="5.75495">
        <ele>539.44</ele>
        <time>2022-07-23T09:10:49Z</time>
      </trkpt>
      <trkpt lat="46.56321" lon="5.75496">
        <ele>538.96</ele>
        <time>2022-07-23T09:11:24Z</time>
      </trkpt>
      <trkpt lat="46.56321" lon="5.75493">
        <ele>538.96</ele>
        <time>2022-07-23T09:11:53Z</time>
      </trkpt>
      <trkpt lat="46.56321" lon="5.75493">
        <ele>539.44</ele>
        <time>2022-07-23T09:12:34Z</time>
      </trkpt>
      <trkpt lat="46.56318" lon="5.75494">
        <ele>539.44</ele>
        <time>2022-07-23T09:13:06Z</time>
      </trkpt>
      <trkpt lat="46.56317" lon="5.75489">
        <ele>539.44</ele>
        <time>2022-07-23T09:13:30Z</time>
      </trkpt>
      <trkpt lat="46.56319" lon="5.75488">
        <ele>538.96</ele>
        <time>2022-07-23T09:13:49Z</time>
      </trkpt>
      <trkpt lat="46.56318" lon="5.75487">
        <ele>539.92</ele>
        <time>2022-07-23T09:14:18Z</time>
      </trkpt>
      <trkpt lat="46.56319" lon="5.75485">
        <ele>539.92</ele>
        <time>2022-07-23T09:14:21Z</time>
      </trkpt>
      <trkpt lat="46.56316" lon="5.75483">
        <ele>539.44</ele>
        <time>2022-07-23T09:14:27Z</time>
      </trkpt>
      <trkpt lat="46.56308" lon="5.75478">
        <ele>539.44</ele>
        <time>2022-07-23T09:14:33Z</time>
      </trkpt>
      <trkpt lat="46.56305" lon="5.75477">
        <ele>539.92</ele>
        <time>2022-07-23T09:14:35Z</time>
      </trkpt>
      <trkpt lat="46.56299" lon="5.75481">
        <ele>539.44</ele>
        <time>2022-07-23T09:14:38Z</time>
      </trkpt>
      <trkpt lat="46.56299" lon="5.75483">
        <ele>539.92</ele>
        <time>2022-07-23T09:14:39Z</time>
      </trkpt>
      <trkpt lat="46.56298" lon="5.75486">
        <ele>540.4</ele>
        <time>2022-07-23T09:14:40Z</time>
      </trkpt>
      <trkpt lat="46.56298" lon="5.75488">
        <ele>540.4</ele>
        <time>2022-07-23T09:14:41Z</time>
      </trkpt>
      <trkpt lat="46.56297" lon="5.755">
        <ele>541.36</ele>
        <time>2022-07-23T09:14:47Z</time>
      </trkpt>
      <trkpt lat="46.56296" lon="5.75501">
        <ele>541.36</ele>
        <time>2022-07-23T09:14:48Z</time>
      </trkpt>
      <trkpt lat="46.56295" lon="5.75502">
        <ele>541.36</ele>
        <time>2022-07-23T09:14:49Z</time>
      </trkpt>
      <trkpt lat="46.5628" lon="5.75509">
        <ele>541.36</ele>
        <time>2022-07-23T09:14:59Z</time>
      </trkpt>
      <trkpt lat="46.56275" lon="5.75513">
        <ele>540.88</ele>
        <time>2022-07-23T09:15:01Z</time>
      </trkpt>
      <trkpt lat="46.56274" lon="5.75516">
        <ele>541.36</ele>
        <time>2022-07-23T09:15:02Z</time>
      </trkpt>
      <trkpt lat="46.56276" lon="5.75553">
        <ele>542.32</ele>
        <time>2022-07-23T09:15:16Z</time>
      </trkpt>
      <trkpt lat="46.56297" lon="5.75606">
        <ele>543.28</ele>
        <time>2022-07-23T09:15:33Z</time>
      </trkpt>
      <trkpt lat="46.56325" lon="5.7564">
        <ele>544.24</ele>
        <time>2022-07-23T09:15:47Z</time>
      </trkpt>
      <trkpt lat="46.56337" lon="5.75663">
        <ele>545.2</ele>
        <time>2022-07-23T09:15:55Z</time>
      </trkpt>
      <trkpt lat="46.56337" lon="5.75666">
        <ele>545.2</ele>
        <time>2022-07-23T09:15:56Z</time>
      </trkpt>
      <trkpt lat="46.56338" lon="5.75669">
        <ele>545.69</ele>
        <time>2022-07-23T09:15:57Z</time>
      </trkpt>
      <trkpt lat="46.56339" lon="5.7567">
        <ele>545.2</ele>
        <time>2022-07-23T09:15:58Z</time>
      </trkpt>
      <trkpt lat="46.56341" lon="5.7567">
        <ele>544.72</ele>
        <time>2022-07-23T09:15:59Z</time>
      </trkpt>
      <trkpt lat="46.56343" lon="5.75669">
        <ele>545.69</ele>
        <time>2022-07-23T09:16:00Z</time>
      </trkpt>
      <trkpt lat="46.56346" lon="5.75668">
        <ele>545.2</ele>
        <time>2022-07-23T09:16:01Z</time>
      </trkpt>
      <trkpt lat="46.56359" lon="5.75662">
        <ele>544.72</ele>
        <time>2022-07-23T09:16:11Z</time>
      </trkpt>
      <trkpt lat="46.56409" lon="5.75635">
        <ele>543.28</ele>
        <time>2022-07-23T09:16:25Z</time>
      </trkpt>
      <trkpt lat="46.56434" lon="5.7563">
        <ele>542.32</ele>
        <time>2022-07-23T09:16:34Z</time>
      </trkpt>
      <trkpt lat="46.56441" lon="5.75631">
        <ele>542.32</ele>
        <time>2022-07-23T09:16:36Z</time>
      </trkpt>
      <trkpt lat="46.56445" lon="5.7563">
        <ele>541.84</ele>
        <time>2022-07-23T09:16:37Z</time>
      </trkpt>
      <trkpt lat="46.5645" lon="5.75628">
        <ele>541.84</ele>
        <time>2022-07-23T09:16:38Z</time>
      </trkpt>
      <trkpt lat="46.56517" lon="5.75613">
        <ele>540.88</ele>
        <time>2022-07-23T09:16:52Z</time>
      </trkpt>
      <trkpt lat="46.56551" lon="5.75604">
        <ele>541.84</ele>
        <time>2022-07-23T09:17:00Z</time>
      </trkpt>
      <trkpt lat="46.56555" lon="5.75601">
        <ele>541.84</ele>
        <time>2022-07-23T09:17:01Z</time>
      </trkpt>
      <trkpt lat="46.56558" lon="5.75599">
        <ele>541.36</ele>
        <time>2022-07-23T09:17:02Z</time>
      </trkpt>
      <trkpt lat="46.56565" lon="5.75592">
        <ele>541.36</ele>
        <time>2022-07-23T09:17:04Z</time>
      </trkpt>
      <trkpt lat="46.56568" lon="5.75588">
        <ele>541.84</ele>
        <time>2022-07-23T09:17:05Z</time>
      </trkpt>
      <trkpt lat="46.56617" lon="5.75524">
        <ele>543.28</ele>
        <time>2022-07-23T09:17:22Z</time>
      </trkpt>
      <trkpt lat="46.56667" lon="5.75499">
        <ele>545.2</ele>
        <time>2022-07-23T09:17:38Z</time>
      </trkpt>
      <trkpt lat="46.56712" lon="5.755">
        <ele>547.61</ele>
        <time>2022-07-23T09:17:53Z</time>
      </trkpt>
      <trkpt lat="46.56749" lon="5.75501">
        <ele>547.13</ele>
        <time>2022-07-23T09:18:05Z</time>
      </trkpt>
      <trkpt lat="46.56792" lon="5.75514">
        <ele>549.53</ele>
        <time>2022-07-23T09:18:20Z</time>
      </trkpt>
      <trkpt lat="46.56821" lon="5.75522">
        <ele>551.45</ele>
        <time>2022-07-23T09:18:32Z</time>
      </trkpt>
      <trkpt lat="46.56823" lon="5.75522">
        <ele>551.45</ele>
        <time>2022-07-23T09:18:33Z</time>
      </trkpt>
      <trkpt lat="46.56826" lon="5.75522">
        <ele>551.93</ele>
        <time>2022-07-23T09:18:34Z</time>
      </trkpt>
      <trkpt lat="46.56828" lon="5.75522">
        <ele>551.93</ele>
        <time>2022-07-23T09:18:35Z</time>
      </trkpt>
      <trkpt lat="46.56831" lon="5.75522">
        <ele>551.93</ele>
        <time>2022-07-23T09:18:36Z</time>
      </trkpt>
      <trkpt lat="46.56833" lon="5.75522">
        <ele>551.93</ele>
        <time>2022-07-23T09:18:37Z</time>
      </trkpt>
      <trkpt lat="46.56836" lon="5.75522">
        <ele>552.41</ele>
        <time>2022-07-23T09:18:38Z</time>
      </trkpt>
      <trkpt lat="46.56839" lon="5.75522">
        <ele>552.41</ele>
        <time>2022-07-23T09:18:39Z</time>
      </trkpt>
      <trkpt lat="46.56841" lon="5.75522">
        <ele>551.93</ele>
        <time>2022-07-23T09:18:40Z</time>
      </trkpt>
      <trkpt lat="46.56885" lon="5.75515">
        <ele>554.34</ele>
        <time>2022-07-23T09:18:57Z</time>
      </trkpt>
      <trkpt lat="46.5689" lon="5.75513">
        <ele>554.34</ele>
        <time>2022-07-23T09:18:59Z</time>
      </trkpt>
      <trkpt lat="46.56919" lon="5.75504">
        <ele>555.3</ele>
        <time>2022-07-23T09:19:12Z</time>
      </trkpt>
      <trkpt lat="46.56971" lon="5.75486">
        <ele>556.26</ele>
        <time>2022-07-23T09:19:31Z</time>
      </trkpt>
      <trkpt lat="46.57018" lon="5.75474">
        <ele>557.7</ele>
        <time>2022-07-23T09:19:47Z</time>
      </trkpt>
      <trkpt lat="46.5706" lon="5.7547">
        <ele>558.66</ele>
        <time>2022-07-23T09:20:02Z</time>
      </trkpt>
      <trkpt lat="46.57095" lon="5.75462">
        <ele>559.62</ele>
        <time>2022-07-23T09:20:15Z</time>
      </trkpt>
      <trkpt lat="46.57098" lon="5.75461">
        <ele>560.11</ele>
        <time>2022-07-23T09:20:18Z</time>
      </trkpt>
      <trkpt lat="46.571" lon="5.7546">
        <ele>560.11</ele>
        <time>2022-07-23T09:20:19Z</time>
      </trkpt>
      <trkpt lat="46.57102" lon="5.7546">
        <ele>560.11</ele>
        <time>2022-07-23T09:20:20Z</time>
      </trkpt>
      <trkpt lat="46.57105" lon="5.75458">
        <ele>560.59</ele>
        <time>2022-07-23T09:20:21Z</time>
      </trkpt>
      <trkpt lat="46.57108" lon="5.75457">
        <ele>560.11</ele>
        <time>2022-07-23T09:20:22Z</time>
      </trkpt>
      <trkpt lat="46.57112" lon="5.75456">
        <ele>559.62</ele>
        <time>2022-07-23T09:20:23Z</time>
      </trkpt>
      <trkpt lat="46.57115" lon="5.75456">
        <ele>560.11</ele>
        <time>2022-07-23T09:20:24Z</time>
      </trkpt>
      <trkpt lat="46.57117" lon="5.75457">
        <ele>559.62</ele>
        <time>2022-07-23T09:20:25Z</time>
      </trkpt>
      <trkpt lat="46.5712" lon="5.75459">
        <ele>559.62</ele>
        <time>2022-07-23T09:20:26Z</time>
      </trkpt>
      <trkpt lat="46.57124" lon="5.7546">
        <ele>559.62</ele>
        <time>2022-07-23T09:20:27Z</time>
      </trkpt>
      <trkpt lat="46.57127" lon="5.7546">
        <ele>559.62</ele>
        <time>2022-07-23T09:20:28Z</time>
      </trkpt>
      <trkpt lat="46.57131" lon="5.75458">
        <ele>559.14</ele>
        <time>2022-07-23T09:20:29Z</time>
      </trkpt>
      <trkpt lat="46.57135" lon="5.75456">
        <ele>559.62</ele>
        <time>2022-07-23T09:20:30Z</time>
      </trkpt>
      <trkpt lat="46.572" lon="5.7543">
        <ele>558.66</ele>
        <time>2022-07-23T09:20:46Z</time>
      </trkpt>
      <trkpt lat="46.57223" lon="5.75422">
        <ele>559.14</ele>
        <time>2022-07-23T09:20:51Z</time>
      </trkpt>
      <trkpt lat="46.57227" lon="5.75419">
        <ele>559.14</ele>
        <time>2022-07-23T09:20:52Z</time>
      </trkpt>
      <trkpt lat="46.57253" lon="5.754">
        <ele>559.62</ele>
        <time>2022-07-23T09:20:58Z</time>
      </trkpt>
      <trkpt lat="46.57302" lon="5.7534">
        <ele>557.7</ele>
        <time>2022-07-23T09:21:10Z</time>
      </trkpt>
      <trkpt lat="46.57308" lon="5.75338">
        <ele>557.22</ele>
        <time>2022-07-23T09:21:11Z</time>
      </trkpt>
      <trkpt lat="46.57313" lon="5.75339">
        <ele>557.22</ele>
        <time>2022-07-23T09:21:12Z</time>
      </trkpt>
      <trkpt lat="46.57318" lon="5.75343">
        <ele>557.7</ele>
        <time>2022-07-23T09:21:13Z</time>
      </trkpt>
      <trkpt lat="46.57322" lon="5.75348">
        <ele>557.22</ele>
        <time>2022-07-23T09:21:14Z</time>
      </trkpt>
      <trkpt lat="46.57324" lon="5.75354">
        <ele>557.22</ele>
        <time>2022-07-23T09:21:15Z</time>
      </trkpt>
      <trkpt lat="46.57325" lon="5.7536">
        <ele>557.22</ele>
        <time>2022-07-23T09:21:16Z</time>
      </trkpt>
      <trkpt lat="46.57325" lon="5.75367">
        <ele>557.22</ele>
        <time>2022-07-23T09:21:17Z</time>
      </trkpt>
      <trkpt lat="46.57325" lon="5.75373">
        <ele>557.7</ele>
        <time>2022-07-23T09:21:18Z</time>
      </trkpt>
      <trkpt lat="46.57325" lon="5.75379">
        <ele>557.7</ele>
        <time>2022-07-23T09:21:19Z</time>
      </trkpt>
      <trkpt lat="46.57325" lon="5.75386">
        <ele>557.7</ele>
        <time>2022-07-23T09:21:20Z</time>
      </trkpt>
      <trkpt lat="46.57324" lon="5.75392">
        <ele>558.18</ele>
        <time>2022-07-23T09:21:21Z</time>
      </trkpt>
      <trkpt lat="46.57323" lon="5.75399">
        <ele>557.7</ele>
        <time>2022-07-23T09:21:22Z</time>
      </trkpt>
      <trkpt lat="46.57321" lon="5.75405">
        <ele>557.7</ele>
        <time>2022-07-23T09:21:23Z</time>
      </trkpt>
      <trkpt lat="46.57313" lon="5.75437">
        <ele>558.18</ele>
        <time>2022-07-23T09:21:28Z</time>
      </trkpt>
      <trkpt lat="46.57312" lon="5.75444">
        <ele>557.7</ele>
        <time>2022-07-23T09:21:29Z</time>
      </trkpt>
      <trkpt lat="46.57311" lon="5.7545">
        <ele>557.7</ele>
        <time>2022-07-23T09:21:30Z</time>
      </trkpt>
      <trkpt lat="46.57311" lon="5.75456">
        <ele>558.66</ele>
        <time>2022-07-23T09:21:31Z</time>
      </trkpt>
      <trkpt lat="46.57311" lon="5.75463">
        <ele>557.7</ele>
        <time>2022-07-23T09:21:32Z</time>
      </trkpt>
      <trkpt lat="46.57311" lon="5.7547">
        <ele>558.18</ele>
        <time>2022-07-23T09:21:33Z</time>
      </trkpt>
      <trkpt lat="46.57312" lon="5.75477">
        <ele>558.18</ele>
        <time>2022-07-23T09:21:34Z</time>
      </trkpt>
      <trkpt lat="46.57313" lon="5.75484">
        <ele>557.7</ele>
        <time>2022-07-23T09:21:35Z</time>
      </trkpt>
      <trkpt lat="46.57315" lon="5.75492">
        <ele>557.7</ele>
        <time>2022-07-23T09:21:36Z</time>
      </trkpt>
      <trkpt lat="46.57334" lon="5.75588">
        <ele>556.26</ele>
        <time>2022-07-23T09:21:49Z</time>
      </trkpt>
      <trkpt lat="46.57334" lon="5.75596">
        <ele>556.26</ele>
        <time>2022-07-23T09:21:50Z</time>
      </trkpt>
      <trkpt lat="46.57334" lon="5.75604">
        <ele>555.78</ele>
        <time>2022-07-23T09:21:51Z</time>
      </trkpt>
      <trkpt lat="46.57327" lon="5.75666">
        <ele>556.26</ele>
        <time>2022-07-23T09:22:00Z</time>
      </trkpt>
      <trkpt lat="46.57326" lon="5.757">
        <ele>556.26</ele>
        <time>2022-07-23T09:22:05Z</time>
      </trkpt>
      <trkpt lat="46.57327" lon="5.75707">
        <ele>556.26</ele>
        <time>2022-07-23T09:22:06Z</time>
      </trkpt>
      <trkpt lat="46.57352" lon="5.75798">
        <ele>555.3</ele>
        <time>2022-07-23T09:22:19Z</time>
      </trkpt>
      <trkpt lat="46.57353" lon="5.75897">
        <ele>555.3</ele>
        <time>2022-07-23T09:22:32Z</time>
      </trkpt>
      <trkpt lat="46.57351" lon="5.75904">
        <ele>554.82</ele>
        <time>2022-07-23T09:22:33Z</time>
      </trkpt>
      <trkpt lat="46.57349" lon="5.75924">
        <ele>554.34</ele>
        <time>2022-07-23T09:22:36Z</time>
      </trkpt>
      <trkpt lat="46.57349" lon="5.75931">
        <ele>554.34</ele>
        <time>2022-07-23T09:22:37Z</time>
      </trkpt>
      <trkpt lat="46.57349" lon="5.75938">
        <ele>554.82</ele>
        <time>2022-07-23T09:22:38Z</time>
      </trkpt>
      <trkpt lat="46.57355" lon="5.75996">
        <ele>555.3</ele>
        <time>2022-07-23T09:22:46Z</time>
      </trkpt>
      <trkpt lat="46.57356" lon="5.76003">
        <ele>555.3</ele>
        <time>2022-07-23T09:22:47Z</time>
      </trkpt>
      <trkpt lat="46.57371" lon="5.76082">
        <ele>555.78</ele>
        <time>2022-07-23T09:22:59Z</time>
      </trkpt>
      <trkpt lat="46.57371" lon="5.76089">
        <ele>556.26</ele>
        <time>2022-07-23T09:23:00Z</time>
      </trkpt>
      <trkpt lat="46.57372" lon="5.76147">
        <ele>556.26</ele>
        <time>2022-07-23T09:23:09Z</time>
      </trkpt>
      <trkpt lat="46.57373" lon="5.76154">
        <ele>555.78</ele>
        <time>2022-07-23T09:23:10Z</time>
      </trkpt>
      <trkpt lat="46.57391" lon="5.76219">
        <ele>554.82</ele>
        <time>2022-07-23T09:23:19Z</time>
      </trkpt>
      <trkpt lat="46.57431" lon="5.76331">
        <ele>555.3</ele>
        <time>2022-07-23T09:23:36Z</time>
      </trkpt>
      <trkpt lat="46.57467" lon="5.76453">
        <ele>555.3</ele>
        <time>2022-07-23T09:23:53Z</time>
      </trkpt>
      <trkpt lat="46.57471" lon="5.76467">
        <ele>554.82</ele>
        <time>2022-07-23T09:23:55Z</time>
      </trkpt>
      <trkpt lat="46.57473" lon="5.76473">
        <ele>554.82</ele>
        <time>2022-07-23T09:23:56Z</time>
      </trkpt>
      <trkpt lat="46.57473" lon="5.76479">
        <ele>555.3</ele>
        <time>2022-07-23T09:23:57Z</time>
      </trkpt>
      <trkpt lat="46.57483" lon="5.76567">
        <ele>556.26</ele>
        <time>2022-07-23T09:24:10Z</time>
      </trkpt>
      <trkpt lat="46.5749" lon="5.76663">
        <ele>557.22</ele>
        <time>2022-07-23T09:24:25Z</time>
      </trkpt>
      <trkpt lat="46.57501" lon="5.76783">
        <ele>555.3</ele>
        <time>2022-07-23T09:24:41Z</time>
      </trkpt>
      <trkpt lat="46.57539" lon="5.76954">
        <ele>552.41</ele>
        <time>2022-07-23T09:25:01Z</time>
      </trkpt>
      <trkpt lat="46.57566" lon="5.77131">
        <ele>550.97</ele>
        <time>2022-07-23T09:25:22Z</time>
      </trkpt>
      <trkpt lat="46.57583" lon="5.7727">
        <ele>550.97</ele>
        <time>2022-07-23T09:25:41Z</time>
      </trkpt>
      <trkpt lat="46.576" lon="5.77392">
        <ele>551.93</ele>
        <time>2022-07-23T09:25:59Z</time>
      </trkpt>
      <trkpt lat="46.57603" lon="5.77405">
        <ele>551.93</ele>
        <time>2022-07-23T09:26:01Z</time>
      </trkpt>
      <trkpt lat="46.57618" lon="5.77532">
        <ele>552.41</ele>
        <time>2022-07-23T09:26:21Z</time>
      </trkpt>
      <trkpt lat="46.57619" lon="5.77538">
        <ele>552.41</ele>
        <time>2022-07-23T09:26:22Z</time>
      </trkpt>
      <trkpt lat="46.57629" lon="5.77673">
        <ele>550.97</ele>
        <time>2022-07-23T09:26:42Z</time>
      </trkpt>
      <trkpt lat="46.57631" lon="5.77682">
        <ele>550.49</ele>
        <time>2022-07-23T09:26:43Z</time>
      </trkpt>
      <trkpt lat="46.57633" lon="5.77689">
        <ele>550.01</ele>
        <time>2022-07-23T09:26:44Z</time>
      </trkpt>
      <trkpt lat="46.57637" lon="5.77694">
        <ele>550.49</ele>
        <time>2022-07-23T09:26:45Z</time>
      </trkpt>
      <trkpt lat="46.57642" lon="5.77699">
        <ele>550.49</ele>
        <time>2022-07-23T09:26:46Z</time>
      </trkpt>
      <trkpt lat="46.57648" lon="5.77703">
        <ele>550.01</ele>
        <time>2022-07-23T09:26:47Z</time>
      </trkpt>
      <trkpt lat="46.57709" lon="5.7775">
        <ele>550.01</ele>
        <time>2022-07-23T09:27:00Z</time>
      </trkpt>
      <trkpt lat="46.57712" lon="5.77754">
        <ele>550.49</ele>
        <time>2022-07-23T09:27:01Z</time>
      </trkpt>
      <trkpt lat="46.5773" lon="5.77771">
        <ele>550.97</ele>
        <time>2022-07-23T09:27:07Z</time>
      </trkpt>
      <trkpt lat="46.57731" lon="5.77773">
        <ele>550.97</ele>
        <time>2022-07-23T09:27:08Z</time>
      </trkpt>
      <trkpt lat="46.57733" lon="5.77773">
        <ele>550.49</ele>
        <time>2022-07-23T09:27:09Z</time>
      </trkpt>
      <trkpt lat="46.57733" lon="5.77772">
        <ele>550.49</ele>
        <time>2022-07-23T09:27:10Z</time>
      </trkpt>
      <trkpt lat="46.57733" lon="5.7777">
        <ele>550.49</ele>
        <time>2022-07-23T09:27:11Z</time>
      </trkpt>
      <trkpt lat="46.57732" lon="5.77769">
        <ele>550.49</ele>
        <time>2022-07-23T09:27:12Z</time>
      </trkpt>
      <trkpt lat="46.5773" lon="5.77769">
        <ele>550.49</ele>
        <time>2022-07-23T09:27:13Z</time>
      </trkpt>
      <trkpt lat="46.57719" lon="5.77761">
        <ele>550.49</ele>
        <time>2022-07-23T09:27:29Z</time>
      </trkpt>
      <trkpt lat="46.57715" lon="5.77759">
        <ele>550.01</ele>
        <time>2022-07-23T09:27:33Z</time>
      </trkpt>
      <trkpt lat="46.57714" lon="5.77761">
        <ele>550.49</ele>
        <time>2022-07-23T09:27:34Z</time>
      </trkpt>
      <trkpt lat="46.57717" lon="5.7776">
        <ele>549.53</ele>
        <time>2022-07-23T09:27:47Z</time>
      </trkpt>
      <trkpt lat="46.57719" lon="5.77761">
        <ele>550.49</ele>
        <time>2022-07-23T09:28:18Z</time>
      </trkpt>
      <trkpt lat="46.57719" lon="5.77761">
        <ele>550.49</ele>
        <time>2022-07-23T09:28:19Z</time>
      </trkpt>
      <trkpt lat="46.5772" lon="5.77762">
        <ele>550.49</ele>
        <time>2022-07-23T09:28:20Z</time>
      </trkpt>
      <trkpt lat="46.57721" lon="5.77763">
        <ele>550.49</ele>
        <time>2022-07-23T09:28:21Z</time>
      </trkpt>
      <trkpt lat="46.57723" lon="5.77765">
        <ele>550.49</ele>
        <time>2022-07-23T09:28:22Z</time>
      </trkpt>
      <trkpt lat="46.57724" lon="5.77766">
        <ele>550.49</ele>
        <time>2022-07-23T09:28:23Z</time>
      </trkpt>
      <trkpt lat="46.57725" lon="5.77768">
        <ele>550.97</ele>
        <time>2022-07-23T09:28:24Z</time>
      </trkpt>
      <trkpt lat="46.57727" lon="5.77769">
        <ele>550.97</ele>
        <time>2022-07-23T09:28:25Z</time>
      </trkpt>
      <trkpt lat="46.5775" lon="5.77798">
        <ele>551.93</ele>
        <time>2022-07-23T09:28:40Z</time>
      </trkpt>
      <trkpt lat="46.57771" lon="5.77854">
        <ele>554.34</ele>
        <time>2022-07-23T09:28:59Z</time>
      </trkpt>
      <trkpt lat="46.57789" lon="5.77914">
        <ele>556.26</ele>
        <time>2022-07-23T09:29:18Z</time>
      </trkpt>
      <trkpt lat="46.57809" lon="5.77975">
        <ele>557.7</ele>
        <time>2022-07-23T09:29:36Z</time>
      </trkpt>
      <trkpt lat="46.57829" lon="5.78043">
        <ele>560.11</ele>
        <time>2022-07-23T09:29:56Z</time>
      </trkpt>
      <trkpt lat="46.57849" lon="5.78114">
        <ele>561.55</ele>
        <time>2022-07-23T09:30:17Z</time>
      </trkpt>
      <trkpt lat="46.57852" lon="5.78173">
        <ele>564.43</ele>
        <time>2022-07-23T09:30:35Z</time>
      </trkpt>
      <trkpt lat="46.57849" lon="5.78217">
        <ele>566.83</ele>
        <time>2022-07-23T09:30:52Z</time>
      </trkpt>
      <trkpt lat="46.57844" lon="5.7825">
        <ele>568.28</ele>
        <time>2022-07-23T09:31:05Z</time>
      </trkpt>
      <trkpt lat="46.57839" lon="5.7829">
        <ele>570.68</ele>
        <time>2022-07-23T09:31:20Z</time>
      </trkpt>
      <trkpt lat="46.57828" lon="5.78326">
        <ele>572.6</ele>
        <time>2022-07-23T09:31:33Z</time>
      </trkpt>
      <trkpt lat="46.57818" lon="5.78379">
        <ele>575.01</ele>
        <time>2022-07-23T09:31:49Z</time>
      </trkpt>
      <trkpt lat="46.57808" lon="5.78428">
        <ele>577.41</ele>
        <time>2022-07-23T09:32:06Z</time>
      </trkpt>
      <trkpt lat="46.57796" lon="5.78475">
        <ele>579.81</ele>
        <time>2022-07-23T09:32:23Z</time>
      </trkpt>
      <trkpt lat="46.57794" lon="5.78493">
        <ele>581.25</ele>
        <time>2022-07-23T09:32:29Z</time>
      </trkpt>
      <trkpt lat="46.57794" lon="5.78496">
        <ele>580.77</ele>
        <time>2022-07-23T09:32:30Z</time>
      </trkpt>
      <trkpt lat="46.57793" lon="5.78499">
        <ele>581.73</ele>
        <time>2022-07-23T09:32:31Z</time>
      </trkpt>
      <trkpt lat="46.57785" lon="5.78555">
        <ele>583.66</ele>
        <time>2022-07-23T09:32:50Z</time>
      </trkpt>
      <trkpt lat="46.57783" lon="5.78603">
        <ele>586.06</ele>
        <time>2022-07-23T09:33:06Z</time>
      </trkpt>
      <trkpt lat="46.57779" lon="5.78668">
        <ele>587.02</ele>
        <time>2022-07-23T09:33:23Z</time>
      </trkpt>
      <trkpt lat="46.57778" lon="5.78709">
        <ele>588.95</ele>
        <time>2022-07-23T09:33:37Z</time>
      </trkpt>
      <trkpt lat="46.5778" lon="5.78744">
        <ele>590.39</ele>
        <time>2022-07-23T09:33:49Z</time>
      </trkpt>
      <trkpt lat="46.5778" lon="5.78773">
        <ele>592.31</ele>
        <time>2022-07-23T09:34:00Z</time>
      </trkpt>
      <trkpt lat="46.57782" lon="5.78834">
        <ele>595.19</ele>
        <time>2022-07-23T09:34:20Z</time>
      </trkpt>
      <trkpt lat="46.5778" lon="5.78875">
        <ele>597.12</ele>
        <time>2022-07-23T09:34:34Z</time>
      </trkpt>
      <trkpt lat="46.57778" lon="5.78915">
        <ele>599.04</ele>
        <time>2022-07-23T09:34:49Z</time>
      </trkpt>
      <trkpt lat="46.57772" lon="5.7896">
        <ele>601.92</ele>
        <time>2022-07-23T09:35:06Z</time>
      </trkpt>
      <trkpt lat="46.57764" lon="5.79005">
        <ele>604.33</ele>
        <time>2022-07-23T09:35:23Z</time>
      </trkpt>
      <trkpt lat="46.57754" lon="5.79044">
        <ele>606.73</ele>
        <time>2022-07-23T09:35:39Z</time>
      </trkpt>
      <trkpt lat="46.57746" lon="5.79092">
        <ele>609.13</ele>
        <time>2022-07-23T09:35:56Z</time>
      </trkpt>
      <trkpt lat="46.57737" lon="5.79138">
        <ele>612.02</ele>
        <time>2022-07-23T09:36:14Z</time>
      </trkpt>
      <trkpt lat="46.57729" lon="5.79169">
        <ele>613.46</ele>
        <time>2022-07-23T09:36:28Z</time>
      </trkpt>
      <trkpt lat="46.57719" lon="5.79194">
        <ele>615.38</ele>
        <time>2022-07-23T09:36:41Z</time>
      </trkpt>
      <trkpt lat="46.57707" lon="5.79235">
        <ele>617.78</ele>
        <time>2022-07-23T09:36:56Z</time>
      </trkpt>
      <trkpt lat="46.57692" lon="5.79271">
        <ele>620.67</ele>
        <time>2022-07-23T09:37:11Z</time>
      </trkpt>
      <trkpt lat="46.57682" lon="5.793">
        <ele>622.59</ele>
        <time>2022-07-23T09:37:24Z</time>
      </trkpt>
      <trkpt lat="46.57669" lon="5.79346">
        <ele>624.99</ele>
        <time>2022-07-23T09:37:40Z</time>
      </trkpt>
      <trkpt lat="46.57663" lon="5.79387">
        <ele>626.92</ele>
        <time>2022-07-23T09:37:55Z</time>
      </trkpt>
      <trkpt lat="46.57662" lon="5.79425">
        <ele>629.32</ele>
        <time>2022-07-23T09:38:09Z</time>
      </trkpt>
      <trkpt lat="46.57661" lon="5.79465">
        <ele>631.72</ele>
        <time>2022-07-23T09:38:24Z</time>
      </trkpt>
      <trkpt lat="46.57653" lon="5.79513">
        <ele>634.13</ele>
        <time>2022-07-23T09:38:40Z</time>
      </trkpt>
      <trkpt lat="46.57636" lon="5.79544">
        <ele>636.05</ele>
        <time>2022-07-23T09:38:54Z</time>
      </trkpt>
      <trkpt lat="46.57622" lon="5.79594">
        <ele>638.93</ele>
        <time>2022-07-23T09:39:13Z</time>
      </trkpt>
      <trkpt lat="46.57625" lon="5.7963">
        <ele>641.34</ele>
        <time>2022-07-23T09:39:26Z</time>
      </trkpt>
      <trkpt lat="46.57643" lon="5.79676">
        <ele>644.22</ele>
        <time>2022-07-23T09:39:46Z</time>
      </trkpt>
      <trkpt lat="46.57653" lon="5.7972">
        <ele>646.62</ele>
        <time>2022-07-23T09:40:01Z</time>
      </trkpt>
      <trkpt lat="46.57646" lon="5.79767">
        <ele>649.03</ele>
        <time>2022-07-23T09:40:18Z</time>
      </trkpt>
      <trkpt lat="46.57645" lon="5.7981">
        <ele>652.39</ele>
        <time>2022-07-23T09:40:35Z</time>
      </trkpt>
      <trkpt lat="46.57653" lon="5.79858">
        <ele>653.35</ele>
        <time>2022-07-23T09:40:51Z</time>
      </trkpt>
      <trkpt lat="46.57647" lon="5.799">
        <ele>656.24</ele>
        <time>2022-07-23T09:41:06Z</time>
      </trkpt>
      <trkpt lat="46.57629" lon="5.79937">
        <ele>659.6</ele>
        <time>2022-07-23T09:41:23Z</time>
      </trkpt>
      <trkpt lat="46.57608" lon="5.79971">
        <ele>662.01</ele>
        <time>2022-07-23T09:41:40Z</time>
      </trkpt>
      <trkpt lat="46.5759" lon="5.80002">
        <ele>663.45</ele>
        <time>2022-07-23T09:41:54Z</time>
      </trkpt>
      <trkpt lat="46.57567" lon="5.80029">
        <ele>665.37</ele>
        <time>2022-07-23T09:42:09Z</time>
      </trkpt>
      <trkpt lat="46.57565" lon="5.80031">
        <ele>666.33</ele>
        <time>2022-07-23T09:42:10Z</time>
      </trkpt>
      <trkpt lat="46.57544" lon="5.80062">
        <ele>667.77</ele>
        <time>2022-07-23T09:42:25Z</time>
      </trkpt>
      <trkpt lat="46.57527" lon="5.80093">
        <ele>669.22</ele>
        <time>2022-07-23T09:42:40Z</time>
      </trkpt>
      <trkpt lat="46.57513" lon="5.80125">
        <ele>671.14</ele>
        <time>2022-07-23T09:42:54Z</time>
      </trkpt>
      <trkpt lat="46.57489" lon="5.80133">
        <ele>673.06</ele>
        <time>2022-07-23T09:43:06Z</time>
      </trkpt>
      <trkpt lat="46.5745" lon="5.80172">
        <ele>674.02</ele>
        <time>2022-07-23T09:43:22Z</time>
      </trkpt>
      <trkpt lat="46.57403" lon="5.80231">
        <ele>674.98</ele>
        <time>2022-07-23T09:43:39Z</time>
      </trkpt>
      <trkpt lat="46.57386" lon="5.80278">
        <ele>676.91</ele>
        <time>2022-07-23T09:43:52Z</time>
      </trkpt>
      <trkpt lat="46.57372" lon="5.80336">
        <ele>679.79</ele>
        <time>2022-07-23T09:44:11Z</time>
      </trkpt>
      <trkpt lat="46.57365" lon="5.80389">
        <ele>681.23</ele>
        <time>2022-07-23T09:44:30Z</time>
      </trkpt>
      <trkpt lat="46.57358" lon="5.80444">
        <ele>683.63</ele>
        <time>2022-07-23T09:44:48Z</time>
      </trkpt>
      <trkpt lat="46.57353" lon="5.805">
        <ele>685.56</ele>
        <time>2022-07-23T09:45:05Z</time>
      </trkpt>
      <trkpt lat="46.57345" lon="5.80564">
        <ele>688.44</ele>
        <time>2022-07-23T09:45:27Z</time>
      </trkpt>
      <trkpt lat="46.57322" lon="5.80603">
        <ele>690.36</ele>
        <time>2022-07-23T09:45:44Z</time>
      </trkpt>
      <trkpt lat="46.57297" lon="5.80631">
        <ele>692.29</ele>
        <time>2022-07-23T09:45:59Z</time>
      </trkpt>
      <trkpt lat="46.57268" lon="5.80665">
        <ele>693.73</ele>
        <time>2022-07-23T09:46:16Z</time>
      </trkpt>
      <trkpt lat="46.57241" lon="5.80704">
        <ele>695.65</ele>
        <time>2022-07-23T09:46:33Z</time>
      </trkpt>
      <trkpt lat="46.57213" lon="5.80758">
        <ele>698.53</ele>
        <time>2022-07-23T09:46:52Z</time>
      </trkpt>
      <trkpt lat="46.57192" lon="5.80801">
        <ele>700.94</ele>
        <time>2022-07-23T09:47:09Z</time>
      </trkpt>
      <trkpt lat="46.57175" lon="5.80833">
        <ele>702.38</ele>
        <time>2022-07-23T09:47:23Z</time>
      </trkpt>
      <trkpt lat="46.57152" lon="5.80869">
        <ele>704.78</ele>
        <time>2022-07-23T09:47:38Z</time>
      </trkpt>
      <trkpt lat="46.57127" lon="5.80897">
        <ele>706.23</ele>
        <time>2022-07-23T09:47:53Z</time>
      </trkpt>
      <trkpt lat="46.57099" lon="5.80925">
        <ele>708.63</ele>
        <time>2022-07-23T09:48:08Z</time>
      </trkpt>
      <trkpt lat="46.57078" lon="5.80963">
        <ele>710.07</ele>
        <time>2022-07-23T09:48:24Z</time>
      </trkpt>
      <trkpt lat="46.57053" lon="5.8101">
        <ele>712.95</ele>
        <time>2022-07-23T09:48:41Z</time>
      </trkpt>
      <trkpt lat="46.57031" lon="5.81042">
        <ele>714.88</ele>
        <time>2022-07-23T09:48:56Z</time>
      </trkpt>
      <trkpt lat="46.5701" lon="5.81069">
        <ele>717.28</ele>
        <time>2022-07-23T09:49:11Z</time>
      </trkpt>
      <trkpt lat="46.56986" lon="5.81104">
        <ele>719.68</ele>
        <time>2022-07-23T09:49:28Z</time>
      </trkpt>
      <trkpt lat="46.56965" lon="5.81137">
        <ele>723.53</ele>
        <time>2022-07-23T09:49:44Z</time>
      </trkpt>
      <trkpt lat="46.56946" lon="5.81185">
        <ele>726.89</ele>
        <time>2022-07-23T09:50:03Z</time>
      </trkpt>
      <trkpt lat="46.56937" lon="5.81231">
        <ele>729.78</ele>
        <time>2022-07-23T09:50:21Z</time>
      </trkpt>
      <trkpt lat="46.56937" lon="5.81281">
        <ele>732.66</ele>
        <time>2022-07-23T09:50:40Z</time>
      </trkpt>
      <trkpt lat="46.5694" lon="5.81327">
        <ele>734.58</ele>
        <time>2022-07-23T09:50:57Z</time>
      </trkpt>
      <trkpt lat="46.56951" lon="5.8137">
        <ele>736.99</ele>
        <time>2022-07-23T09:51:13Z</time>
      </trkpt>
      <trkpt lat="46.56971" lon="5.81403">
        <ele>739.39</ele>
        <time>2022-07-23T09:51:29Z</time>
      </trkpt>
      <trkpt lat="46.56998" lon="5.81447">
        <ele>741.79</ele>
        <time>2022-07-23T09:51:47Z</time>
      </trkpt>
      <trkpt lat="46.57016" lon="5.81485">
        <ele>742.76</ele>
        <time>2022-07-23T09:52:03Z</time>
      </trkpt>
      <trkpt lat="46.57034" lon="5.81521">
        <ele>745.64</ele>
        <time>2022-07-23T09:52:18Z</time>
      </trkpt>
      <trkpt lat="46.57058" lon="5.81571">
        <ele>747.56</ele>
        <time>2022-07-23T09:52:36Z</time>
      </trkpt>
      <trkpt lat="46.57089" lon="5.81629">
        <ele>749.49</ele>
        <time>2022-07-23T09:52:56Z</time>
      </trkpt>
      <trkpt lat="46.57114" lon="5.81698">
        <ele>750.93</ele>
        <time>2022-07-23T09:53:14Z</time>
      </trkpt>
      <trkpt lat="46.57134" lon="5.81767">
        <ele>751.41</ele>
        <time>2022-07-23T09:53:29Z</time>
      </trkpt>
      <trkpt lat="46.57137" lon="5.81858">
        <ele>751.89</ele>
        <time>2022-07-23T09:53:46Z</time>
      </trkpt>
      <trkpt lat="46.57138" lon="5.81951">
        <ele>752.85</ele>
        <time>2022-07-23T09:54:05Z</time>
      </trkpt>
      <trkpt lat="46.57147" lon="5.82053">
        <ele>752.85</ele>
        <time>2022-07-23T09:54:22Z</time>
      </trkpt>
      <trkpt lat="46.57158" lon="5.82153">
        <ele>752.85</ele>
        <time>2022-07-23T09:54:37Z</time>
      </trkpt>
      <trkpt lat="46.57175" lon="5.82286">
        <ele>753.33</ele>
        <time>2022-07-23T09:54:58Z</time>
      </trkpt>
      <trkpt lat="46.57185" lon="5.82361">
        <ele>754.77</ele>
        <time>2022-07-23T09:55:15Z</time>
      </trkpt>
      <trkpt lat="46.57195" lon="5.82449">
        <ele>757.66</ele>
        <time>2022-07-23T09:55:35Z</time>
      </trkpt>
      <trkpt lat="46.57201" lon="5.82529">
        <ele>759.1</ele>
        <time>2022-07-23T09:55:56Z</time>
      </trkpt>
      <trkpt lat="46.57196" lon="5.82592">
        <ele>761.98</ele>
        <time>2022-07-23T09:56:16Z</time>
      </trkpt>
      <trkpt lat="46.57202" lon="5.8265">
        <ele>764.39</ele>
        <time>2022-07-23T09:56:35Z</time>
      </trkpt>
      <trkpt lat="46.57211" lon="5.827">
        <ele>765.35</ele>
        <time>2022-07-23T09:56:52Z</time>
      </trkpt>
      <trkpt lat="46.57218" lon="5.82746">
        <ele>768.23</ele>
        <time>2022-07-23T09:57:09Z</time>
      </trkpt>
      <trkpt lat="46.57202" lon="5.82793">
        <ele>770.63</ele>
        <time>2022-07-23T09:57:27Z</time>
      </trkpt>
      <trkpt lat="46.57196" lon="5.82806">
        <ele>771.11</ele>
        <time>2022-07-23T09:57:32Z</time>
      </trkpt>
      <trkpt lat="46.57195" lon="5.82808">
        <ele>771.6</ele>
        <time>2022-07-23T09:57:33Z</time>
      </trkpt>
      <trkpt lat="46.57193" lon="5.82849">
        <ele>773.04</ele>
        <time>2022-07-23T09:57:49Z</time>
      </trkpt>
      <trkpt lat="46.57201" lon="5.82897">
        <ele>775.44</ele>
        <time>2022-07-23T09:58:07Z</time>
      </trkpt>
      <trkpt lat="46.57198" lon="5.82939">
        <ele>777.84</ele>
        <time>2022-07-23T09:58:24Z</time>
      </trkpt>
      <trkpt lat="46.5719" lon="5.82976">
        <ele>780.25</ele>
        <time>2022-07-23T09:58:40Z</time>
      </trkpt>
      <trkpt lat="46.5718" lon="5.83023">
        <ele>783.13</ele>
        <time>2022-07-23T09:58:58Z</time>
      </trkpt>
      <trkpt lat="46.5716" lon="5.83057">
        <ele>786.02</ele>
        <time>2022-07-23T09:59:15Z</time>
      </trkpt>
      <trkpt lat="46.57137" lon="5.8308">
        <ele>786.98</ele>
        <time>2022-07-23T09:59:30Z</time>
      </trkpt>
      <trkpt lat="46.5709" lon="5.83102">
        <ele>788.42</ele>
        <time>2022-07-23T09:59:49Z</time>
      </trkpt>
      <trkpt lat="46.57052" lon="5.83108">
        <ele>789.38</ele>
        <time>2022-07-23T10:00:04Z</time>
      </trkpt>
      <trkpt lat="46.5702" lon="5.83142">
        <ele>791.3</ele>
        <time>2022-07-23T10:00:20Z</time>
      </trkpt>
      <trkpt lat="46.56995" lon="5.83182">
        <ele>794.19</ele>
        <time>2022-07-23T10:00:39Z</time>
      </trkpt>
      <trkpt lat="46.56973" lon="5.83204">
        <ele>796.11</ele>
        <time>2022-07-23T10:00:55Z</time>
      </trkpt>
      <trkpt lat="46.56948" lon="5.83216">
        <ele>798.99</ele>
        <time>2022-07-23T10:01:09Z</time>
      </trkpt>
      <trkpt lat="46.56922" lon="5.83227">
        <ele>800.92</ele>
        <time>2022-07-23T10:01:24Z</time>
      </trkpt>
      <trkpt lat="46.56901" lon="5.83244">
        <ele>801.88</ele>
        <time>2022-07-23T10:01:38Z</time>
      </trkpt>
      <trkpt lat="46.56876" lon="5.83252">
        <ele>803.8</ele>
        <time>2022-07-23T10:01:52Z</time>
      </trkpt>
      <trkpt lat="46.56865" lon="5.83256">
        <ele>805.24</ele>
        <time>2022-07-23T10:01:59Z</time>
      </trkpt>
      <trkpt lat="46.56863" lon="5.83258">
        <ele>805.24</ele>
        <time>2022-07-23T10:02:00Z</time>
      </trkpt>
      <trkpt lat="46.56862" lon="5.83259">
        <ele>805.24</ele>
        <time>2022-07-23T10:02:01Z</time>
      </trkpt>
      <trkpt lat="46.56862" lon="5.8326">
        <ele>805.24</ele>
        <time>2022-07-23T10:02:02Z</time>
      </trkpt>
      <trkpt lat="46.5686" lon="5.8326">
        <ele>805.24</ele>
        <time>2022-07-23T10:02:16Z</time>
      </trkpt>
      <trkpt lat="46.56861" lon="5.8326">
        <ele>805.72</ele>
        <time>2022-07-23T10:02:39Z</time>
      </trkpt>
      <trkpt lat="46.5686" lon="5.83258">
        <ele>805.24</ele>
        <time>2022-07-23T10:02:43Z</time>
      </trkpt>
      <trkpt lat="46.56858" lon="5.83258">
        <ele>805.24</ele>
        <time>2022-07-23T10:02:44Z</time>
      </trkpt>
      <trkpt lat="46.56857" lon="5.83258">
        <ele>806.2</ele>
        <time>2022-07-23T10:02:45Z</time>
      </trkpt>
      <trkpt lat="46.56858" lon="5.83258">
        <ele>805.72</ele>
        <time>2022-07-23T10:02:46Z</time>
      </trkpt>
      <trkpt lat="46.5686" lon="5.83258">
        <ele>805.72</ele>
        <time>2022-07-23T10:02:47Z</time>
      </trkpt>
      <trkpt lat="46.5686" lon="5.8326">
        <ele>805.24</ele>
        <time>2022-07-23T10:02:48Z</time>
      </trkpt>
      <trkpt lat="46.5686" lon="5.83262">
        <ele>805.24</ele>
        <time>2022-07-23T10:02:49Z</time>
      </trkpt>
      <trkpt lat="46.56859" lon="5.83264">
        <ele>805.24</ele>
        <time>2022-07-23T10:02:50Z</time>
      </trkpt>
      <trkpt lat="46.56857" lon="5.83266">
        <ele>805.72</ele>
        <time>2022-07-23T10:02:51Z</time>
      </trkpt>
      <trkpt lat="46.56856" lon="5.83267">
        <ele>806.2</ele>
        <time>2022-07-23T10:02:52Z</time>
      </trkpt>
      <trkpt lat="46.56854" lon="5.83269">
        <ele>806.2</ele>
        <time>2022-07-23T10:02:53Z</time>
      </trkpt>
      <trkpt lat="46.56853" lon="5.8327">
        <ele>806.2</ele>
        <time>2022-07-23T10:02:54Z</time>
      </trkpt>
      <trkpt lat="46.56837" lon="5.83285">
        <ele>807.16</ele>
        <time>2022-07-23T10:03:11Z</time>
      </trkpt>
      <trkpt lat="46.56827" lon="5.83286">
        <ele>808.13</ele>
        <time>2022-07-23T10:03:19Z</time>
      </trkpt>
      <trkpt lat="46.56801" lon="5.83268">
        <ele>807.16</ele>
        <time>2022-07-23T10:03:29Z</time>
      </trkpt>
      <trkpt lat="46.5677" lon="5.83273">
        <ele>809.09</ele>
        <time>2022-07-23T10:03:42Z</time>
      </trkpt>
      <trkpt lat="46.56733" lon="5.83287">
        <ele>810.05</ele>
        <time>2022-07-23T10:03:59Z</time>
      </trkpt>
      <trkpt lat="46.56692" lon="5.83315">
        <ele>811.01</ele>
        <time>2022-07-23T10:04:17Z</time>
      </trkpt>
      <trkpt lat="46.56659" lon="5.8334">
        <ele>812.45</ele>
        <time>2022-07-23T10:04:32Z</time>
      </trkpt>
      <trkpt lat="46.56622" lon="5.83369">
        <ele>813.89</ele>
        <time>2022-07-23T10:04:47Z</time>
      </trkpt>
      <trkpt lat="46.56579" lon="5.83402">
        <ele>814.85</ele>
        <time>2022-07-23T10:05:04Z</time>
      </trkpt>
      <trkpt lat="46.56533" lon="5.83446">
        <ele>816.78</ele>
        <time>2022-07-23T10:05:22Z</time>
      </trkpt>
      <trkpt lat="46.56501" lon="5.83484">
        <ele>818.22</ele>
        <time>2022-07-23T10:05:39Z</time>
      </trkpt>
      <trkpt lat="46.56479" lon="5.83509">
        <ele>820.14</ele>
        <time>2022-07-23T10:05:52Z</time>
      </trkpt>
      <trkpt lat="46.5644" lon="5.83543">
        <ele>821.58</ele>
        <time>2022-07-23T10:06:11Z</time>
      </trkpt>
      <trkpt lat="46.56408" lon="5.83559">
        <ele>822.55</ele>
        <time>2022-07-23T10:06:25Z</time>
      </trkpt>
      <trkpt lat="46.56377" lon="5.83586">
        <ele>824.47</ele>
        <time>2022-07-23T10:06:41Z</time>
      </trkpt>
      <trkpt lat="46.56339" lon="5.83609">
        <ele>825.43</ele>
        <time>2022-07-23T10:06:57Z</time>
      </trkpt>
      <trkpt lat="46.56302" lon="5.83626">
        <ele>826.87</ele>
        <time>2022-07-23T10:07:13Z</time>
      </trkpt>
      <trkpt lat="46.56259" lon="5.83644">
        <ele>828.31</ele>
        <time>2022-07-23T10:07:30Z</time>
      </trkpt>
      <trkpt lat="46.56212" lon="5.83659">
        <ele>829.76</ele>
        <time>2022-07-23T10:07:48Z</time>
      </trkpt>
      <trkpt lat="46.56179" lon="5.83648">
        <ele>831.68</ele>
        <time>2022-07-23T10:08:04Z</time>
      </trkpt>
      <trkpt lat="46.56143" lon="5.83631">
        <ele>833.12</ele>
        <time>2022-07-23T10:08:20Z</time>
      </trkpt>
      <trkpt lat="46.56109" lon="5.83617">
        <ele>835.04</ele>
        <time>2022-07-23T10:08:34Z</time>
      </trkpt>
      <trkpt lat="46.56075" lon="5.83626">
        <ele>836.48</ele>
        <time>2022-07-23T10:08:47Z</time>
      </trkpt>
      <trkpt lat="46.56037" lon="5.83656">
        <ele>837.93</ele>
        <time>2022-07-23T10:09:03Z</time>
      </trkpt>
      <trkpt lat="46.56005" lon="5.83675">
        <ele>838.89</ele>
        <time>2022-07-23T10:09:15Z</time>
      </trkpt>
      <trkpt lat="46.55978" lon="5.8369">
        <ele>840.33</ele>
        <time>2022-07-23T10:09:27Z</time>
      </trkpt>
      <trkpt lat="46.55944" lon="5.83694">
        <ele>842.25</ele>
        <time>2022-07-23T10:09:39Z</time>
      </trkpt>
      <trkpt lat="46.55909" lon="5.83692">
        <ele>842.73</ele>
        <time>2022-07-23T10:09:53Z</time>
      </trkpt>
      <trkpt lat="46.55878" lon="5.83691">
        <ele>845.14</ele>
        <time>2022-07-23T10:10:07Z</time>
      </trkpt>
      <trkpt lat="46.55844" lon="5.83698">
        <ele>846.58</ele>
        <time>2022-07-23T10:10:19Z</time>
      </trkpt>
      <trkpt lat="46.55801" lon="5.83726">
        <ele>848.02</ele>
        <time>2022-07-23T10:10:34Z</time>
      </trkpt>
      <trkpt lat="46.55768" lon="5.83759">
        <ele>848.98</ele>
        <time>2022-07-23T10:10:49Z</time>
      </trkpt>
      <trkpt lat="46.55741" lon="5.83783">
        <ele>850.9</ele>
        <time>2022-07-23T10:11:01Z</time>
      </trkpt>
      <trkpt lat="46.55708" lon="5.83823">
        <ele>851.87</ele>
        <time>2022-07-23T10:11:17Z</time>
      </trkpt>
      <trkpt lat="46.55688" lon="5.83872">
        <ele>852.83</ele>
        <time>2022-07-23T10:11:30Z</time>
      </trkpt>
      <trkpt lat="46.55706" lon="5.83931">
        <ele>854.27</ele>
        <time>2022-07-23T10:11:44Z</time>
      </trkpt>
      <trkpt lat="46.55735" lon="5.8396">
        <ele>855.23</ele>
        <time>2022-07-23T10:11:57Z</time>
      </trkpt>
      <trkpt lat="46.55769" lon="5.83977">
        <ele>856.67</ele>
        <time>2022-07-23T10:12:09Z</time>
      </trkpt>
      <trkpt lat="46.55815" lon="5.83975">
        <ele>857.63</ele>
        <time>2022-07-23T10:12:25Z</time>
      </trkpt>
      <trkpt lat="46.55847" lon="5.8397">
        <ele>858.59</ele>
        <time>2022-07-23T10:12:38Z</time>
      </trkpt>
      <trkpt lat="46.55886" lon="5.83963">
        <ele>860.52</ele>
        <time>2022-07-23T10:12:54Z</time>
      </trkpt>
      <trkpt lat="46.55937" lon="5.83973">
        <ele>862.44</ele>
        <time>2022-07-23T10:13:12Z</time>
      </trkpt>
      <trkpt lat="46.55984" lon="5.8402">
        <ele>864.36</ele>
        <time>2022-07-23T10:13:30Z</time>
      </trkpt>
      <trkpt lat="46.56027" lon="5.84064">
        <ele>865.32</ele>
        <time>2022-07-23T10:13:46Z</time>
      </trkpt>
      <trkpt lat="46.56067" lon="5.84104">
        <ele>866.29</ele>
        <time>2022-07-23T10:14:02Z</time>
      </trkpt>
      <trkpt lat="46.56094" lon="5.84133">
        <ele>867.73</ele>
        <time>2022-07-23T10:14:15Z</time>
      </trkpt>
      <trkpt lat="46.5612" lon="5.84163">
        <ele>869.17</ele>
        <time>2022-07-23T10:14:28Z</time>
      </trkpt>
      <trkpt lat="46.56143" lon="5.84206">
        <ele>869.17</ele>
        <time>2022-07-23T10:14:41Z</time>
      </trkpt>
      <trkpt lat="46.56131" lon="5.84245">
        <ele>871.09</ele>
        <time>2022-07-23T10:14:52Z</time>
      </trkpt>
      <trkpt lat="46.56115" lon="5.84267">
        <ele>873.01</ele>
        <time>2022-07-23T10:15:04Z</time>
      </trkpt>
      <trkpt lat="46.56091" lon="5.84281">
        <ele>874.46</ele>
        <time>2022-07-23T10:15:18Z</time>
      </trkpt>
      <trkpt lat="46.56065" lon="5.843">
        <ele>875.9</ele>
        <time>2022-07-23T10:15:32Z</time>
      </trkpt>
      <trkpt lat="46.56041" lon="5.84313">
        <ele>877.34</ele>
        <time>2022-07-23T10:15:45Z</time>
      </trkpt>
      <trkpt lat="46.56016" lon="5.84323">
        <ele>879.26</ele>
        <time>2022-07-23T10:16:00Z</time>
      </trkpt>
      <trkpt lat="46.55988" lon="5.84329">
        <ele>881.67</ele>
        <time>2022-07-23T10:16:15Z</time>
      </trkpt>
      <trkpt lat="46.55965" lon="5.84328">
        <ele>883.59</ele>
        <time>2022-07-23T10:16:28Z</time>
      </trkpt>
      <trkpt lat="46.55945" lon="5.84321">
        <ele>885.03</ele>
        <time>2022-07-23T10:16:42Z</time>
      </trkpt>
      <trkpt lat="46.55942" lon="5.8432">
        <ele>885.51</ele>
        <time>2022-07-23T10:16:45Z</time>
      </trkpt>
      <trkpt lat="46.5594" lon="5.84319">
        <ele>885.51</ele>
        <time>2022-07-23T10:16:46Z</time>
      </trkpt>
      <trkpt lat="46.55939" lon="5.84318">
        <ele>885.99</ele>
        <time>2022-07-23T10:16:47Z</time>
      </trkpt>
      <trkpt lat="46.55937" lon="5.84318">
        <ele>885.99</ele>
        <time>2022-07-23T10:16:48Z</time>
      </trkpt>
      <trkpt lat="46.55935" lon="5.84318">
        <ele>886.47</ele>
        <time>2022-07-23T10:16:49Z</time>
      </trkpt>
      <trkpt lat="46.55927" lon="5.84316">
        <ele>886.95</ele>
        <time>2022-07-23T10:16:53Z</time>
      </trkpt>
      <trkpt lat="46.55897" lon="5.84303">
        <ele>889.36</ele>
        <time>2022-07-23T10:17:09Z</time>
      </trkpt>
      <trkpt lat="46.55886" lon="5.84293">
        <ele>890.8</ele>
        <time>2022-07-23T10:17:17Z</time>
      </trkpt>
      <trkpt lat="46.55884" lon="5.84291">
        <ele>890.32</ele>
        <time>2022-07-23T10:17:18Z</time>
      </trkpt>
      <trkpt lat="46.55882" lon="5.84288">
        <ele>891.28</ele>
        <time>2022-07-23T10:17:19Z</time>
      </trkpt>
      <trkpt lat="46.55881" lon="5.84286">
        <ele>891.28</ele>
        <time>2022-07-23T10:17:20Z</time>
      </trkpt>
      <trkpt lat="46.5588" lon="5.84283">
        <ele>891.28</ele>
        <time>2022-07-23T10:17:21Z</time>
      </trkpt>
      <trkpt lat="46.55862" lon="5.84261">
        <ele>893.2</ele>
        <time>2022-07-23T10:17:34Z</time>
      </trkpt>
      <trkpt lat="46.55839" lon="5.84245">
        <ele>895.61</ele>
        <time>2022-07-23T10:17:49Z</time>
      </trkpt>
      <trkpt lat="46.55815" lon="5.84232">
        <ele>897.53</ele>
        <time>2022-07-23T10:18:04Z</time>
      </trkpt>
      <trkpt lat="46.55784" lon="5.84225">
        <ele>899.93</ele>
        <time>2022-07-23T10:18:19Z</time>
      </trkpt>
      <trkpt lat="46.55773" lon="5.84221">
        <ele>901.37</ele>
        <time>2022-07-23T10:18:28Z</time>
      </trkpt>
      <trkpt lat="46.55771" lon="5.84219">
        <ele>901.85</ele>
        <time>2022-07-23T10:18:29Z</time>
      </trkpt>
      <trkpt lat="46.55768" lon="5.84218">
        <ele>900.89</ele>
        <time>2022-07-23T10:18:30Z</time>
      </trkpt>
      <trkpt lat="46.55742" lon="5.84205">
        <ele>903.78</ele>
        <time>2022-07-23T10:18:43Z</time>
      </trkpt>
      <trkpt lat="46.55717" lon="5.84194">
        <ele>906.66</ele>
        <time>2022-07-23T10:18:57Z</time>
      </trkpt>
      <trkpt lat="46.55691" lon="5.84183">
        <ele>909.06</ele>
        <time>2022-07-23T10:19:11Z</time>
      </trkpt>
      <trkpt lat="46.5567" lon="5.84166">
        <ele>910.99</ele>
        <time>2022-07-23T10:19:27Z</time>
      </trkpt>
      <trkpt lat="46.55667" lon="5.84165">
        <ele>911.47</ele>
        <time>2022-07-23T10:19:29Z</time>
      </trkpt>
      <trkpt lat="46.55665" lon="5.84165">
        <ele>910.99</ele>
        <time>2022-07-23T10:19:30Z</time>
      </trkpt>
      <trkpt lat="46.5564" lon="5.84163">
        <ele>913.87</ele>
        <time>2022-07-23T10:19:45Z</time>
      </trkpt>
      <trkpt lat="46.55615" lon="5.84168">
        <ele>915.79</ele>
        <time>2022-07-23T10:19:57Z</time>
      </trkpt>
      <trkpt lat="46.55605" lon="5.84171">
        <ele>917.24</ele>
        <time>2022-07-23T10:20:03Z</time>
      </trkpt>
      <trkpt lat="46.55584" lon="5.84181">
        <ele>918.68</ele>
        <time>2022-07-23T10:20:15Z</time>
      </trkpt>
      <trkpt lat="46.5556" lon="5.84199">
        <ele>920.12</ele>
        <time>2022-07-23T10:20:28Z</time>
      </trkpt>
      <trkpt lat="46.55532" lon="5.84222">
        <ele>922.04</ele>
        <time>2022-07-23T10:20:46Z</time>
      </trkpt>
      <trkpt lat="46.55504" lon="5.84243">
        <ele>924.45</ele>
        <time>2022-07-23T10:21:01Z</time>
      </trkpt>
      <trkpt lat="46.55477" lon="5.84264">
        <ele>926.37</ele>
        <time>2022-07-23T10:21:16Z</time>
      </trkpt>
      <trkpt lat="46.55452" lon="5.84279">
        <ele>927.81</ele>
        <time>2022-07-23T10:21:27Z</time>
      </trkpt>
      <trkpt lat="46.55428" lon="5.84298">
        <ele>929.73</ele>
        <time>2022-07-23T10:21:40Z</time>
      </trkpt>
      <trkpt lat="46.55405" lon="5.84329">
        <ele>931.65</ele>
        <time>2022-07-23T10:21:53Z</time>
      </trkpt>
      <trkpt lat="46.55405" lon="5.84332">
        <ele>932.14</ele>
        <time>2022-07-23T10:21:54Z</time>
      </trkpt>
      <trkpt lat="46.55404" lon="5.84336">
        <ele>932.14</ele>
        <time>2022-07-23T10:21:55Z</time>
      </trkpt>
      <trkpt lat="46.55403" lon="5.84339">
        <ele>932.14</ele>
        <time>2022-07-23T10:21:56Z</time>
      </trkpt>
      <trkpt lat="46.55403" lon="5.84342">
        <ele>932.62</ele>
        <time>2022-07-23T10:21:57Z</time>
      </trkpt>
      <trkpt lat="46.55402" lon="5.84345">
        <ele>933.1</ele>
        <time>2022-07-23T10:21:58Z</time>
      </trkpt>
      <trkpt lat="46.55402" lon="5.84348">
        <ele>932.62</ele>
        <time>2022-07-23T10:21:59Z</time>
      </trkpt>
      <trkpt lat="46.55402" lon="5.84352">
        <ele>933.1</ele>
        <time>2022-07-23T10:22:00Z</time>
      </trkpt>
      <trkpt lat="46.55402" lon="5.84355">
        <ele>933.58</ele>
        <time>2022-07-23T10:22:01Z</time>
      </trkpt>
      <trkpt lat="46.55402" lon="5.84359">
        <ele>933.1</ele>
        <time>2022-07-23T10:22:02Z</time>
      </trkpt>
      <trkpt lat="46.55402" lon="5.84363">
        <ele>933.58</ele>
        <time>2022-07-23T10:22:03Z</time>
      </trkpt>
      <trkpt lat="46.55403" lon="5.84368">
        <ele>933.1</ele>
        <time>2022-07-23T10:22:04Z</time>
      </trkpt>
      <trkpt lat="46.5542" lon="5.84403">
        <ele>935.02</ele>
        <time>2022-07-23T10:22:16Z</time>
      </trkpt>
      <trkpt lat="46.55444" lon="5.84426">
        <ele>936.94</ele>
        <time>2022-07-23T10:22:30Z</time>
      </trkpt>
      <trkpt lat="46.55469" lon="5.84458">
        <ele>938.38</ele>
        <time>2022-07-23T10:22:44Z</time>
      </trkpt>
      <trkpt lat="46.55485" lon="5.84477">
        <ele>939.83</ele>
        <time>2022-07-23T10:22:53Z</time>
      </trkpt>
      <trkpt lat="46.55487" lon="5.84484">
        <ele>940.31</ele>
        <time>2022-07-23T10:22:57Z</time>
      </trkpt>
      <trkpt lat="46.55511" lon="5.84519">
        <ele>942.23</ele>
        <time>2022-07-23T10:23:13Z</time>
      </trkpt>
      <trkpt lat="46.55525" lon="5.84536">
        <ele>943.67</ele>
        <time>2022-07-23T10:23:25Z</time>
      </trkpt>
      <trkpt lat="46.55535" lon="5.84566">
        <ele>945.11</ele>
        <time>2022-07-23T10:23:38Z</time>
      </trkpt>
      <trkpt lat="46.55533" lon="5.84567">
        <ele>946.07</ele>
        <time>2022-07-23T10:23:40Z</time>
      </trkpt>
      <trkpt lat="46.55516" lon="5.84574">
        <ele>948.48</ele>
        <time>2022-07-23T10:23:54Z</time>
      </trkpt>
      <trkpt lat="46.555" lon="5.84567">
        <ele>949.44</ele>
        <time>2022-07-23T10:24:06Z</time>
      </trkpt>
      <trkpt lat="46.55478" lon="5.84557">
        <ele>950.88</ele>
        <time>2022-07-23T10:24:18Z</time>
      </trkpt>
      <trkpt lat="46.55458" lon="5.84545">
        <ele>951.84</ele>
        <time>2022-07-23T10:24:29Z</time>
      </trkpt>
      <trkpt lat="46.55424" lon="5.84522">
        <ele>953.77</ele>
        <time>2022-07-23T10:24:43Z</time>
      </trkpt>
      <trkpt lat="46.55397" lon="5.8451">
        <ele>955.21</ele>
        <time>2022-07-23T10:24:56Z</time>
      </trkpt>
      <trkpt lat="46.55374" lon="5.84502">
        <ele>958.09</ele>
        <time>2022-07-23T10:25:11Z</time>
      </trkpt>
      <trkpt lat="46.55348" lon="5.8451">
        <ele>960.01</ele>
        <time>2022-07-23T10:25:26Z</time>
      </trkpt>
      <trkpt lat="46.55319" lon="5.84533">
        <ele>961.46</ele>
        <time>2022-07-23T10:25:39Z</time>
      </trkpt>
      <trkpt lat="46.55308" lon="5.8455">
        <ele>962.9</ele>
        <time>2022-07-23T10:25:47Z</time>
      </trkpt>
      <trkpt lat="46.55295" lon="5.84572">
        <ele>964.34</ele>
        <time>2022-07-23T10:25:56Z</time>
      </trkpt>
      <trkpt lat="46.55293" lon="5.84573">
        <ele>964.34</ele>
        <time>2022-07-23T10:25:57Z</time>
      </trkpt>
      <trkpt lat="46.55292" lon="5.84575">
        <ele>964.82</ele>
        <time>2022-07-23T10:25:58Z</time>
      </trkpt>
      <trkpt lat="46.5529" lon="5.84578">
        <ele>964.34</ele>
        <time>2022-07-23T10:25:59Z</time>
      </trkpt>
      <trkpt lat="46.55289" lon="5.8458">
        <ele>964.82</ele>
        <time>2022-07-23T10:26:00Z</time>
      </trkpt>
      <trkpt lat="46.55288" lon="5.84583">
        <ele>964.82</ele>
        <time>2022-07-23T10:26:01Z</time>
      </trkpt>
      <trkpt lat="46.55287" lon="5.84585">
        <ele>964.82</ele>
        <time>2022-07-23T10:26:02Z</time>
      </trkpt>
      <trkpt lat="46.55285" lon="5.84587">
        <ele>965.3</ele>
        <time>2022-07-23T10:26:03Z</time>
      </trkpt>
      <trkpt lat="46.55284" lon="5.8459">
        <ele>965.3</ele>
        <time>2022-07-23T10:26:04Z</time>
      </trkpt>
      <trkpt lat="46.55283" lon="5.84594">
        <ele>965.3</ele>
        <time>2022-07-23T10:26:05Z</time>
      </trkpt>
      <trkpt lat="46.55282" lon="5.84597">
        <ele>965.3</ele>
        <time>2022-07-23T10:26:06Z</time>
      </trkpt>
      <trkpt lat="46.5528" lon="5.84599">
        <ele>965.78</ele>
        <time>2022-07-23T10:26:07Z</time>
      </trkpt>
      <trkpt lat="46.55279" lon="5.84602">
        <ele>965.78</ele>
        <time>2022-07-23T10:26:08Z</time>
      </trkpt>
      <trkpt lat="46.55278" lon="5.84604">
        <ele>965.78</ele>
        <time>2022-07-23T10:26:09Z</time>
      </trkpt>
      <trkpt lat="46.55263" lon="5.84641">
        <ele>967.7</ele>
        <time>2022-07-23T10:26:24Z</time>
      </trkpt>
      <trkpt lat="46.55241" lon="5.84667">
        <ele>969.63</ele>
        <time>2022-07-23T10:26:39Z</time>
      </trkpt>
      <trkpt lat="46.55222" lon="5.84675">
        <ele>972.03</ele>
        <time>2022-07-23T10:26:54Z</time>
      </trkpt>
      <trkpt lat="46.55197" lon="5.84672">
        <ele>974.43</ele>
        <time>2022-07-23T10:27:09Z</time>
      </trkpt>
      <trkpt lat="46.55168" lon="5.84669">
        <ele>976.36</ele>
        <time>2022-07-23T10:27:26Z</time>
      </trkpt>
      <trkpt lat="46.55142" lon="5.84669">
        <ele>977.32</ele>
        <time>2022-07-23T10:27:41Z</time>
      </trkpt>
      <trkpt lat="46.55119" lon="5.84667">
        <ele>980.2</ele>
        <time>2022-07-23T10:27:57Z</time>
      </trkpt>
      <trkpt lat="46.55087" lon="5.84684">
        <ele>983.09</ele>
        <time>2022-07-23T10:28:13Z</time>
      </trkpt>
      <trkpt lat="46.5506" lon="5.84709">
        <ele>984.05</ele>
        <time>2022-07-23T10:28:28Z</time>
      </trkpt>
      <trkpt lat="46.5504" lon="5.84733">
        <ele>985.49</ele>
        <time>2022-07-23T10:28:42Z</time>
      </trkpt>
      <trkpt lat="46.55032" lon="5.84758">
        <ele>987.89</ele>
        <time>2022-07-23T10:28:56Z</time>
      </trkpt>
      <trkpt lat="46.55019" lon="5.84776">
        <ele>990.3</ele>
        <time>2022-07-23T10:29:09Z</time>
      </trkpt>
      <trkpt lat="46.55006" lon="5.84791">
        <ele>991.74</ele>
        <time>2022-07-23T10:29:20Z</time>
      </trkpt>
      <trkpt lat="46.54983" lon="5.8481">
        <ele>994.62</ele>
        <time>2022-07-23T10:29:35Z</time>
      </trkpt>
      <trkpt lat="46.54963" lon="5.8481">
        <ele>996.06</ele>
        <time>2022-07-23T10:29:47Z</time>
      </trkpt>
      <trkpt lat="46.54931" lon="5.84805">
        <ele>997.51</ele>
        <time>2022-07-23T10:30:02Z</time>
      </trkpt>
      <trkpt lat="46.54896" lon="5.84804">
        <ele>999.43</ele>
        <time>2022-07-23T10:30:15Z</time>
      </trkpt>
      <trkpt lat="46.54888" lon="5.84809">
        <ele>999.43</ele>
        <time>2022-07-23T10:30:18Z</time>
      </trkpt>
      <trkpt lat="46.54887" lon="5.84812">
        <ele>999.91</ele>
        <time>2022-07-23T10:30:19Z</time>
      </trkpt>
      <trkpt lat="46.54885" lon="5.84816">
        <ele>999.43</ele>
        <time>2022-07-23T10:30:20Z</time>
      </trkpt>
      <trkpt lat="46.54886" lon="5.8482">
        <ele>999.43</ele>
        <time>2022-07-23T10:30:21Z</time>
      </trkpt>
      <trkpt lat="46.54887" lon="5.84823">
        <ele>1000.39</ele>
        <time>2022-07-23T10:30:22Z</time>
      </trkpt>
      <trkpt lat="46.54888" lon="5.84825">
        <ele>1000.87</ele>
        <time>2022-07-23T10:30:23Z</time>
      </trkpt>
      <trkpt lat="46.5489" lon="5.84828">
        <ele>1000.39</ele>
        <time>2022-07-23T10:30:24Z</time>
      </trkpt>
      <trkpt lat="46.54912" lon="5.84866">
        <ele>1002.31</ele>
        <time>2022-07-23T10:30:40Z</time>
      </trkpt>
      <trkpt lat="46.54925" lon="5.84897">
        <ele>1003.75</ele>
        <time>2022-07-23T10:30:52Z</time>
      </trkpt>
      <trkpt lat="46.54945" lon="5.84927">
        <ele>1005.68</ele>
        <time>2022-07-23T10:31:06Z</time>
      </trkpt>
      <trkpt lat="46.54974" lon="5.84946">
        <ele>1007.6</ele>
        <time>2022-07-23T10:31:22Z</time>
      </trkpt>
      <trkpt lat="46.55003" lon="5.8496">
        <ele>1009.52</ele>
        <time>2022-07-23T10:31:36Z</time>
      </trkpt>
      <trkpt lat="46.55031" lon="5.84974">
        <ele>1010.96</ele>
        <time>2022-07-23T10:31:50Z</time>
      </trkpt>
      <trkpt lat="46.55041" lon="5.84979">
        <ele>1011.93</ele>
        <time>2022-07-23T10:31:56Z</time>
      </trkpt>
      <trkpt lat="46.55045" lon="5.84987">
        <ele>1012.89</ele>
        <time>2022-07-23T10:32:01Z</time>
      </trkpt>
      <trkpt lat="46.55045" lon="5.84989">
        <ele>1012.89</ele>
        <time>2022-07-23T10:32:02Z</time>
      </trkpt>
      <trkpt lat="46.55028" lon="5.85005">
        <ele>1014.81</ele>
        <time>2022-07-23T10:32:13Z</time>
      </trkpt>
      <trkpt lat="46.55025" lon="5.85012">
        <ele>1016.73</ele>
        <time>2022-07-23T10:32:25Z</time>
      </trkpt>
      <trkpt lat="46.54996" lon="5.85003">
        <ele>1019.13</ele>
        <time>2022-07-23T10:32:40Z</time>
      </trkpt>
      <trkpt lat="46.54972" lon="5.85004">
        <ele>1021.06</ele>
        <time>2022-07-23T10:32:53Z</time>
      </trkpt>
      <trkpt lat="46.54939" lon="5.8502">
        <ele>1022.5</ele>
        <time>2022-07-23T10:33:07Z</time>
      </trkpt>
      <trkpt lat="46.54889" lon="5.85035">
        <ele>1022.98</ele>
        <time>2022-07-23T10:33:21Z</time>
      </trkpt>
      <trkpt lat="46.54829" lon="5.85062">
        <ele>1023.94</ele>
        <time>2022-07-23T10:33:36Z</time>
      </trkpt>
      <trkpt lat="46.54795" lon="5.85082">
        <ele>1024.9</ele>
        <time>2022-07-23T10:33:47Z</time>
      </trkpt>
      <trkpt lat="46.5475" lon="5.85086">
        <ele>1025.86</ele>
        <time>2022-07-23T10:33:59Z</time>
      </trkpt>
      <trkpt lat="46.54703" lon="5.85107">
        <ele>1026.83</ele>
        <time>2022-07-23T10:34:10Z</time>
      </trkpt>
      <trkpt lat="46.54668" lon="5.85144">
        <ele>1029.23</ele>
        <time>2022-07-23T10:34:22Z</time>
      </trkpt>
      <trkpt lat="46.54639" lon="5.85175">
        <ele>1029.23</ele>
        <time>2022-07-23T10:34:34Z</time>
      </trkpt>
      <trkpt lat="46.54618" lon="5.85171">
        <ele>1031.15</ele>
        <time>2022-07-23T10:34:44Z</time>
      </trkpt>
      <trkpt lat="46.54593" lon="5.85164">
        <ele>1032.59</ele>
        <time>2022-07-23T10:34:57Z</time>
      </trkpt>
      <trkpt lat="46.54562" lon="5.85168">
        <ele>1034.52</ele>
        <time>2022-07-23T10:35:10Z</time>
      </trkpt>
      <trkpt lat="46.54538" lon="5.85166">
        <ele>1035.48</ele>
        <time>2022-07-23T10:35:23Z</time>
      </trkpt>
      <trkpt lat="46.54519" lon="5.85158">
        <ele>1035.96</ele>
        <time>2022-07-23T10:35:30Z</time>
      </trkpt>
      <trkpt lat="46.54516" lon="5.85157">
        <ele>1036.44</ele>
        <time>2022-07-23T10:35:31Z</time>
      </trkpt>
      <trkpt lat="46.54514" lon="5.85155">
        <ele>1035.96</ele>
        <time>2022-07-23T10:35:32Z</time>
      </trkpt>
      <trkpt lat="46.54512" lon="5.85154">
        <ele>1035.96</ele>
        <time>2022-07-23T10:35:33Z</time>
      </trkpt>
      <trkpt lat="46.54512" lon="5.85153">
        <ele>1036.44</ele>
        <time>2022-07-23T10:35:34Z</time>
      </trkpt>
      <trkpt lat="46.54507" lon="5.85152">
        <ele>1036.92</ele>
        <time>2022-07-23T10:35:35Z</time>
      </trkpt>
      <trkpt lat="46.54477" lon="5.85138">
        <ele>1037.88</ele>
        <time>2022-07-23T10:35:48Z</time>
      </trkpt>
      <trkpt lat="46.54434" lon="5.85119">
        <ele>1038.84</ele>
        <time>2022-07-23T10:36:02Z</time>
      </trkpt>
      <trkpt lat="46.5439" lon="5.85102">
        <ele>1039.8</ele>
        <time>2022-07-23T10:36:16Z</time>
      </trkpt>
      <trkpt lat="46.5435" lon="5.85109">
        <ele>1042.21</ele>
        <time>2022-07-23T10:36:30Z</time>
      </trkpt>
      <trkpt lat="46.54312" lon="5.85121">
        <ele>1044.13</ele>
        <time>2022-07-23T10:36:43Z</time>
      </trkpt>
      <trkpt lat="46.54269" lon="5.8511">
        <ele>1045.57</ele>
        <time>2022-07-23T10:36:59Z</time>
      </trkpt>
      <trkpt lat="46.54262" lon="5.85108">
        <ele>1046.05</ele>
        <time>2022-07-23T10:37:13Z</time>
      </trkpt>
      <trkpt lat="46.54259" lon="5.8511">
        <ele>1046.53</ele>
        <time>2022-07-23T10:37:27Z</time>
      </trkpt>
      <trkpt lat="46.54256" lon="5.85118">
        <ele>1046.53</ele>
        <time>2022-07-23T10:37:56Z</time>
      </trkpt>
      <trkpt lat="46.54258" lon="5.85116">
        <ele>1046.53</ele>
        <time>2022-07-23T10:38:36Z</time>
      </trkpt>
      <trkpt lat="46.54261" lon="5.8511">
        <ele>1047.01</ele>
        <time>2022-07-23T10:39:01Z</time>
      </trkpt>
      <trkpt lat="46.54266" lon="5.85111">
        <ele>1046.05</ele>
        <time>2022-07-23T10:39:40Z</time>
      </trkpt>
      <trkpt lat="46.54269" lon="5.85111">
        <ele>1047.01</ele>
        <time>2022-07-23T10:40:22Z</time>
      </trkpt>
      <trkpt lat="46.54263" lon="5.85111">
        <ele>1047.49</ele>
        <time>2022-07-23T10:40:54Z</time>
      </trkpt>
      <trkpt lat="46.54259" lon="5.85123">
        <ele>1047.49</ele>
        <time>2022-07-23T10:41:24Z</time>
      </trkpt>
      <trkpt lat="46.54255" lon="5.85121">
        <ele>1047.97</ele>
        <time>2022-07-23T10:42:00Z</time>
      </trkpt>
      <trkpt lat="46.54256" lon="5.85122">
        <ele>1048.45</ele>
        <time>2022-07-23T10:42:34Z</time>
      </trkpt>
      <trkpt lat="46.54254" lon="5.85117">
        <ele>1048.94</ele>
        <time>2022-07-23T10:42:59Z</time>
      </trkpt>
      <trkpt lat="46.54242" lon="5.85097">
        <ele>1047.49</ele>
        <time>2022-07-23T10:43:17Z</time>
      </trkpt>
      <trkpt lat="46.54228" lon="5.85088">
        <ele>1047.01</ele>
        <time>2022-07-23T10:43:30Z</time>
      </trkpt>
      <trkpt lat="46.54219" lon="5.85079">
        <ele>1046.53</ele>
        <time>2022-07-23T10:43:52Z</time>
      </trkpt>
      <trkpt lat="46.54217" lon="5.85078">
        <ele>1047.01</ele>
        <time>2022-07-23T10:43:53Z</time>
      </trkpt>
      <trkpt lat="46.54216" lon="5.85076">
        <ele>1047.49</ele>
        <time>2022-07-23T10:43:54Z</time>
      </trkpt>
      <trkpt lat="46.54214" lon="5.85075">
        <ele>1047.01</ele>
        <time>2022-07-23T10:43:55Z</time>
      </trkpt>
      <trkpt lat="46.54213" lon="5.85074">
        <ele>1046.53</ele>
        <time>2022-07-23T10:43:56Z</time>
      </trkpt>
      <trkpt lat="46.54208" lon="5.85071">
        <ele>1046.05</ele>
        <time>2022-07-23T10:43:59Z</time>
      </trkpt>
      <trkpt lat="46.54206" lon="5.85071">
        <ele>1046.53</ele>
        <time>2022-07-23T10:44:00Z</time>
      </trkpt>
      <trkpt lat="46.54204" lon="5.85071">
        <ele>1046.53</ele>
        <time>2022-07-23T10:44:01Z</time>
      </trkpt>
      <trkpt lat="46.54202" lon="5.85072">
        <ele>1046.05</ele>
        <time>2022-07-23T10:44:02Z</time>
      </trkpt>
      <trkpt lat="46.54201" lon="5.85073">
        <ele>1046.53</ele>
        <time>2022-07-23T10:44:03Z</time>
      </trkpt>
      <trkpt lat="46.542" lon="5.85074">
        <ele>1045.57</ele>
        <time>2022-07-23T10:44:04Z</time>
      </trkpt>
      <trkpt lat="46.5419" lon="5.85071">
        <ele>1046.05</ele>
        <time>2022-07-23T10:44:21Z</time>
      </trkpt>
      <trkpt lat="46.54185" lon="5.85072">
        <ele>1046.05</ele>
        <time>2022-07-23T10:44:41Z</time>
      </trkpt>
      <trkpt lat="46.54184" lon="5.85074">
        <ele>1045.57</ele>
        <time>2022-07-23T10:44:42Z</time>
      </trkpt>
      <trkpt lat="46.5416" lon="5.85097">
        <ele>1044.13</ele>
        <time>2022-07-23T10:44:50Z</time>
      </trkpt>
      <trkpt lat="46.54144" lon="5.8511">
        <ele>1043.65</ele>
        <time>2022-07-23T10:44:54Z</time>
      </trkpt>
      <trkpt lat="46.54138" lon="5.85119">
        <ele>1042.69</ele>
        <time>2022-07-23T10:44:56Z</time>
      </trkpt>
      <trkpt lat="46.54135" lon="5.85124">
        <ele>1042.21</ele>
        <time>2022-07-23T10:44:57Z</time>
      </trkpt>
      <trkpt lat="46.54133" lon="5.85131">
        <ele>1042.21</ele>
        <time>2022-07-23T10:44:58Z</time>
      </trkpt>
      <trkpt lat="46.54129" lon="5.85145">
        <ele>1041.25</ele>
        <time>2022-07-23T10:45:00Z</time>
      </trkpt>
      <trkpt lat="46.54118" lon="5.85191">
        <ele>1039.8</ele>
        <time>2022-07-23T10:45:06Z</time>
      </trkpt>
      <trkpt lat="46.54093" lon="5.85279">
        <ele>1036.44</ele>
        <time>2022-07-23T10:45:16Z</time>
      </trkpt>
      <trkpt lat="46.54093" lon="5.85285">
        <ele>1035.96</ele>
        <time>2022-07-23T10:45:17Z</time>
      </trkpt>
      <trkpt lat="46.54097" lon="5.85291">
        <ele>1035.48</ele>
        <time>2022-07-23T10:45:18Z</time>
      </trkpt>
      <trkpt lat="46.54102" lon="5.85296">
        <ele>1035.96</ele>
        <time>2022-07-23T10:45:19Z</time>
      </trkpt>
      <trkpt lat="46.54108" lon="5.853">
        <ele>1035</ele>
        <time>2022-07-23T10:45:20Z</time>
      </trkpt>
      <trkpt lat="46.54113" lon="5.85303">
        <ele>1035</ele>
        <time>2022-07-23T10:45:21Z</time>
      </trkpt>
      <trkpt lat="46.5412" lon="5.85306">
        <ele>1035</ele>
        <time>2022-07-23T10:45:22Z</time>
      </trkpt>
      <trkpt lat="46.54126" lon="5.85309">
        <ele>1034.52</ele>
        <time>2022-07-23T10:45:23Z</time>
      </trkpt>
      <trkpt lat="46.54132" lon="5.85311">
        <ele>1035</ele>
        <time>2022-07-23T10:45:24Z</time>
      </trkpt>
      <trkpt lat="46.54136" lon="5.85314">
        <ele>1034.52</ele>
        <time>2022-07-23T10:45:25Z</time>
      </trkpt>
      <trkpt lat="46.54142" lon="5.85319">
        <ele>1033.55</ele>
        <time>2022-07-23T10:45:26Z</time>
      </trkpt>
      <trkpt lat="46.54148" lon="5.85326">
        <ele>1033.55</ele>
        <time>2022-07-23T10:45:27Z</time>
      </trkpt>
      <trkpt lat="46.54151" lon="5.85332">
        <ele>1033.07</ele>
        <time>2022-07-23T10:45:28Z</time>
      </trkpt>
      <trkpt lat="46.54152" lon="5.85339">
        <ele>1033.07</ele>
        <time>2022-07-23T10:45:29Z</time>
      </trkpt>
      <trkpt lat="46.54152" lon="5.85347">
        <ele>1032.59</ele>
        <time>2022-07-23T10:45:30Z</time>
      </trkpt>
      <trkpt lat="46.54151" lon="5.85355">
        <ele>1032.11</ele>
        <time>2022-07-23T10:45:31Z</time>
      </trkpt>
      <trkpt lat="46.5415" lon="5.85362">
        <ele>1031.63</ele>
        <time>2022-07-23T10:45:32Z</time>
      </trkpt>
      <trkpt lat="46.54146" lon="5.85377">
        <ele>1030.67</ele>
        <time>2022-07-23T10:45:34Z</time>
      </trkpt>
      <trkpt lat="46.54144" lon="5.85384">
        <ele>1030.67</ele>
        <time>2022-07-23T10:45:35Z</time>
      </trkpt>
      <trkpt lat="46.54144" lon="5.8539">
        <ele>1030.67</ele>
        <time>2022-07-23T10:45:36Z</time>
      </trkpt>
      <trkpt lat="46.54144" lon="5.85394">
        <ele>1030.19</ele>
        <time>2022-07-23T10:45:37Z</time>
      </trkpt>
      <trkpt lat="46.54145" lon="5.85398">
        <ele>1029.23</ele>
        <time>2022-07-23T10:45:38Z</time>
      </trkpt>
      <trkpt lat="46.54148" lon="5.85402">
        <ele>1029.23</ele>
        <time>2022-07-23T10:45:39Z</time>
      </trkpt>
      <trkpt lat="46.54151" lon="5.85406">
        <ele>1029.23</ele>
        <time>2022-07-23T10:45:40Z</time>
      </trkpt>
      <trkpt lat="46.54195" lon="5.85457">
        <ele>1026.34</ele>
        <time>2022-07-23T10:45:48Z</time>
      </trkpt>
      <trkpt lat="46.54236" lon="5.85508">
        <ele>1024.42</ele>
        <time>2022-07-23T10:45:56Z</time>
      </trkpt>
      <trkpt lat="46.54239" lon="5.85515">
        <ele>1023.94</ele>
        <time>2022-07-23T10:45:57Z</time>
      </trkpt>
      <trkpt lat="46.54242" lon="5.85522">
        <ele>1023.46</ele>
        <time>2022-07-23T10:45:58Z</time>
      </trkpt>
      <trkpt lat="46.54244" lon="5.85528">
        <ele>1023.46</ele>
        <time>2022-07-23T10:45:59Z</time>
      </trkpt>
      <trkpt lat="46.54245" lon="5.85535">
        <ele>1023.46</ele>
        <time>2022-07-23T10:46:00Z</time>
      </trkpt>
      <trkpt lat="46.54245" lon="5.85542">
        <ele>1023.46</ele>
        <time>2022-07-23T10:46:01Z</time>
      </trkpt>
      <trkpt lat="46.54241" lon="5.85559">
        <ele>1022.02</ele>
        <time>2022-07-23T10:46:06Z</time>
      </trkpt>
      <trkpt lat="46.54239" lon="5.85559">
        <ele>1022.02</ele>
        <time>2022-07-23T10:46:07Z</time>
      </trkpt>
      <trkpt lat="46.5419" lon="5.8552">
        <ele>1018.17</ele>
        <time>2022-07-23T10:46:17Z</time>
      </trkpt>
      <trkpt lat="46.5418" lon="5.85513">
        <ele>1017.69</ele>
        <time>2022-07-23T10:46:19Z</time>
      </trkpt>
      <trkpt lat="46.54157" lon="5.85503">
        <ele>1016.25</ele>
        <time>2022-07-23T10:46:23Z</time>
      </trkpt>
      <trkpt lat="46.54092" lon="5.85467">
        <ele>1012.89</ele>
        <time>2022-07-23T10:46:34Z</time>
      </trkpt>
      <trkpt lat="46.54078" lon="5.85461">
        <ele>1011.93</ele>
        <time>2022-07-23T10:46:36Z</time>
      </trkpt>
      <trkpt lat="46.5401" lon="5.8543">
        <ele>1008.56</ele>
        <time>2022-07-23T10:46:47Z</time>
      </trkpt>
      <trkpt lat="46.53985" lon="5.85416">
        <ele>1006.64</ele>
        <time>2022-07-23T10:46:51Z</time>
      </trkpt>
      <trkpt lat="46.53979" lon="5.85411">
        <ele>1006.64</ele>
        <time>2022-07-23T10:46:52Z</time>
      </trkpt>
      <trkpt lat="46.53974" lon="5.85404">
        <ele>1007.12</ele>
        <time>2022-07-23T10:46:53Z</time>
      </trkpt>
      <trkpt lat="46.5397" lon="5.85397">
        <ele>1006.16</ele>
        <time>2022-07-23T10:46:54Z</time>
      </trkpt>
      <trkpt lat="46.53965" lon="5.8539">
        <ele>1005.68</ele>
        <time>2022-07-23T10:46:55Z</time>
      </trkpt>
      <trkpt lat="46.53957" lon="5.85377">
        <ele>1004.23</ele>
        <time>2022-07-23T10:46:57Z</time>
      </trkpt>
      <trkpt lat="46.53952" lon="5.85372">
        <ele>1003.75</ele>
        <time>2022-07-23T10:46:58Z</time>
      </trkpt>
      <trkpt lat="46.53937" lon="5.85356">
        <ele>1002.79</ele>
        <time>2022-07-23T10:47:01Z</time>
      </trkpt>
      <trkpt lat="46.53933" lon="5.85354">
        <ele>1002.31</ele>
        <time>2022-07-23T10:47:02Z</time>
      </trkpt>
      <trkpt lat="46.53927" lon="5.85351">
        <ele>1001.83</ele>
        <time>2022-07-23T10:47:03Z</time>
      </trkpt>
      <trkpt lat="46.53888" lon="5.85346">
        <ele>1000.39</ele>
        <time>2022-07-23T10:47:08Z</time>
      </trkpt>
      <trkpt lat="46.5384" lon="5.85327">
        <ele>997.02</ele>
        <time>2022-07-23T10:47:15Z</time>
      </trkpt>
      <trkpt lat="46.53834" lon="5.85324">
        <ele>997.02</ele>
        <time>2022-07-23T10:47:16Z</time>
      </trkpt>
      <trkpt lat="46.53778" lon="5.85297">
        <ele>994.14</ele>
        <time>2022-07-23T10:47:24Z</time>
      </trkpt>
      <trkpt lat="46.5375" lon="5.85282">
        <ele>992.7</ele>
        <time>2022-07-23T10:47:28Z</time>
      </trkpt>
      <trkpt lat="46.5369" lon="5.85243">
        <ele>989.33</ele>
        <time>2022-07-23T10:47:37Z</time>
      </trkpt>
      <trkpt lat="46.53638" lon="5.85206">
        <ele>985.97</ele>
        <time>2022-07-23T10:47:45Z</time>
      </trkpt>
      <trkpt lat="46.53589" lon="5.85176">
        <ele>983.09</ele>
        <time>2022-07-23T10:47:52Z</time>
      </trkpt>
      <trkpt lat="46.53526" lon="5.8514">
        <ele>979.72</ele>
        <time>2022-07-23T10:48:00Z</time>
      </trkpt>
      <trkpt lat="46.53508" lon="5.85129">
        <ele>978.76</ele>
        <time>2022-07-23T10:48:02Z</time>
      </trkpt>
      <trkpt lat="46.53446" lon="5.85093">
        <ele>975.39</ele>
        <time>2022-07-23T10:48:09Z</time>
      </trkpt>
      <trkpt lat="46.53328" lon="5.85027">
        <ele>972.03</ele>
        <time>2022-07-23T10:48:23Z</time>
      </trkpt>
      <trkpt lat="46.5332" lon="5.85023">
        <ele>972.03</ele>
        <time>2022-07-23T10:48:24Z</time>
      </trkpt>
      <trkpt lat="46.53291" lon="5.85006">
        <ele>970.59</ele>
        <time>2022-07-23T10:48:28Z</time>
      </trkpt>
      <trkpt lat="46.53249" lon="5.84982">
        <ele>968.67</ele>
        <time>2022-07-23T10:48:38Z</time>
      </trkpt>
      <trkpt lat="46.5319" lon="5.8495">
        <ele>967.22</ele>
        <time>2022-07-23T10:48:51Z</time>
      </trkpt>
      <trkpt lat="46.53103" lon="5.849">
        <ele>965.3</ele>
        <time>2022-07-23T10:49:06Z</time>
      </trkpt>
      <trkpt lat="46.53058" lon="5.84873">
        <ele>963.38</ele>
        <time>2022-07-23T10:49:14Z</time>
      </trkpt>
      <trkpt lat="46.53013" lon="5.84838">
        <ele>962.42</ele>
        <time>2022-07-23T10:49:24Z</time>
      </trkpt>
      <trkpt lat="46.52976" lon="5.84807">
        <ele>962.42</ele>
        <time>2022-07-23T10:49:33Z</time>
      </trkpt>
      <trkpt lat="46.52963" lon="5.848">
        <ele>963.38</ele>
        <time>2022-07-23T10:49:36Z</time>
      </trkpt>
      <trkpt lat="46.52958" lon="5.84798">
        <ele>962.42</ele>
        <time>2022-07-23T10:49:37Z</time>
      </trkpt>
      <trkpt lat="46.52954" lon="5.84796">
        <ele>962.9</ele>
        <time>2022-07-23T10:49:38Z</time>
      </trkpt>
      <trkpt lat="46.5295" lon="5.84794">
        <ele>962.9</ele>
        <time>2022-07-23T10:49:39Z</time>
      </trkpt>
      <trkpt lat="46.52885" lon="5.84765">
        <ele>962.9</ele>
        <time>2022-07-23T10:49:53Z</time>
      </trkpt>
      <trkpt lat="46.52827" lon="5.8474">
        <ele>962.42</ele>
        <time>2022-07-23T10:50:08Z</time>
      </trkpt>
      <trkpt lat="46.528" lon="5.84745">
        <ele>961.46</ele>
        <time>2022-07-23T10:50:15Z</time>
      </trkpt>
      <trkpt lat="46.52788" lon="5.84753">
        <ele>961.46</ele>
        <time>2022-07-23T10:50:18Z</time>
      </trkpt>
      <trkpt lat="46.52777" lon="5.84763">
        <ele>960.98</ele>
        <time>2022-07-23T10:50:21Z</time>
      </trkpt>
      <trkpt lat="46.52758" lon="5.84777">
        <ele>961.46</ele>
        <time>2022-07-23T10:50:25Z</time>
      </trkpt>
      <trkpt lat="46.52745" lon="5.84785">
        <ele>960.49</ele>
        <time>2022-07-23T10:50:28Z</time>
      </trkpt>
      <trkpt lat="46.5274" lon="5.84786">
        <ele>959.53</ele>
        <time>2022-07-23T10:50:29Z</time>
      </trkpt>
      <trkpt lat="46.52731" lon="5.84789">
        <ele>959.53</ele>
        <time>2022-07-23T10:50:31Z</time>
      </trkpt>
      <trkpt lat="46.52648" lon="5.84799">
        <ele>959.05</ele>
        <time>2022-07-23T10:50:49Z</time>
      </trkpt>
      <trkpt lat="46.52594" lon="5.84824">
        <ele>958.57</ele>
        <time>2022-07-23T10:51:03Z</time>
      </trkpt>
      <trkpt lat="46.52591" lon="5.84828">
        <ele>958.57</ele>
        <time>2022-07-23T10:51:04Z</time>
      </trkpt>
      <trkpt lat="46.52546" lon="5.84879">
        <ele>955.69</ele>
        <time>2022-07-23T10:51:13Z</time>
      </trkpt>
      <trkpt lat="46.5254" lon="5.84885">
        <ele>955.69</ele>
        <time>2022-07-23T10:51:14Z</time>
      </trkpt>
      <trkpt lat="46.52533" lon="5.8489">
        <ele>954.73</ele>
        <time>2022-07-23T10:51:15Z</time>
      </trkpt>
      <trkpt lat="46.52526" lon="5.84894">
        <ele>954.73</ele>
        <time>2022-07-23T10:51:16Z</time>
      </trkpt>
      <trkpt lat="46.52519" lon="5.84897">
        <ele>954.25</ele>
        <time>2022-07-23T10:51:17Z</time>
      </trkpt>
      <trkpt lat="46.52511" lon="5.849">
        <ele>954.25</ele>
        <time>2022-07-23T10:51:18Z</time>
      </trkpt>
      <trkpt lat="46.52503" lon="5.84902">
        <ele>953.77</ele>
        <time>2022-07-23T10:51:19Z</time>
      </trkpt>
      <trkpt lat="46.52495" lon="5.84903">
        <ele>954.73</ele>
        <time>2022-07-23T10:51:20Z</time>
      </trkpt>
      <trkpt lat="46.52442" lon="5.84908">
        <ele>951.36</ele>
        <time>2022-07-23T10:51:26Z</time>
      </trkpt>
      <trkpt lat="46.52388" lon="5.84906">
        <ele>948</ele>
        <time>2022-07-23T10:51:32Z</time>
      </trkpt>
      <trkpt lat="46.5238" lon="5.84902">
        <ele>947.04</ele>
        <time>2022-07-23T10:51:33Z</time>
      </trkpt>
      <trkpt lat="46.52374" lon="5.84898">
        <ele>946.56</ele>
        <time>2022-07-23T10:51:34Z</time>
      </trkpt>
      <trkpt lat="46.52368" lon="5.84891">
        <ele>946.56</ele>
        <time>2022-07-23T10:51:35Z</time>
      </trkpt>
      <trkpt lat="46.52362" lon="5.84884">
        <ele>945.59</ele>
        <time>2022-07-23T10:51:36Z</time>
      </trkpt>
      <trkpt lat="46.52357" lon="5.84876">
        <ele>945.11</ele>
        <time>2022-07-23T10:51:37Z</time>
      </trkpt>
      <trkpt lat="46.52352" lon="5.84869">
        <ele>945.11</ele>
        <time>2022-07-23T10:51:38Z</time>
      </trkpt>
      <trkpt lat="46.52333" lon="5.84845">
        <ele>942.71</ele>
        <time>2022-07-23T10:51:42Z</time>
      </trkpt>
      <trkpt lat="46.52298" lon="5.84823">
        <ele>940.79</ele>
        <time>2022-07-23T10:51:53Z</time>
      </trkpt>
      <trkpt lat="46.52268" lon="5.84812">
        <ele>938.86</ele>
        <time>2022-07-23T10:52:05Z</time>
      </trkpt>
      <trkpt lat="46.52222" lon="5.84785">
        <ele>938.38</ele>
        <time>2022-07-23T10:52:18Z</time>
      </trkpt>
      <trkpt lat="46.52132" lon="5.84741">
        <ele>937.42</ele>
        <time>2022-07-23T10:52:37Z</time>
      </trkpt>
      <trkpt lat="46.5212" lon="5.84739">
        <ele>937.42</ele>
        <time>2022-07-23T10:52:39Z</time>
      </trkpt>
      <trkpt lat="46.52115" lon="5.8474">
        <ele>936.46</ele>
        <time>2022-07-23T10:52:40Z</time>
      </trkpt>
      <trkpt lat="46.52109" lon="5.8474">
        <ele>937.9</ele>
        <time>2022-07-23T10:52:41Z</time>
      </trkpt>
      <trkpt lat="46.52104" lon="5.84742">
        <ele>937.42</ele>
        <time>2022-07-23T10:52:42Z</time>
      </trkpt>
      <trkpt lat="46.52098" lon="5.84744">
        <ele>937.42</ele>
        <time>2022-07-23T10:52:43Z</time>
      </trkpt>
      <trkpt lat="46.52093" lon="5.84746">
        <ele>937.42</ele>
        <time>2022-07-23T10:52:44Z</time>
      </trkpt>
      <trkpt lat="46.52074" lon="5.8476">
        <ele>936.94</ele>
        <time>2022-07-23T10:52:48Z</time>
      </trkpt>
      <trkpt lat="46.52069" lon="5.84765">
        <ele>936.94</ele>
        <time>2022-07-23T10:52:49Z</time>
      </trkpt>
      <trkpt lat="46.52065" lon="5.8477">
        <ele>935.98</ele>
        <time>2022-07-23T10:52:50Z</time>
      </trkpt>
      <trkpt lat="46.52061" lon="5.84775">
        <ele>936.46</ele>
        <time>2022-07-23T10:52:51Z</time>
      </trkpt>
      <trkpt lat="46.52057" lon="5.84781">
        <ele>936.46</ele>
        <time>2022-07-23T10:52:52Z</time>
      </trkpt>
      <trkpt lat="46.51998" lon="5.84872">
        <ele>935.5</ele>
        <time>2022-07-23T10:53:08Z</time>
      </trkpt>
      <trkpt lat="46.51994" lon="5.84876">
        <ele>935.98</ele>
        <time>2022-07-23T10:53:09Z</time>
      </trkpt>
      <trkpt lat="46.51963" lon="5.84899">
        <ele>936.46</ele>
        <time>2022-07-23T10:53:15Z</time>
      </trkpt>
      <trkpt lat="46.51957" lon="5.849">
        <ele>935.98</ele>
        <time>2022-07-23T10:53:16Z</time>
      </trkpt>
      <trkpt lat="46.51928" lon="5.84901">
        <ele>936.46</ele>
        <time>2022-07-23T10:53:21Z</time>
      </trkpt>
      <trkpt lat="46.51905" lon="5.84907">
        <ele>909.7</ele>
      </trkpt>
      <trkpt lat="46.51887" lon="5.84933">
        <ele>904.7</ele>
      </trkpt>
      <trkpt lat="46.51873" lon="5.84991">
        <ele>898.9</ele>
      </trkpt>
      <trkpt lat="46.51863" lon="5.85027">
        <ele>893.1</ele>
      </trkpt>
      <trkpt lat="46.51851" lon="5.85059">
        <ele>888.8</ele>
      </trkpt>
      <trkpt lat="46.51851" lon="5.8509">
        <ele>886.3</ele>
      </trkpt>
      <trkpt lat="46.51872" lon="5.8516">
        <ele>884.6</ele>
      </trkpt>
      <trkpt lat="46.51905" lon="5.85246">
        <ele>883.7</ele>
      </trkpt>
      <trkpt lat="46.51927" lon="5.8534">
        <ele>882.6</ele>
      </trkpt>
      <trkpt lat="46.51959" lon="5.8543">
        <ele>883</ele>
      </trkpt>
      <trkpt lat="46.51947" lon="5.85376">
        <ele>883.4</ele>
      </trkpt>
      <trkpt lat="46.51915" lon="5.85281">
        <ele>883.8</ele>
      </trkpt>
      <trkpt lat="46.51894" lon="5.85239">
        <ele>883.6</ele>
      </trkpt>
      <trkpt lat="46.51885" lon="5.85189">
        <ele>884.2</ele>
      </trkpt>
      <trkpt lat="46.51853" lon="5.85122">
        <ele>884.9</ele>
      </trkpt>
      <trkpt lat="46.5186" lon="5.85011">
        <ele>894.7</ele>
      </trkpt>
      <trkpt lat="46.51875" lon="5.8495">
        <ele>903.5</ele>
      </trkpt>
      <trkpt lat="46.51886" lon="5.84891">
        <ele>910.5</ele>
      </trkpt>
      <trkpt lat="46.51853" lon="5.84851">
        <ele>935.5</ele>
        <time>2022-07-23T10:53:34Z</time>
      </trkpt>
      <trkpt lat="46.51755" lon="5.84745">
        <ele>935.02</ele>
        <time>2022-07-23T10:53:54Z</time>
      </trkpt>
      <trkpt lat="46.51732" lon="5.84635">
        <ele>934.54</ele>
        <time>2022-07-23T10:54:09Z</time>
      </trkpt>
      <trkpt lat="46.51741" lon="5.84507">
        <ele>934.06</ele>
        <time>2022-07-23T10:54:26Z</time>
      </trkpt>
      <trkpt lat="46.51735" lon="5.84428">
        <ele>933.1</ele>
        <time>2022-07-23T10:54:37Z</time>
      </trkpt>
      <trkpt lat="46.51732" lon="5.84422">
        <ele>933.1</ele>
        <time>2022-07-23T10:54:38Z</time>
      </trkpt>
      <trkpt lat="46.5173" lon="5.84417">
        <ele>933.58</ele>
        <time>2022-07-23T10:54:39Z</time>
      </trkpt>
      <trkpt lat="46.51727" lon="5.84412">
        <ele>933.1</ele>
        <time>2022-07-23T10:54:40Z</time>
      </trkpt>
      <trkpt lat="46.51724" lon="5.84407">
        <ele>933.1</ele>
        <time>2022-07-23T10:54:41Z</time>
      </trkpt>
      <trkpt lat="46.51715" lon="5.84394">
        <ele>933.58</ele>
        <time>2022-07-23T10:54:44Z</time>
      </trkpt>
      <trkpt lat="46.51652" lon="5.84336">
        <ele>934.54</ele>
        <time>2022-07-23T10:55:03Z</time>
      </trkpt>
      <trkpt lat="46.51605" lon="5.84291">
        <ele>935.02</ele>
        <time>2022-07-23T10:55:18Z</time>
      </trkpt>
      <trkpt lat="46.5158" lon="5.84269">
        <ele>935.02</ele>
        <time>2022-07-23T10:55:27Z</time>
      </trkpt>
      <trkpt lat="46.51529" lon="5.84213">
        <ele>934.54</ele>
        <time>2022-07-23T10:55:46Z</time>
      </trkpt>
      <trkpt lat="46.51494" lon="5.84186">
        <ele>935.5</ele>
        <time>2022-07-23T10:55:57Z</time>
      </trkpt>
      <trkpt lat="46.51425" lon="5.84161">
        <ele>934.06</ele>
        <time>2022-07-23T10:56:12Z</time>
      </trkpt>
      <trkpt lat="46.51335" lon="5.84098">
        <ele>932.62</ele>
        <time>2022-07-23T10:56:29Z</time>
      </trkpt>
      <trkpt lat="46.5133" lon="5.84093">
        <ele>932.14</ele>
        <time>2022-07-23T10:56:30Z</time>
      </trkpt>
      <trkpt lat="46.51327" lon="5.84086">
        <ele>932.62</ele>
        <time>2022-07-23T10:56:31Z</time>
      </trkpt>
      <trkpt lat="46.51324" lon="5.84078">
        <ele>932.14</ele>
        <time>2022-07-23T10:56:32Z</time>
      </trkpt>
      <trkpt lat="46.51322" lon="5.8407">
        <ele>932.14</ele>
        <time>2022-07-23T10:56:33Z</time>
      </trkpt>
      <trkpt lat="46.51321" lon="5.84062">
        <ele>932.14</ele>
        <time>2022-07-23T10:56:34Z</time>
      </trkpt>
      <trkpt lat="46.51321" lon="5.84054">
        <ele>931.65</ele>
        <time>2022-07-23T10:56:35Z</time>
      </trkpt>
      <trkpt lat="46.51321" lon="5.84045">
        <ele>931.65</ele>
        <time>2022-07-23T10:56:36Z</time>
      </trkpt>
      <trkpt lat="46.51321" lon="5.84014">
        <ele>932.62</ele>
        <time>2022-07-23T10:56:40Z</time>
      </trkpt>
      <trkpt lat="46.5132" lon="5.84007">
        <ele>932.14</ele>
        <time>2022-07-23T10:56:41Z</time>
      </trkpt>
      <trkpt lat="46.51318" lon="5.84">
        <ele>932.14</ele>
        <time>2022-07-23T10:56:42Z</time>
      </trkpt>
      <trkpt lat="46.51315" lon="5.83994">
        <ele>931.65</ele>
        <time>2022-07-23T10:56:43Z</time>
      </trkpt>
      <trkpt lat="46.51312" lon="5.83987">
        <ele>932.14</ele>
        <time>2022-07-23T10:56:44Z</time>
      </trkpt>
      <trkpt lat="46.51308" lon="5.83981">
        <ele>931.65</ele>
        <time>2022-07-23T10:56:45Z</time>
      </trkpt>
      <trkpt lat="46.51303" lon="5.83976">
        <ele>932.14</ele>
        <time>2022-07-23T10:56:46Z</time>
      </trkpt>
      <trkpt lat="46.51299" lon="5.83972">
        <ele>932.14</ele>
        <time>2022-07-23T10:56:47Z</time>
      </trkpt>
      <trkpt lat="46.51295" lon="5.83968">
        <ele>931.65</ele>
        <time>2022-07-23T10:56:48Z</time>
      </trkpt>
      <trkpt lat="46.51291" lon="5.83964">
        <ele>932.62</ele>
        <time>2022-07-23T10:56:49Z</time>
      </trkpt>
      <trkpt lat="46.51288" lon="5.83962">
        <ele>932.14</ele>
        <time>2022-07-23T10:56:50Z</time>
      </trkpt>
      <trkpt lat="46.51239" lon="5.83942">
        <ele>932.14</ele>
        <time>2022-07-23T10:57:01Z</time>
      </trkpt>
      <trkpt lat="46.51235" lon="5.83942">
        <ele>932.62</ele>
        <time>2022-07-23T10:57:02Z</time>
      </trkpt>
      <trkpt lat="46.5123" lon="5.83944">
        <ele>932.14</ele>
        <time>2022-07-23T10:57:03Z</time>
      </trkpt>
      <trkpt lat="46.51225" lon="5.83946">
        <ele>932.62</ele>
        <time>2022-07-23T10:57:04Z</time>
      </trkpt>
      <trkpt lat="46.5122" lon="5.83949">
        <ele>932.62</ele>
        <time>2022-07-23T10:57:05Z</time>
      </trkpt>
      <trkpt lat="46.51216" lon="5.83952">
        <ele>932.62</ele>
        <time>2022-07-23T10:57:06Z</time>
      </trkpt>
      <trkpt lat="46.51208" lon="5.83958">
        <ele>932.62</ele>
        <time>2022-07-23T10:57:08Z</time>
      </trkpt>
      <trkpt lat="46.5118" lon="5.8397">
        <ele>933.58</ele>
        <time>2022-07-23T10:57:18Z</time>
      </trkpt>
      <trkpt lat="46.51153" lon="5.83975">
        <ele>934.54</ele>
        <time>2022-07-23T10:57:29Z</time>
      </trkpt>
      <trkpt lat="46.5112" lon="5.83987">
        <ele>935.02</ele>
        <time>2022-07-23T10:57:43Z</time>
      </trkpt>
      <trkpt lat="46.51109" lon="5.84">
        <ele>935.5</ele>
        <time>2022-07-23T10:57:51Z</time>
      </trkpt>
      <trkpt lat="46.51102" lon="5.84006">
        <ele>935.02</ele>
        <time>2022-07-23T10:58:04Z</time>
      </trkpt>
      <trkpt lat="46.51102" lon="5.84006">
        <ele>934.54</ele>
        <time>2022-07-23T10:58:06Z</time>
      </trkpt>
      <trkpt lat="46.51105" lon="5.84008">
        <ele>897.53</ele>
        <time>2022-07-23T11:34:16Z</time>
      </trkpt>
      <trkpt lat="46.51106" lon="5.84008">
        <ele>897.53</ele>
        <time>2022-07-23T11:34:17Z</time>
      </trkpt>
      <trkpt lat="46.51111" lon="5.84009">
        <ele>898.01</ele>
        <time>2022-07-23T11:34:25Z</time>
      </trkpt>
      <trkpt lat="46.51111" lon="5.84">
        <ele>898.97</ele>
        <time>2022-07-23T11:34:29Z</time>
      </trkpt>
      <trkpt lat="46.51114" lon="5.83996">
        <ele>902.33</ele>
        <time>2022-07-23T11:34:33Z</time>
      </trkpt>
      <trkpt lat="46.51115" lon="5.83994">
        <ele>903.3</ele>
        <time>2022-07-23T11:34:35Z</time>
      </trkpt>
      <trkpt lat="46.51122" lon="5.83986">
        <ele>907.62</ele>
        <time>2022-07-23T11:34:43Z</time>
      </trkpt>
      <trkpt lat="46.51133" lon="5.83979">
        <ele>910.51</ele>
        <time>2022-07-23T11:34:49Z</time>
      </trkpt>
      <trkpt lat="46.51128" lon="5.83949">
        <ele>912.91</ele>
        <time>2022-07-23T11:35:02Z</time>
      </trkpt>
      <trkpt lat="46.51131" lon="5.83949">
        <ele>914.83</ele>
        <time>2022-07-23T11:35:06Z</time>
      </trkpt>
      <trkpt lat="46.51133" lon="5.8395">
        <ele>914.83</ele>
        <time>2022-07-23T11:35:07Z</time>
      </trkpt>
      <trkpt lat="46.51134" lon="5.83951">
        <ele>915.79</ele>
        <time>2022-07-23T11:35:08Z</time>
      </trkpt>
      <trkpt lat="46.51136" lon="5.83952">
        <ele>915.79</ele>
        <time>2022-07-23T11:35:09Z</time>
      </trkpt>
      <trkpt lat="46.51137" lon="5.83952">
        <ele>916.27</ele>
        <time>2022-07-23T11:35:10Z</time>
      </trkpt>
      <trkpt lat="46.51139" lon="5.83953">
        <ele>916.27</ele>
        <time>2022-07-23T11:35:11Z</time>
      </trkpt>
      <trkpt lat="46.5114" lon="5.83954">
        <ele>916.27</ele>
        <time>2022-07-23T11:35:12Z</time>
      </trkpt>
      <trkpt lat="46.51155" lon="5.83963">
        <ele>917.24</ele>
        <time>2022-07-23T11:35:19Z</time>
      </trkpt>
      <trkpt lat="46.51158" lon="5.83962">
        <ele>917.24</ele>
        <time>2022-07-23T11:35:20Z</time>
      </trkpt>
      <trkpt lat="46.5116" lon="5.8396">
        <ele>917.24</ele>
        <time>2022-07-23T11:35:21Z</time>
      </trkpt>
      <trkpt lat="46.51162" lon="5.83958">
        <ele>917.72</ele>
        <time>2022-07-23T11:35:22Z</time>
      </trkpt>
      <trkpt lat="46.51163" lon="5.83955">
        <ele>917.72</ele>
        <time>2022-07-23T11:35:23Z</time>
      </trkpt>
      <trkpt lat="46.51165" lon="5.83952">
        <ele>917.72</ele>
        <time>2022-07-23T11:35:24Z</time>
      </trkpt>
      <trkpt lat="46.51166" lon="5.83949">
        <ele>918.2</ele>
        <time>2022-07-23T11:35:25Z</time>
      </trkpt>
      <trkpt lat="46.51176" lon="5.8391">
        <ele>920.12</ele>
        <time>2022-07-23T11:35:40Z</time>
      </trkpt>
      <trkpt lat="46.51188" lon="5.83881">
        <ele>922.52</ele>
        <time>2022-07-23T11:35:54Z</time>
      </trkpt>
      <trkpt lat="46.51197" lon="5.83843">
        <ele>923.96</ele>
        <time>2022-07-23T11:36:10Z</time>
      </trkpt>
      <trkpt lat="46.51188" lon="5.83807">
        <ele>924.93</ele>
        <time>2022-07-23T11:36:25Z</time>
      </trkpt>
      <trkpt lat="46.51184" lon="5.83798">
        <ele>925.41</ele>
        <time>2022-07-23T11:36:29Z</time>
      </trkpt>
      <trkpt lat="46.51174" lon="5.8379">
        <ele>926.37</ele>
        <time>2022-07-23T11:36:36Z</time>
      </trkpt>
      <trkpt lat="46.51148" lon="5.83785">
        <ele>927.81</ele>
        <time>2022-07-23T11:36:53Z</time>
      </trkpt>
      <trkpt lat="46.51126" lon="5.83771">
        <ele>929.25</ele>
        <time>2022-07-23T11:37:07Z</time>
      </trkpt>
      <trkpt lat="46.51115" lon="5.83744">
        <ele>930.21</ele>
        <time>2022-07-23T11:37:20Z</time>
      </trkpt>
      <trkpt lat="46.51122" lon="5.83709">
        <ele>932.14</ele>
        <time>2022-07-23T11:37:36Z</time>
      </trkpt>
      <trkpt lat="46.51143" lon="5.83669">
        <ele>934.06</ele>
        <time>2022-07-23T11:37:54Z</time>
      </trkpt>
      <trkpt lat="46.51168" lon="5.83633">
        <ele>935.02</ele>
        <time>2022-07-23T11:38:11Z</time>
      </trkpt>
      <trkpt lat="46.51204" lon="5.83592">
        <ele>934.54</ele>
        <time>2022-07-23T11:38:27Z</time>
      </trkpt>
      <trkpt lat="46.5124" lon="5.83538">
        <ele>935.02</ele>
        <time>2022-07-23T11:38:45Z</time>
      </trkpt>
      <trkpt lat="46.51269" lon="5.83498">
        <ele>936.94</ele>
        <time>2022-07-23T11:39:00Z</time>
      </trkpt>
      <trkpt lat="46.51296" lon="5.83445">
        <ele>938.86</ele>
        <time>2022-07-23T11:39:19Z</time>
      </trkpt>
      <trkpt lat="46.51321" lon="5.83404">
        <ele>939.83</ele>
        <time>2022-07-23T11:39:34Z</time>
      </trkpt>
      <trkpt lat="46.51348" lon="5.83354">
        <ele>940.79</ele>
        <time>2022-07-23T11:39:50Z</time>
      </trkpt>
      <trkpt lat="46.51372" lon="5.83278">
        <ele>941.75</ele>
        <time>2022-07-23T11:40:08Z</time>
      </trkpt>
      <trkpt lat="46.51401" lon="5.83177">
        <ele>943.67</ele>
        <time>2022-07-23T11:40:29Z</time>
      </trkpt>
      <trkpt lat="46.51408" lon="5.83106">
        <ele>944.63</ele>
        <time>2022-07-23T11:40:45Z</time>
      </trkpt>
      <trkpt lat="46.51382" lon="5.83051">
        <ele>945.11</ele>
        <time>2022-07-23T11:40:59Z</time>
      </trkpt>
      <trkpt lat="46.51334" lon="5.82992">
        <ele>946.56</ele>
        <time>2022-07-23T11:41:19Z</time>
      </trkpt>
      <trkpt lat="46.51328" lon="5.8292">
        <ele>947.52</ele>
        <time>2022-07-23T11:41:36Z</time>
      </trkpt>
      <trkpt lat="46.51327" lon="5.82854">
        <ele>948.48</ele>
        <time>2022-07-23T11:41:51Z</time>
      </trkpt>
      <trkpt lat="46.51308" lon="5.82794">
        <ele>948.96</ele>
        <time>2022-07-23T11:42:05Z</time>
      </trkpt>
      <trkpt lat="46.51268" lon="5.82725">
        <ele>949.44</ele>
        <time>2022-07-23T11:42:21Z</time>
      </trkpt>
      <trkpt lat="46.51229" lon="5.82656">
        <ele>949.92</ele>
        <time>2022-07-23T11:42:36Z</time>
      </trkpt>
      <trkpt lat="46.51187" lon="5.82618">
        <ele>951.36</ele>
        <time>2022-07-23T11:42:51Z</time>
      </trkpt>
      <trkpt lat="46.51138" lon="5.82606">
        <ele>951.84</ele>
        <time>2022-07-23T11:43:06Z</time>
      </trkpt>
      <trkpt lat="46.51087" lon="5.82575">
        <ele>952.32</ele>
        <time>2022-07-23T11:43:21Z</time>
      </trkpt>
      <trkpt lat="46.51081" lon="5.82565">
        <ele>952.8</ele>
        <time>2022-07-23T11:43:23Z</time>
      </trkpt>
      <trkpt lat="46.51079" lon="5.82559">
        <ele>952.32</ele>
        <time>2022-07-23T11:43:24Z</time>
      </trkpt>
      <trkpt lat="46.51078" lon="5.82553">
        <ele>952.32</ele>
        <time>2022-07-23T11:43:25Z</time>
      </trkpt>
      <trkpt lat="46.5106" lon="5.82491">
        <ele>952.32</ele>
        <time>2022-07-23T11:43:34Z</time>
      </trkpt>
      <trkpt lat="46.51057" lon="5.82484">
        <ele>951.36</ele>
        <time>2022-07-23T11:43:35Z</time>
      </trkpt>
      <trkpt lat="46.51029" lon="5.82434">
        <ele>951.84</ele>
        <time>2022-07-23T11:43:44Z</time>
      </trkpt>
      <trkpt lat="46.51026" lon="5.82428">
        <ele>951.36</ele>
        <time>2022-07-23T11:43:45Z</time>
      </trkpt>
      <trkpt lat="46.51024" lon="5.82421">
        <ele>951.36</ele>
        <time>2022-07-23T11:43:46Z</time>
      </trkpt>
      <trkpt lat="46.51022" lon="5.82415">
        <ele>950.88</ele>
        <time>2022-07-23T11:43:47Z</time>
      </trkpt>
      <trkpt lat="46.51021" lon="5.82407">
        <ele>950.88</ele>
        <time>2022-07-23T11:43:48Z</time>
      </trkpt>
      <trkpt lat="46.5102" lon="5.824">
        <ele>950.88</ele>
        <time>2022-07-23T11:43:49Z</time>
      </trkpt>
      <trkpt lat="46.51019" lon="5.82392">
        <ele>950.88</ele>
        <time>2022-07-23T11:43:50Z</time>
      </trkpt>
      <trkpt lat="46.51019" lon="5.82384">
        <ele>950.88</ele>
        <time>2022-07-23T11:43:51Z</time>
      </trkpt>
      <trkpt lat="46.51019" lon="5.82376">
        <ele>950.4</ele>
        <time>2022-07-23T11:43:52Z</time>
      </trkpt>
      <trkpt lat="46.5102" lon="5.82368">
        <ele>950.4</ele>
        <time>2022-07-23T11:43:53Z</time>
      </trkpt>
      <trkpt lat="46.51053" lon="5.82283">
        <ele>950.4</ele>
        <time>2022-07-23T11:44:05Z</time>
      </trkpt>
      <trkpt lat="46.51061" lon="5.82274">
        <ele>950.4</ele>
        <time>2022-07-23T11:44:07Z</time>
      </trkpt>
      <trkpt lat="46.51112" lon="5.82239">
        <ele>949.92</ele>
        <time>2022-07-23T11:44:18Z</time>
      </trkpt>
      <trkpt lat="46.51117" lon="5.82234">
        <ele>950.4</ele>
        <time>2022-07-23T11:44:19Z</time>
      </trkpt>
      <trkpt lat="46.51121" lon="5.82229">
        <ele>949.92</ele>
        <time>2022-07-23T11:44:20Z</time>
      </trkpt>
      <trkpt lat="46.51164" lon="5.82177">
        <ele>950.4</ele>
        <time>2022-07-23T11:44:31Z</time>
      </trkpt>
      <trkpt lat="46.51168" lon="5.82172">
        <ele>949.92</ele>
        <time>2022-07-23T11:44:32Z</time>
      </trkpt>
      <trkpt lat="46.512" lon="5.82086">
        <ele>949.92</ele>
        <time>2022-07-23T11:44:45Z</time>
      </trkpt>
      <trkpt lat="46.51204" lon="5.82074">
        <ele>949.92</ele>
        <time>2022-07-23T11:44:47Z</time>
      </trkpt>
      <trkpt lat="46.51206" lon="5.82068">
        <ele>950.4</ele>
        <time>2022-07-23T11:44:48Z</time>
      </trkpt>
      <trkpt lat="46.51209" lon="5.82063">
        <ele>950.4</ele>
        <time>2022-07-23T11:44:49Z</time>
      </trkpt>
      <trkpt lat="46.51212" lon="5.82057">
        <ele>950.4</ele>
        <time>2022-07-23T11:44:50Z</time>
      </trkpt>
      <trkpt lat="46.51216" lon="5.82052">
        <ele>949.92</ele>
        <time>2022-07-23T11:44:51Z</time>
      </trkpt>
      <trkpt lat="46.5122" lon="5.82048">
        <ele>949.92</ele>
        <time>2022-07-23T11:44:52Z</time>
      </trkpt>
      <trkpt lat="46.51224" lon="5.82043">
        <ele>950.4</ele>
        <time>2022-07-23T11:44:53Z</time>
      </trkpt>
      <trkpt lat="46.51255" lon="5.82019">
        <ele>950.88</ele>
        <time>2022-07-23T11:45:01Z</time>
      </trkpt>
      <trkpt lat="46.51298" lon="5.81962">
        <ele>950.88</ele>
        <time>2022-07-23T11:45:15Z</time>
      </trkpt>
      <trkpt lat="46.51324" lon="5.81933">
        <ele>948.48</ele>
        <time>2022-07-23T11:45:21Z</time>
      </trkpt>
      <trkpt lat="46.51356" lon="5.81911">
        <ele>946.56</ele>
        <time>2022-07-23T11:45:26Z</time>
      </trkpt>
      <trkpt lat="46.51363" lon="5.81909">
        <ele>946.07</ele>
        <time>2022-07-23T11:45:27Z</time>
      </trkpt>
      <trkpt lat="46.5137" lon="5.81907">
        <ele>945.59</ele>
        <time>2022-07-23T11:45:28Z</time>
      </trkpt>
      <trkpt lat="46.51378" lon="5.81906">
        <ele>945.59</ele>
        <time>2022-07-23T11:45:29Z</time>
      </trkpt>
      <trkpt lat="46.51385" lon="5.81906">
        <ele>945.11</ele>
        <time>2022-07-23T11:45:30Z</time>
      </trkpt>
      <trkpt lat="46.51393" lon="5.81908">
        <ele>944.15</ele>
        <time>2022-07-23T11:45:31Z</time>
      </trkpt>
      <trkpt lat="46.514" lon="5.81909">
        <ele>944.15</ele>
        <time>2022-07-23T11:45:32Z</time>
      </trkpt>
      <trkpt lat="46.51477" lon="5.81937">
        <ele>941.27</ele>
        <time>2022-07-23T11:45:42Z</time>
      </trkpt>
      <trkpt lat="46.51492" lon="5.81946">
        <ele>940.31</ele>
        <time>2022-07-23T11:45:44Z</time>
      </trkpt>
      <trkpt lat="46.51499" lon="5.81953">
        <ele>939.83</ele>
        <time>2022-07-23T11:45:45Z</time>
      </trkpt>
      <trkpt lat="46.51506" lon="5.81961">
        <ele>940.31</ele>
        <time>2022-07-23T11:45:46Z</time>
      </trkpt>
      <trkpt lat="46.51511" lon="5.81971">
        <ele>939.83</ele>
        <time>2022-07-23T11:45:47Z</time>
      </trkpt>
      <trkpt lat="46.51515" lon="5.81982">
        <ele>938.86</ele>
        <time>2022-07-23T11:45:48Z</time>
      </trkpt>
      <trkpt lat="46.51519" lon="5.81994">
        <ele>939.83</ele>
        <time>2022-07-23T11:45:49Z</time>
      </trkpt>
      <trkpt lat="46.51523" lon="5.82006">
        <ele>938.86</ele>
        <time>2022-07-23T11:45:50Z</time>
      </trkpt>
      <trkpt lat="46.51536" lon="5.82072">
        <ele>936.46</ele>
        <time>2022-07-23T11:45:55Z</time>
      </trkpt>
      <trkpt lat="46.51541" lon="5.82084">
        <ele>936.46</ele>
        <time>2022-07-23T11:45:56Z</time>
      </trkpt>
      <trkpt lat="46.51548" lon="5.82094">
        <ele>935.02</ele>
        <time>2022-07-23T11:45:57Z</time>
      </trkpt>
      <trkpt lat="46.51556" lon="5.82101">
        <ele>935.02</ele>
        <time>2022-07-23T11:45:58Z</time>
      </trkpt>
      <trkpt lat="46.51565" lon="5.82104">
        <ele>934.54</ele>
        <time>2022-07-23T11:45:59Z</time>
      </trkpt>
      <trkpt lat="46.51574" lon="5.82107">
        <ele>934.06</ele>
        <time>2022-07-23T11:46:00Z</time>
      </trkpt>
      <trkpt lat="46.51583" lon="5.82108">
        <ele>933.58</ele>
        <time>2022-07-23T11:46:01Z</time>
      </trkpt>
      <trkpt lat="46.51592" lon="5.82108">
        <ele>933.1</ele>
        <time>2022-07-23T11:46:02Z</time>
      </trkpt>
      <trkpt lat="46.51601" lon="5.82108">
        <ele>933.1</ele>
        <time>2022-07-23T11:46:03Z</time>
      </trkpt>
      <trkpt lat="46.51629" lon="5.82108">
        <ele>932.62</ele>
        <time>2022-07-23T11:46:06Z</time>
      </trkpt>
      <trkpt lat="46.51638" lon="5.82107">
        <ele>932.14</ele>
        <time>2022-07-23T11:46:07Z</time>
      </trkpt>
      <trkpt lat="46.51647" lon="5.82105">
        <ele>931.65</ele>
        <time>2022-07-23T11:46:08Z</time>
      </trkpt>
      <trkpt lat="46.51656" lon="5.82101">
        <ele>930.69</ele>
        <time>2022-07-23T11:46:09Z</time>
      </trkpt>
      <trkpt lat="46.51664" lon="5.82097">
        <ele>930.69</ele>
        <time>2022-07-23T11:46:10Z</time>
      </trkpt>
      <trkpt lat="46.51672" lon="5.82092">
        <ele>930.69</ele>
        <time>2022-07-23T11:46:11Z</time>
      </trkpt>
      <trkpt lat="46.5168" lon="5.82087">
        <ele>929.73</ele>
        <time>2022-07-23T11:46:12Z</time>
      </trkpt>
      <trkpt lat="46.51729" lon="5.82038">
        <ele>926.37</ele>
        <time>2022-07-23T11:46:19Z</time>
      </trkpt>
      <trkpt lat="46.51754" lon="5.82024">
        <ele>925.89</ele>
        <time>2022-07-23T11:46:22Z</time>
      </trkpt>
      <trkpt lat="46.51762" lon="5.82024">
        <ele>925.41</ele>
        <time>2022-07-23T11:46:23Z</time>
      </trkpt>
      <trkpt lat="46.5177" lon="5.82026">
        <ele>924.93</ele>
        <time>2022-07-23T11:46:24Z</time>
      </trkpt>
      <trkpt lat="46.51779" lon="5.82033">
        <ele>923.96</ele>
        <time>2022-07-23T11:46:25Z</time>
      </trkpt>
      <trkpt lat="46.51788" lon="5.82038">
        <ele>923.48</ele>
        <time>2022-07-23T11:46:26Z</time>
      </trkpt>
      <trkpt lat="46.51797" lon="5.82042">
        <ele>923</ele>
        <time>2022-07-23T11:46:27Z</time>
      </trkpt>
      <trkpt lat="46.51806" lon="5.82046">
        <ele>923</ele>
        <time>2022-07-23T11:46:28Z</time>
      </trkpt>
      <trkpt lat="46.51815" lon="5.82048">
        <ele>922.52</ele>
        <time>2022-07-23T11:46:29Z</time>
      </trkpt>
      <trkpt lat="46.51824" lon="5.82048">
        <ele>922.04</ele>
        <time>2022-07-23T11:46:30Z</time>
      </trkpt>
      <trkpt lat="46.51833" lon="5.82046">
        <ele>921.56</ele>
        <time>2022-07-23T11:46:31Z</time>
      </trkpt>
      <trkpt lat="46.51842" lon="5.82043">
        <ele>921.08</ele>
        <time>2022-07-23T11:46:32Z</time>
      </trkpt>
      <trkpt lat="46.51897" lon="5.82035">
        <ele>918.2</ele>
        <time>2022-07-23T11:46:38Z</time>
      </trkpt>
      <trkpt lat="46.51925" lon="5.82041">
        <ele>916.75</ele>
        <time>2022-07-23T11:46:41Z</time>
      </trkpt>
      <trkpt lat="46.51991" lon="5.8206">
        <ele>912.91</ele>
        <time>2022-07-23T11:46:48Z</time>
      </trkpt>
      <trkpt lat="46.52021" lon="5.82065">
        <ele>911.47</ele>
        <time>2022-07-23T11:46:51Z</time>
      </trkpt>
      <trkpt lat="46.52049" lon="5.82061">
        <ele>909.54</ele>
        <time>2022-07-23T11:46:54Z</time>
      </trkpt>
      <trkpt lat="46.52059" lon="5.82056">
        <ele>909.06</ele>
        <time>2022-07-23T11:46:55Z</time>
      </trkpt>
      <trkpt lat="46.5211" lon="5.82022">
        <ele>906.66</ele>
        <time>2022-07-23T11:47:01Z</time>
      </trkpt>
      <trkpt lat="46.52119" lon="5.82019">
        <ele>906.66</ele>
        <time>2022-07-23T11:47:02Z</time>
      </trkpt>
      <trkpt lat="46.52127" lon="5.82016">
        <ele>905.7</ele>
        <time>2022-07-23T11:47:03Z</time>
      </trkpt>
      <trkpt lat="46.5219" lon="5.82003">
        <ele>903.3</ele>
        <time>2022-07-23T11:47:10Z</time>
      </trkpt>
      <trkpt lat="46.52199" lon="5.81998">
        <ele>903.78</ele>
        <time>2022-07-23T11:47:11Z</time>
      </trkpt>
      <trkpt lat="46.52222" lon="5.81984">
        <ele>901.85</ele>
        <time>2022-07-23T11:47:14Z</time>
      </trkpt>
      <trkpt lat="46.5223" lon="5.81982">
        <ele>902.33</ele>
        <time>2022-07-23T11:47:15Z</time>
      </trkpt>
      <trkpt lat="46.52247" lon="5.81983">
        <ele>900.89</ele>
        <time>2022-07-23T11:47:17Z</time>
      </trkpt>
      <trkpt lat="46.52255" lon="5.81987">
        <ele>899.93</ele>
        <time>2022-07-23T11:47:18Z</time>
      </trkpt>
      <trkpt lat="46.52263" lon="5.81995">
        <ele>898.97</ele>
        <time>2022-07-23T11:47:19Z</time>
      </trkpt>
      <trkpt lat="46.52269" lon="5.82004">
        <ele>898.97</ele>
        <time>2022-07-23T11:47:20Z</time>
      </trkpt>
      <trkpt lat="46.52276" lon="5.82015">
        <ele>898.97</ele>
        <time>2022-07-23T11:47:21Z</time>
      </trkpt>
      <trkpt lat="46.52281" lon="5.82025">
        <ele>898.01</ele>
        <time>2022-07-23T11:47:22Z</time>
      </trkpt>
      <trkpt lat="46.523" lon="5.8205">
        <ele>895.61</ele>
        <time>2022-07-23T11:47:25Z</time>
      </trkpt>
      <trkpt lat="46.52308" lon="5.82055">
        <ele>895.12</ele>
        <time>2022-07-23T11:47:26Z</time>
      </trkpt>
      <trkpt lat="46.52323" lon="5.82058">
        <ele>894.16</ele>
        <time>2022-07-23T11:47:28Z</time>
      </trkpt>
      <trkpt lat="46.52329" lon="5.82059">
        <ele>893.68</ele>
        <time>2022-07-23T11:47:29Z</time>
      </trkpt>
      <trkpt lat="46.52332" lon="5.82056">
        <ele>894.16</ele>
        <time>2022-07-23T11:47:30Z</time>
      </trkpt>
      <trkpt lat="46.52333" lon="5.82048">
        <ele>894.16</ele>
        <time>2022-07-23T11:47:31Z</time>
      </trkpt>
      <trkpt lat="46.52333" lon="5.82044">
        <ele>894.16</ele>
        <time>2022-07-23T11:47:32Z</time>
      </trkpt>
      <trkpt lat="46.52328" lon="5.82025">
        <ele>893.68</ele>
        <time>2022-07-23T11:47:33Z</time>
      </trkpt>
      <trkpt lat="46.52321" lon="5.82015">
        <ele>893.2</ele>
        <time>2022-07-23T11:47:34Z</time>
      </trkpt>
      <trkpt lat="46.52314" lon="5.82009">
        <ele>893.2</ele>
        <time>2022-07-23T11:47:35Z</time>
      </trkpt>
      <trkpt lat="46.52307" lon="5.82005">
        <ele>892.72</ele>
        <time>2022-07-23T11:47:36Z</time>
      </trkpt>
      <trkpt lat="46.52301" lon="5.82003">
        <ele>893.2</ele>
        <time>2022-07-23T11:47:37Z</time>
      </trkpt>
      <trkpt lat="46.52295" lon="5.82002">
        <ele>892.72</ele>
        <time>2022-07-23T11:47:38Z</time>
      </trkpt>
      <trkpt lat="46.52282" lon="5.82">
        <ele>892.72</ele>
        <time>2022-07-23T11:47:40Z</time>
      </trkpt>
      <trkpt lat="46.52276" lon="5.81998">
        <ele>892.24</ele>
        <time>2022-07-23T11:47:41Z</time>
      </trkpt>
      <trkpt lat="46.52271" lon="5.81995">
        <ele>892.72</ele>
        <time>2022-07-23T11:47:42Z</time>
      </trkpt>
      <trkpt lat="46.52266" lon="5.81989">
        <ele>892.24</ele>
        <time>2022-07-23T11:47:43Z</time>
      </trkpt>
      <trkpt lat="46.52262" lon="5.81982">
        <ele>892.24</ele>
        <time>2022-07-23T11:47:44Z</time>
      </trkpt>
      <trkpt lat="46.52259" lon="5.81974">
        <ele>892.24</ele>
        <time>2022-07-23T11:47:45Z</time>
      </trkpt>
      <trkpt lat="46.52249" lon="5.8195">
        <ele>891.76</ele>
        <time>2022-07-23T11:47:48Z</time>
      </trkpt>
      <trkpt lat="46.52221" lon="5.81913">
        <ele>890.32</ele>
        <time>2022-07-23T11:47:54Z</time>
      </trkpt>
      <trkpt lat="46.52211" lon="5.81905">
        <ele>889.36</ele>
        <time>2022-07-23T11:47:56Z</time>
      </trkpt>
      <trkpt lat="46.52206" lon="5.81902">
        <ele>889.36</ele>
        <time>2022-07-23T11:47:57Z</time>
      </trkpt>
      <trkpt lat="46.5217" lon="5.81894">
        <ele>887.91</ele>
        <time>2022-07-23T11:48:06Z</time>
      </trkpt>
      <trkpt lat="46.52156" lon="5.81899">
        <ele>886.47</ele>
        <time>2022-07-23T11:48:09Z</time>
      </trkpt>
      <trkpt lat="46.52151" lon="5.81898">
        <ele>886.95</ele>
        <time>2022-07-23T11:48:10Z</time>
      </trkpt>
      <trkpt lat="46.52145" lon="5.81896">
        <ele>885.99</ele>
        <time>2022-07-23T11:48:11Z</time>
      </trkpt>
      <trkpt lat="46.5214" lon="5.81894">
        <ele>886.47</ele>
        <time>2022-07-23T11:48:12Z</time>
      </trkpt>
      <trkpt lat="46.52134" lon="5.81891">
        <ele>885.51</ele>
        <time>2022-07-23T11:48:13Z</time>
      </trkpt>
      <trkpt lat="46.52122" lon="5.81885">
        <ele>885.51</ele>
        <time>2022-07-23T11:48:15Z</time>
      </trkpt>
      <trkpt lat="46.52115" lon="5.81884">
        <ele>885.03</ele>
        <time>2022-07-23T11:48:16Z</time>
      </trkpt>
      <trkpt lat="46.52095" lon="5.81881">
        <ele>884.55</ele>
        <time>2022-07-23T11:48:19Z</time>
      </trkpt>
      <trkpt lat="46.52088" lon="5.81878">
        <ele>884.55</ele>
        <time>2022-07-23T11:48:20Z</time>
      </trkpt>
      <trkpt lat="46.52081" lon="5.81872">
        <ele>884.07</ele>
        <time>2022-07-23T11:48:21Z</time>
      </trkpt>
      <trkpt lat="46.52076" lon="5.81865">
        <ele>884.07</ele>
        <time>2022-07-23T11:48:22Z</time>
      </trkpt>
      <trkpt lat="46.52071" lon="5.81856">
        <ele>883.59</ele>
        <time>2022-07-23T11:48:23Z</time>
      </trkpt>
      <trkpt lat="46.52067" lon="5.81847">
        <ele>883.11</ele>
        <time>2022-07-23T11:48:24Z</time>
      </trkpt>
      <trkpt lat="46.5204" lon="5.81781">
        <ele>879.26</ele>
        <time>2022-07-23T11:48:30Z</time>
      </trkpt>
      <trkpt lat="46.52035" lon="5.8177">
        <ele>879.74</ele>
        <time>2022-07-23T11:48:31Z</time>
      </trkpt>
      <trkpt lat="46.52025" lon="5.81748">
        <ele>878.3</ele>
        <time>2022-07-23T11:48:33Z</time>
      </trkpt>
      <trkpt lat="46.51998" lon="5.81695">
        <ele>874.46</ele>
        <time>2022-07-23T11:48:38Z</time>
      </trkpt>
      <trkpt lat="46.51987" lon="5.81675">
        <ele>872.53</ele>
        <time>2022-07-23T11:48:40Z</time>
      </trkpt>
      <trkpt lat="46.51953" lon="5.81629">
        <ele>869.65</ele>
        <time>2022-07-23T11:48:45Z</time>
      </trkpt>
      <trkpt lat="46.51945" lon="5.81621">
        <ele>868.21</ele>
        <time>2022-07-23T11:48:46Z</time>
      </trkpt>
      <trkpt lat="46.51929" lon="5.81606">
        <ele>867.25</ele>
        <time>2022-07-23T11:48:48Z</time>
      </trkpt>
      <trkpt lat="46.51897" lon="5.81576">
        <ele>865.32</ele>
        <time>2022-07-23T11:48:52Z</time>
      </trkpt>
      <trkpt lat="46.5189" lon="5.81567">
        <ele>863.88</ele>
        <time>2022-07-23T11:48:53Z</time>
      </trkpt>
      <trkpt lat="46.51884" lon="5.81555">
        <ele>864.36</ele>
        <time>2022-07-23T11:48:54Z</time>
      </trkpt>
      <trkpt lat="46.51879" lon="5.81543">
        <ele>863.4</ele>
        <time>2022-07-23T11:48:55Z</time>
      </trkpt>
      <trkpt lat="46.51875" lon="5.8153">
        <ele>861.96</ele>
        <time>2022-07-23T11:48:56Z</time>
      </trkpt>
      <trkpt lat="46.51866" lon="5.81504">
        <ele>861</ele>
        <time>2022-07-23T11:48:58Z</time>
      </trkpt>
      <trkpt lat="46.51853" lon="5.81481">
        <ele>859.08</ele>
        <time>2022-07-23T11:49:00Z</time>
      </trkpt>
      <trkpt lat="46.51837" lon="5.81465">
        <ele>858.11</ele>
        <time>2022-07-23T11:49:02Z</time>
      </trkpt>
      <trkpt lat="46.51793" lon="5.81429">
        <ele>854.75</ele>
        <time>2022-07-23T11:49:07Z</time>
      </trkpt>
      <trkpt lat="46.51756" lon="5.81401">
        <ele>852.35</ele>
        <time>2022-07-23T11:49:11Z</time>
      </trkpt>
      <trkpt lat="46.5169" lon="5.81348">
        <ele>849.46</ele>
        <time>2022-07-23T11:49:18Z</time>
      </trkpt>
      <trkpt lat="46.51671" lon="5.81335">
        <ele>848.98</ele>
        <time>2022-07-23T11:49:20Z</time>
      </trkpt>
      <trkpt lat="46.51654" lon="5.81318">
        <ele>848.02</ele>
        <time>2022-07-23T11:49:22Z</time>
      </trkpt>
      <trkpt lat="46.51647" lon="5.81307">
        <ele>847.54</ele>
        <time>2022-07-23T11:49:23Z</time>
      </trkpt>
      <trkpt lat="46.51624" lon="5.8127">
        <ele>846.1</ele>
        <time>2022-07-23T11:49:26Z</time>
      </trkpt>
      <trkpt lat="46.51586" lon="5.81225">
        <ele>843.21</ele>
        <time>2022-07-23T11:49:31Z</time>
      </trkpt>
      <trkpt lat="46.51578" lon="5.81215">
        <ele>841.77</ele>
        <time>2022-07-23T11:49:32Z</time>
      </trkpt>
      <trkpt lat="46.51537" lon="5.8117">
        <ele>838.41</ele>
        <time>2022-07-23T11:49:37Z</time>
      </trkpt>
      <trkpt lat="46.51511" lon="5.8114">
        <ele>836.48</ele>
        <time>2022-07-23T11:49:40Z</time>
      </trkpt>
      <trkpt lat="46.51504" lon="5.81128">
        <ele>834.56</ele>
        <time>2022-07-23T11:49:41Z</time>
      </trkpt>
      <trkpt lat="46.51497" lon="5.81115">
        <ele>834.56</ele>
        <time>2022-07-23T11:49:42Z</time>
      </trkpt>
      <trkpt lat="46.51479" lon="5.81077">
        <ele>832.64</ele>
        <time>2022-07-23T11:49:45Z</time>
      </trkpt>
      <trkpt lat="46.51465" lon="5.81053">
        <ele>830.72</ele>
        <time>2022-07-23T11:49:47Z</time>
      </trkpt>
      <trkpt lat="46.51439" lon="5.81022">
        <ele>827.83</ele>
        <time>2022-07-23T11:49:50Z</time>
      </trkpt>
      <trkpt lat="46.51403" lon="5.80982">
        <ele>824.95</ele>
        <time>2022-07-23T11:49:54Z</time>
      </trkpt>
      <trkpt lat="46.51372" lon="5.80937">
        <ele>822.55</ele>
        <time>2022-07-23T11:49:58Z</time>
      </trkpt>
      <trkpt lat="46.51368" lon="5.80925">
        <ele>820.62</ele>
        <time>2022-07-23T11:49:59Z</time>
      </trkpt>
      <trkpt lat="46.51365" lon="5.80914">
        <ele>820.14</ele>
        <time>2022-07-23T11:50:00Z</time>
      </trkpt>
      <trkpt lat="46.51365" lon="5.80901">
        <ele>819.66</ele>
        <time>2022-07-23T11:50:01Z</time>
      </trkpt>
      <trkpt lat="46.51366" lon="5.80885">
        <ele>818.7</ele>
        <time>2022-07-23T11:50:02Z</time>
      </trkpt>
      <trkpt lat="46.51369" lon="5.8087">
        <ele>817.26</ele>
        <time>2022-07-23T11:50:03Z</time>
      </trkpt>
      <trkpt lat="46.51372" lon="5.80854">
        <ele>817.26</ele>
        <time>2022-07-23T11:50:04Z</time>
      </trkpt>
      <trkpt lat="46.51376" lon="5.80838">
        <ele>816.78</ele>
        <time>2022-07-23T11:50:05Z</time>
      </trkpt>
      <trkpt lat="46.51385" lon="5.80805">
        <ele>815.82</ele>
        <time>2022-07-23T11:50:07Z</time>
      </trkpt>
      <trkpt lat="46.51412" lon="5.80689">
        <ele>811.01</ele>
        <time>2022-07-23T11:50:15Z</time>
      </trkpt>
      <trkpt lat="46.51418" lon="5.8066">
        <ele>810.05</ele>
        <time>2022-07-23T11:50:17Z</time>
      </trkpt>
      <trkpt lat="46.51441" lon="5.80573">
        <ele>807.64</ele>
        <time>2022-07-23T11:50:24Z</time>
      </trkpt>
      <trkpt lat="46.51451" lon="5.80522">
        <ele>805.72</ele>
        <time>2022-07-23T11:50:28Z</time>
      </trkpt>
      <trkpt lat="46.51473" lon="5.80419">
        <ele>802.84</ele>
        <time>2022-07-23T11:50:39Z</time>
      </trkpt>
      <trkpt lat="46.51496" lon="5.80311">
        <ele>801.4</ele>
        <time>2022-07-23T11:50:56Z</time>
      </trkpt>
      <trkpt lat="46.51522" lon="5.80243">
        <ele>802.84</ele>
        <time>2022-07-23T11:51:14Z</time>
      </trkpt>
      <trkpt lat="46.51545" lon="5.80199">
        <ele>802.84</ele>
        <time>2022-07-23T11:51:30Z</time>
      </trkpt>
      <trkpt lat="46.51558" lon="5.80172">
        <ele>802.84</ele>
        <time>2022-07-23T11:51:43Z</time>
      </trkpt>
      <trkpt lat="46.51561" lon="5.80161">
        <ele>802.36</ele>
        <time>2022-07-23T11:51:46Z</time>
      </trkpt>
      <trkpt lat="46.51562" lon="5.80157">
        <ele>802.36</ele>
        <time>2022-07-23T11:51:47Z</time>
      </trkpt>
      <trkpt lat="46.51563" lon="5.80154">
        <ele>802.36</ele>
        <time>2022-07-23T11:51:48Z</time>
      </trkpt>
      <trkpt lat="46.51565" lon="5.8015">
        <ele>801.88</ele>
        <time>2022-07-23T11:51:49Z</time>
      </trkpt>
      <trkpt lat="46.51567" lon="5.80147">
        <ele>802.36</ele>
        <time>2022-07-23T11:51:50Z</time>
      </trkpt>
      <trkpt lat="46.51597" lon="5.80078">
        <ele>799.47</ele>
        <time>2022-07-23T11:52:03Z</time>
      </trkpt>
      <trkpt lat="46.51621" lon="5.80034">
        <ele>798.51</ele>
        <time>2022-07-23T11:52:09Z</time>
      </trkpt>
      <trkpt lat="46.51627" lon="5.80028">
        <ele>798.03</ele>
        <time>2022-07-23T11:52:10Z</time>
      </trkpt>
      <trkpt lat="46.51632" lon="5.80023">
        <ele>798.03</ele>
        <time>2022-07-23T11:52:11Z</time>
      </trkpt>
      <trkpt lat="46.51639" lon="5.80019">
        <ele>798.03</ele>
        <time>2022-07-23T11:52:12Z</time>
      </trkpt>
      <trkpt lat="46.51645" lon="5.80016">
        <ele>797.55</ele>
        <time>2022-07-23T11:52:13Z</time>
      </trkpt>
      <trkpt lat="46.51651" lon="5.80013">
        <ele>797.07</ele>
        <time>2022-07-23T11:52:14Z</time>
      </trkpt>
      <trkpt lat="46.51663" lon="5.80009">
        <ele>798.03</ele>
        <time>2022-07-23T11:52:16Z</time>
      </trkpt>
      <trkpt lat="46.51739" lon="5.79995">
        <ele>797.55</ele>
        <time>2022-07-23T11:52:31Z</time>
      </trkpt>
      <trkpt lat="46.51793" lon="5.79995">
        <ele>798.03</ele>
        <time>2022-07-23T11:52:41Z</time>
      </trkpt>
      <trkpt lat="46.51828" lon="5.79993">
        <ele>798.51</ele>
        <time>2022-07-23T11:52:49Z</time>
      </trkpt>
      <trkpt lat="46.51833" lon="5.79992">
        <ele>798.51</ele>
        <time>2022-07-23T11:52:50Z</time>
      </trkpt>
      <trkpt lat="46.51842" lon="5.79988">
        <ele>798.51</ele>
        <time>2022-07-23T11:52:52Z</time>
      </trkpt>
      <trkpt lat="46.51846" lon="5.79985">
        <ele>798.51</ele>
        <time>2022-07-23T11:52:53Z</time>
      </trkpt>
      <trkpt lat="46.5185" lon="5.79982">
        <ele>798.51</ele>
        <time>2022-07-23T11:52:54Z</time>
      </trkpt>
      <trkpt lat="46.51853" lon="5.79978">
        <ele>798.51</ele>
        <time>2022-07-23T11:52:55Z</time>
      </trkpt>
      <trkpt lat="46.51856" lon="5.79974">
        <ele>798.99</ele>
        <time>2022-07-23T11:52:56Z</time>
      </trkpt>
      <trkpt lat="46.51887" lon="5.7992">
        <ele>799.95</ele>
        <time>2022-07-23T11:53:08Z</time>
      </trkpt>
      <trkpt lat="46.51925" lon="5.79857">
        <ele>801.4</ele>
        <time>2022-07-23T11:53:23Z</time>
      </trkpt>
      <trkpt lat="46.51969" lon="5.79798">
        <ele>802.36</ele>
        <time>2022-07-23T11:53:41Z</time>
      </trkpt>
      <trkpt lat="46.51998" lon="5.79751">
        <ele>803.32</ele>
        <time>2022-07-23T11:53:54Z</time>
      </trkpt>
      <trkpt lat="46.52037" lon="5.79681">
        <ele>804.76</ele>
        <time>2022-07-23T11:54:12Z</time>
      </trkpt>
      <trkpt lat="46.52075" lon="5.79612">
        <ele>804.76</ele>
        <time>2022-07-23T11:54:30Z</time>
      </trkpt>
      <trkpt lat="46.52101" lon="5.79569">
        <ele>805.24</ele>
        <time>2022-07-23T11:54:43Z</time>
      </trkpt>
      <trkpt lat="46.52144" lon="5.79528">
        <ele>804.76</ele>
        <time>2022-07-23T11:54:59Z</time>
      </trkpt>
      <trkpt lat="46.52218" lon="5.79497">
        <ele>802.36</ele>
        <time>2022-07-23T11:55:16Z</time>
      </trkpt>
      <trkpt lat="46.52244" lon="5.79489">
        <ele>801.88</ele>
        <time>2022-07-23T11:55:21Z</time>
      </trkpt>
      <trkpt lat="46.52249" lon="5.79489">
        <ele>802.36</ele>
        <time>2022-07-23T11:55:22Z</time>
      </trkpt>
      <trkpt lat="46.52255" lon="5.79491">
        <ele>801.88</ele>
        <time>2022-07-23T11:55:23Z</time>
      </trkpt>
      <trkpt lat="46.5226" lon="5.79493">
        <ele>801.4</ele>
        <time>2022-07-23T11:55:24Z</time>
      </trkpt>
      <trkpt lat="46.52265" lon="5.79496">
        <ele>801.4</ele>
        <time>2022-07-23T11:55:25Z</time>
      </trkpt>
      <trkpt lat="46.5227" lon="5.79501">
        <ele>801.4</ele>
        <time>2022-07-23T11:55:26Z</time>
      </trkpt>
      <trkpt lat="46.52274" lon="5.79506">
        <ele>800.44</ele>
        <time>2022-07-23T11:55:27Z</time>
      </trkpt>
      <trkpt lat="46.52296" lon="5.79531">
        <ele>800.92</ele>
        <time>2022-07-23T11:55:32Z</time>
      </trkpt>
      <trkpt lat="46.52302" lon="5.79535">
        <ele>799.95</ele>
        <time>2022-07-23T11:55:33Z</time>
      </trkpt>
      <trkpt lat="46.52307" lon="5.79538">
        <ele>799.95</ele>
        <time>2022-07-23T11:55:34Z</time>
      </trkpt>
      <trkpt lat="46.52313" lon="5.7954">
        <ele>798.99</ele>
        <time>2022-07-23T11:55:35Z</time>
      </trkpt>
      <trkpt lat="46.52319" lon="5.79542">
        <ele>798.51</ele>
        <time>2022-07-23T11:55:36Z</time>
      </trkpt>
      <trkpt lat="46.52326" lon="5.79542">
        <ele>798.51</ele>
        <time>2022-07-23T11:55:37Z</time>
      </trkpt>
      <trkpt lat="46.52333" lon="5.79542">
        <ele>798.03</ele>
        <time>2022-07-23T11:55:38Z</time>
      </trkpt>
      <trkpt lat="46.52378" lon="5.7954">
        <ele>797.07</ele>
        <time>2022-07-23T11:55:44Z</time>
      </trkpt>
      <trkpt lat="46.52386" lon="5.79543">
        <ele>795.63</ele>
        <time>2022-07-23T11:55:45Z</time>
      </trkpt>
      <trkpt lat="46.52394" lon="5.79548">
        <ele>795.63</ele>
        <time>2022-07-23T11:55:46Z</time>
      </trkpt>
      <trkpt lat="46.52453" lon="5.79597">
        <ele>792.26</ele>
        <time>2022-07-23T11:55:54Z</time>
      </trkpt>
      <trkpt lat="46.52461" lon="5.79604">
        <ele>791.78</ele>
        <time>2022-07-23T11:55:55Z</time>
      </trkpt>
      <trkpt lat="46.52493" lon="5.7963">
        <ele>789.86</ele>
        <time>2022-07-23T11:55:59Z</time>
      </trkpt>
      <trkpt lat="46.5251" lon="5.79642">
        <ele>788.42</ele>
        <time>2022-07-23T11:56:01Z</time>
      </trkpt>
      <trkpt lat="46.52519" lon="5.79642">
        <ele>788.9</ele>
        <time>2022-07-23T11:56:02Z</time>
      </trkpt>
      <trkpt lat="46.52527" lon="5.79639">
        <ele>787.94</ele>
        <time>2022-07-23T11:56:03Z</time>
      </trkpt>
      <trkpt lat="46.52535" lon="5.79634">
        <ele>787.94</ele>
        <time>2022-07-23T11:56:04Z</time>
      </trkpt>
      <trkpt lat="46.52543" lon="5.79628">
        <ele>787.46</ele>
        <time>2022-07-23T11:56:05Z</time>
      </trkpt>
      <trkpt lat="46.5255" lon="5.7962">
        <ele>787.46</ele>
        <time>2022-07-23T11:56:06Z</time>
      </trkpt>
      <trkpt lat="46.52558" lon="5.79613">
        <ele>786.98</ele>
        <time>2022-07-23T11:56:07Z</time>
      </trkpt>
      <trkpt lat="46.52593" lon="5.79572">
        <ele>783.61</ele>
        <time>2022-07-23T11:56:12Z</time>
      </trkpt>
      <trkpt lat="46.52601" lon="5.79565">
        <ele>783.61</ele>
        <time>2022-07-23T11:56:13Z</time>
      </trkpt>
      <trkpt lat="46.52626" lon="5.79548">
        <ele>782.17</ele>
        <time>2022-07-23T11:56:16Z</time>
      </trkpt>
      <trkpt lat="46.52634" lon="5.79542">
        <ele>780.73</ele>
        <time>2022-07-23T11:56:17Z</time>
      </trkpt>
      <trkpt lat="46.52641" lon="5.79535">
        <ele>780.25</ele>
        <time>2022-07-23T11:56:18Z</time>
      </trkpt>
      <trkpt lat="46.52647" lon="5.79527">
        <ele>780.73</ele>
        <time>2022-07-23T11:56:19Z</time>
      </trkpt>
      <trkpt lat="46.52653" lon="5.79518">
        <ele>779.29</ele>
        <time>2022-07-23T11:56:20Z</time>
      </trkpt>
      <trkpt lat="46.52658" lon="5.79507">
        <ele>779.29</ele>
        <time>2022-07-23T11:56:21Z</time>
      </trkpt>
      <trkpt lat="46.52662" lon="5.79495">
        <ele>779.29</ele>
        <time>2022-07-23T11:56:22Z</time>
      </trkpt>
      <trkpt lat="46.52665" lon="5.79483">
        <ele>778.81</ele>
        <time>2022-07-23T11:56:23Z</time>
      </trkpt>
      <trkpt lat="46.52668" lon="5.79471">
        <ele>777.36</ele>
        <time>2022-07-23T11:56:24Z</time>
      </trkpt>
      <trkpt lat="46.5267" lon="5.79458">
        <ele>777.36</ele>
        <time>2022-07-23T11:56:25Z</time>
      </trkpt>
      <trkpt lat="46.52672" lon="5.79447">
        <ele>776.88</ele>
        <time>2022-07-23T11:56:26Z</time>
      </trkpt>
      <trkpt lat="46.52671" lon="5.79436">
        <ele>776.4</ele>
        <time>2022-07-23T11:56:27Z</time>
      </trkpt>
      <trkpt lat="46.52667" lon="5.79411">
        <ele>775.44</ele>
        <time>2022-07-23T11:56:29Z</time>
      </trkpt>
      <trkpt lat="46.52666" lon="5.79398">
        <ele>775.44</ele>
        <time>2022-07-23T11:56:30Z</time>
      </trkpt>
      <trkpt lat="46.52666" lon="5.79385">
        <ele>774</ele>
        <time>2022-07-23T11:56:31Z</time>
      </trkpt>
      <trkpt lat="46.52669" lon="5.79372">
        <ele>774.48</ele>
        <time>2022-07-23T11:56:32Z</time>
      </trkpt>
      <trkpt lat="46.52672" lon="5.7936">
        <ele>774</ele>
        <time>2022-07-23T11:56:33Z</time>
      </trkpt>
      <trkpt lat="46.52676" lon="5.79349">
        <ele>773.52</ele>
        <time>2022-07-23T11:56:34Z</time>
      </trkpt>
      <trkpt lat="46.52681" lon="5.79338">
        <ele>772.56</ele>
        <time>2022-07-23T11:56:35Z</time>
      </trkpt>
      <trkpt lat="46.52717" lon="5.79255">
        <ele>773.04</ele>
        <time>2022-07-23T11:56:45Z</time>
      </trkpt>
      <trkpt lat="46.52725" lon="5.79223">
        <ele>772.56</ele>
        <time>2022-07-23T11:56:50Z</time>
      </trkpt>
      <trkpt lat="46.52735" lon="5.79177">
        <ele>770.63</ele>
        <time>2022-07-23T11:56:56Z</time>
      </trkpt>
      <trkpt lat="46.52741" lon="5.7916">
        <ele>771.11</ele>
        <time>2022-07-23T11:56:58Z</time>
      </trkpt>
      <trkpt lat="46.52745" lon="5.79153">
        <ele>770.63</ele>
        <time>2022-07-23T11:56:59Z</time>
      </trkpt>
      <trkpt lat="46.5275" lon="5.79146">
        <ele>770.15</ele>
        <time>2022-07-23T11:57:00Z</time>
      </trkpt>
      <trkpt lat="46.52756" lon="5.7914">
        <ele>770.63</ele>
        <time>2022-07-23T11:57:01Z</time>
      </trkpt>
      <trkpt lat="46.52761" lon="5.79135">
        <ele>769.67</ele>
        <time>2022-07-23T11:57:02Z</time>
      </trkpt>
      <trkpt lat="46.52768" lon="5.79131">
        <ele>768.71</ele>
        <time>2022-07-23T11:57:03Z</time>
      </trkpt>
      <trkpt lat="46.52775" lon="5.79127">
        <ele>769.19</ele>
        <time>2022-07-23T11:57:04Z</time>
      </trkpt>
      <trkpt lat="46.52782" lon="5.79125">
        <ele>769.19</ele>
        <time>2022-07-23T11:57:05Z</time>
      </trkpt>
      <trkpt lat="46.52789" lon="5.79124">
        <ele>769.19</ele>
        <time>2022-07-23T11:57:06Z</time>
      </trkpt>
      <trkpt lat="46.52796" lon="5.79125">
        <ele>768.71</ele>
        <time>2022-07-23T11:57:07Z</time>
      </trkpt>
      <trkpt lat="46.52804" lon="5.79126">
        <ele>768.71</ele>
        <time>2022-07-23T11:57:08Z</time>
      </trkpt>
      <trkpt lat="46.52812" lon="5.79129">
        <ele>768.23</ele>
        <time>2022-07-23T11:57:09Z</time>
      </trkpt>
      <trkpt lat="46.52835" lon="5.79135">
        <ele>766.31</ele>
        <time>2022-07-23T11:57:12Z</time>
      </trkpt>
      <trkpt lat="46.52842" lon="5.79135">
        <ele>766.31</ele>
        <time>2022-07-23T11:57:13Z</time>
      </trkpt>
      <trkpt lat="46.5285" lon="5.79135">
        <ele>766.31</ele>
        <time>2022-07-23T11:57:14Z</time>
      </trkpt>
      <trkpt lat="46.52866" lon="5.79132">
        <ele>765.83</ele>
        <time>2022-07-23T11:57:16Z</time>
      </trkpt>
      <trkpt lat="46.52874" lon="5.7913">
        <ele>764.87</ele>
        <time>2022-07-23T11:57:17Z</time>
      </trkpt>
      <trkpt lat="46.52882" lon="5.79126">
        <ele>764.87</ele>
        <time>2022-07-23T11:57:18Z</time>
      </trkpt>
      <trkpt lat="46.52906" lon="5.79113">
        <ele>764.39</ele>
        <time>2022-07-23T11:57:21Z</time>
      </trkpt>
      <trkpt lat="46.52914" lon="5.79108">
        <ele>763.42</ele>
        <time>2022-07-23T11:57:22Z</time>
      </trkpt>
      <trkpt lat="46.52921" lon="5.79101">
        <ele>763.42</ele>
        <time>2022-07-23T11:57:23Z</time>
      </trkpt>
      <trkpt lat="46.52928" lon="5.79094">
        <ele>762.94</ele>
        <time>2022-07-23T11:57:24Z</time>
      </trkpt>
      <trkpt lat="46.52934" lon="5.79086">
        <ele>762.46</ele>
        <time>2022-07-23T11:57:25Z</time>
      </trkpt>
      <trkpt lat="46.52962" lon="5.79058">
        <ele>761.02</ele>
        <time>2022-07-23T11:57:29Z</time>
      </trkpt>
      <trkpt lat="46.52969" lon="5.79054">
        <ele>761.98</ele>
        <time>2022-07-23T11:57:30Z</time>
      </trkpt>
      <trkpt lat="46.52977" lon="5.79051">
        <ele>761.5</ele>
        <time>2022-07-23T11:57:31Z</time>
      </trkpt>
      <trkpt lat="46.52984" lon="5.7905">
        <ele>761.02</ele>
        <time>2022-07-23T11:57:32Z</time>
      </trkpt>
      <trkpt lat="46.52992" lon="5.7905">
        <ele>761.02</ele>
        <time>2022-07-23T11:57:33Z</time>
      </trkpt>
      <trkpt lat="46.52999" lon="5.7905">
        <ele>760.54</ele>
        <time>2022-07-23T11:57:34Z</time>
      </trkpt>
      <trkpt lat="46.53005" lon="5.79051">
        <ele>761.02</ele>
        <time>2022-07-23T11:57:35Z</time>
      </trkpt>
      <trkpt lat="46.53031" lon="5.79057">
        <ele>761.02</ele>
        <time>2022-07-23T11:57:40Z</time>
      </trkpt>
      <trkpt lat="46.53035" lon="5.79058">
        <ele>761.02</ele>
        <time>2022-07-23T11:57:41Z</time>
      </trkpt>
      <trkpt lat="46.5308" lon="5.79072">
        <ele>760.54</ele>
        <time>2022-07-23T11:57:55Z</time>
      </trkpt>
      <trkpt lat="46.53129" lon="5.79094">
        <ele>760.06</ele>
        <time>2022-07-23T11:58:11Z</time>
      </trkpt>
      <trkpt lat="46.53137" lon="5.79098">
        <ele>760.54</ele>
        <time>2022-07-23T11:58:13Z</time>
      </trkpt>
      <trkpt lat="46.53141" lon="5.791">
        <ele>760.06</ele>
        <time>2022-07-23T11:58:14Z</time>
      </trkpt>
      <trkpt lat="46.53216" lon="5.79142">
        <ele>757.66</ele>
        <time>2022-07-23T11:58:30Z</time>
      </trkpt>
      <trkpt lat="46.53288" lon="5.79215">
        <ele>757.18</ele>
        <time>2022-07-23T11:58:47Z</time>
      </trkpt>
      <trkpt lat="46.53293" lon="5.79219">
        <ele>756.69</ele>
        <time>2022-07-23T11:58:48Z</time>
      </trkpt>
      <trkpt lat="46.5334" lon="5.79249">
        <ele>756.69</ele>
        <time>2022-07-23T11:58:58Z</time>
      </trkpt>
      <trkpt lat="46.53344" lon="5.79253">
        <ele>756.69</ele>
        <time>2022-07-23T11:58:59Z</time>
      </trkpt>
      <trkpt lat="46.53357" lon="5.79265">
        <ele>755.73</ele>
        <time>2022-07-23T11:59:02Z</time>
      </trkpt>
      <trkpt lat="46.5342" lon="5.79354">
        <ele>753.81</ele>
        <time>2022-07-23T11:59:18Z</time>
      </trkpt>
      <trkpt lat="46.53487" lon="5.79394">
        <ele>751.89</ele>
        <time>2022-07-23T11:59:32Z</time>
      </trkpt>
      <trkpt lat="46.53509" lon="5.79402">
        <ele>750.93</ele>
        <time>2022-07-23T11:59:36Z</time>
      </trkpt>
      <trkpt lat="46.53608" lon="5.7942">
        <ele>747.56</ele>
        <time>2022-07-23T11:59:51Z</time>
      </trkpt>
      <trkpt lat="46.53686" lon="5.79417">
        <ele>744.2</ele>
        <time>2022-07-23T12:00:02Z</time>
      </trkpt>
      <trkpt lat="46.53794" lon="5.79441">
        <ele>742.76</ele>
        <time>2022-07-23T12:00:17Z</time>
      </trkpt>
      <trkpt lat="46.53861" lon="5.79468">
        <ele>744.2</ele>
        <time>2022-07-23T12:00:30Z</time>
      </trkpt>
      <trkpt lat="46.5392" lon="5.79485">
        <ele>744.68</ele>
        <time>2022-07-23T12:00:45Z</time>
      </trkpt>
      <trkpt lat="46.53973" lon="5.79508">
        <ele>746.12</ele>
        <time>2022-07-23T12:01:00Z</time>
      </trkpt>
      <trkpt lat="46.54024" lon="5.79545">
        <ele>746.12</ele>
        <time>2022-07-23T12:01:14Z</time>
      </trkpt>
      <trkpt lat="46.54096" lon="5.79555">
        <ele>744.68</ele>
        <time>2022-07-23T12:01:29Z</time>
      </trkpt>
      <trkpt lat="46.54167" lon="5.79506">
        <ele>744.2</ele>
        <time>2022-07-23T12:01:45Z</time>
      </trkpt>
      <trkpt lat="46.54209" lon="5.79452">
        <ele>742.76</ele>
        <time>2022-07-23T12:02:01Z</time>
      </trkpt>
      <trkpt lat="46.5423" lon="5.79427">
        <ele>742.28</ele>
        <time>2022-07-23T12:02:06Z</time>
      </trkpt>
      <trkpt lat="46.54235" lon="5.79423">
        <ele>741.79</ele>
        <time>2022-07-23T12:02:07Z</time>
      </trkpt>
      <trkpt lat="46.54241" lon="5.79419">
        <ele>740.83</ele>
        <time>2022-07-23T12:02:08Z</time>
      </trkpt>
      <trkpt lat="46.54248" lon="5.79417">
        <ele>740.83</ele>
        <time>2022-07-23T12:02:09Z</time>
      </trkpt>
      <trkpt lat="46.54255" lon="5.79415">
        <ele>740.35</ele>
        <time>2022-07-23T12:02:10Z</time>
      </trkpt>
      <trkpt lat="46.54262" lon="5.79414">
        <ele>739.87</ele>
        <time>2022-07-23T12:02:11Z</time>
      </trkpt>
      <trkpt lat="46.54331" lon="5.79421">
        <ele>736.99</ele>
        <time>2022-07-23T12:02:20Z</time>
      </trkpt>
      <trkpt lat="46.54366" lon="5.79417">
        <ele>736.03</ele>
        <time>2022-07-23T12:02:24Z</time>
      </trkpt>
      <trkpt lat="46.54375" lon="5.79413">
        <ele>735.07</ele>
        <time>2022-07-23T12:02:25Z</time>
      </trkpt>
      <trkpt lat="46.54384" lon="5.79409">
        <ele>734.58</ele>
        <time>2022-07-23T12:02:26Z</time>
      </trkpt>
      <trkpt lat="46.54448" lon="5.79359">
        <ele>732.18</ele>
        <time>2022-07-23T12:02:34Z</time>
      </trkpt>
      <trkpt lat="46.54497" lon="5.79303">
        <ele>729.78</ele>
        <time>2022-07-23T12:02:41Z</time>
      </trkpt>
      <trkpt lat="46.54524" lon="5.79269">
        <ele>728.82</ele>
        <time>2022-07-23T12:02:45Z</time>
      </trkpt>
      <trkpt lat="46.54532" lon="5.79262">
        <ele>726.89</ele>
        <time>2022-07-23T12:02:46Z</time>
      </trkpt>
      <trkpt lat="46.5454" lon="5.79256">
        <ele>725.93</ele>
        <time>2022-07-23T12:02:47Z</time>
      </trkpt>
      <trkpt lat="46.54548" lon="5.79254">
        <ele>726.41</ele>
        <time>2022-07-23T12:02:48Z</time>
      </trkpt>
      <trkpt lat="46.54557" lon="5.79252">
        <ele>725.93</ele>
        <time>2022-07-23T12:02:49Z</time>
      </trkpt>
      <trkpt lat="46.54565" lon="5.79251">
        <ele>725.45</ele>
        <time>2022-07-23T12:02:50Z</time>
      </trkpt>
      <trkpt lat="46.5459" lon="5.79247">
        <ele>725.93</ele>
        <time>2022-07-23T12:02:53Z</time>
      </trkpt>
      <trkpt lat="46.54597" lon="5.79243">
        <ele>725.93</ele>
        <time>2022-07-23T12:02:54Z</time>
      </trkpt>
      <trkpt lat="46.54611" lon="5.79234">
        <ele>724.97</ele>
        <time>2022-07-23T12:02:56Z</time>
      </trkpt>
      <trkpt lat="46.54706" lon="5.79148">
        <ele>721.61</ele>
        <time>2022-07-23T12:03:11Z</time>
      </trkpt>
      <trkpt lat="46.54714" lon="5.79145">
        <ele>721.13</ele>
        <time>2022-07-23T12:03:12Z</time>
      </trkpt>
      <trkpt lat="46.54745" lon="5.79134">
        <ele>720.65</ele>
        <time>2022-07-23T12:03:16Z</time>
      </trkpt>
      <trkpt lat="46.54752" lon="5.79129">
        <ele>719.68</ele>
        <time>2022-07-23T12:03:17Z</time>
      </trkpt>
      <trkpt lat="46.54759" lon="5.79122">
        <ele>719.68</ele>
        <time>2022-07-23T12:03:18Z</time>
      </trkpt>
      <trkpt lat="46.54766" lon="5.79114">
        <ele>719.68</ele>
        <time>2022-07-23T12:03:19Z</time>
      </trkpt>
      <trkpt lat="46.5477" lon="5.79105">
        <ele>718.72</ele>
        <time>2022-07-23T12:03:20Z</time>
      </trkpt>
      <trkpt lat="46.54773" lon="5.79094">
        <ele>718.24</ele>
        <time>2022-07-23T12:03:21Z</time>
      </trkpt>
      <trkpt lat="46.54775" lon="5.79084">
        <ele>718.24</ele>
        <time>2022-07-23T12:03:22Z</time>
      </trkpt>
      <trkpt lat="46.54775" lon="5.79073">
        <ele>718.24</ele>
        <time>2022-07-23T12:03:23Z</time>
      </trkpt>
      <trkpt lat="46.54775" lon="5.79061">
        <ele>717.28</ele>
        <time>2022-07-23T12:03:24Z</time>
      </trkpt>
      <trkpt lat="46.54773" lon="5.79049">
        <ele>718.24</ele>
        <time>2022-07-23T12:03:25Z</time>
      </trkpt>
      <trkpt lat="46.54771" lon="5.79038">
        <ele>716.8</ele>
        <time>2022-07-23T12:03:26Z</time>
      </trkpt>
      <trkpt lat="46.54763" lon="5.78995">
        <ele>715.84</ele>
        <time>2022-07-23T12:03:30Z</time>
      </trkpt>
      <trkpt lat="46.54739" lon="5.78857">
        <ele>713.92</ele>
        <time>2022-07-23T12:03:43Z</time>
      </trkpt>
      <trkpt lat="46.54738" lon="5.78839">
        <ele>712.95</ele>
        <time>2022-07-23T12:03:45Z</time>
      </trkpt>
      <trkpt lat="46.54738" lon="5.7883">
        <ele>712.95</ele>
        <time>2022-07-23T12:03:46Z</time>
      </trkpt>
      <trkpt lat="46.54739" lon="5.78799">
        <ele>712.47</ele>
        <time>2022-07-23T12:03:50Z</time>
      </trkpt>
      <trkpt lat="46.5474" lon="5.78792">
        <ele>712.47</ele>
        <time>2022-07-23T12:03:51Z</time>
      </trkpt>
      <trkpt lat="46.54741" lon="5.78785">
        <ele>712.47</ele>
        <time>2022-07-23T12:03:52Z</time>
      </trkpt>
      <trkpt lat="46.54743" lon="5.78779">
        <ele>712.47</ele>
        <time>2022-07-23T12:03:53Z</time>
      </trkpt>
      <trkpt lat="46.54746" lon="5.78773">
        <ele>712.47</ele>
        <time>2022-07-23T12:03:54Z</time>
      </trkpt>
      <trkpt lat="46.54748" lon="5.78767">
        <ele>712.95</ele>
        <time>2022-07-23T12:03:55Z</time>
      </trkpt>
      <trkpt lat="46.54751" lon="5.78762">
        <ele>712.47</ele>
        <time>2022-07-23T12:03:56Z</time>
      </trkpt>
      <trkpt lat="46.54754" lon="5.78756">
        <ele>712.95</ele>
        <time>2022-07-23T12:03:57Z</time>
      </trkpt>
      <trkpt lat="46.54758" lon="5.78752">
        <ele>712.95</ele>
        <time>2022-07-23T12:03:58Z</time>
      </trkpt>
      <trkpt lat="46.54762" lon="5.78748">
        <ele>712.95</ele>
        <time>2022-07-23T12:03:59Z</time>
      </trkpt>
      <trkpt lat="46.54766" lon="5.78744">
        <ele>712.95</ele>
        <time>2022-07-23T12:04:00Z</time>
      </trkpt>
      <trkpt lat="46.54796" lon="5.78722">
        <ele>713.92</ele>
        <time>2022-07-23T12:04:08Z</time>
      </trkpt>
      <trkpt lat="46.54808" lon="5.78714">
        <ele>713.92</ele>
        <time>2022-07-23T12:04:11Z</time>
      </trkpt>
      <trkpt lat="46.54871" lon="5.78698">
        <ele>714.88</ele>
        <time>2022-07-23T12:04:25Z</time>
      </trkpt>
      <trkpt lat="46.54914" lon="5.78686">
        <ele>715.84</ele>
        <time>2022-07-23T12:04:37Z</time>
      </trkpt>
      <trkpt lat="46.54967" lon="5.78661">
        <ele>717.28</ele>
        <time>2022-07-23T12:04:51Z</time>
      </trkpt>
      <trkpt lat="46.54984" lon="5.78633">
        <ele>716.8</ele>
        <time>2022-07-23T12:04:57Z</time>
      </trkpt>
      <trkpt lat="46.54995" lon="5.78602">
        <ele>717.28</ele>
        <time>2022-07-23T12:05:02Z</time>
      </trkpt>
      <trkpt lat="46.54996" lon="5.78595">
        <ele>717.76</ele>
        <time>2022-07-23T12:05:03Z</time>
      </trkpt>
      <trkpt lat="46.54997" lon="5.78588">
        <ele>717.76</ele>
        <time>2022-07-23T12:05:04Z</time>
      </trkpt>
      <trkpt lat="46.55002" lon="5.78452">
        <ele>716.8</ele>
        <time>2022-07-23T12:05:21Z</time>
      </trkpt>
      <trkpt lat="46.55005" lon="5.78435">
        <ele>716.8</ele>
        <time>2022-07-23T12:05:23Z</time>
      </trkpt>
      <trkpt lat="46.55007" lon="5.78427">
        <ele>716.8</ele>
        <time>2022-07-23T12:05:24Z</time>
      </trkpt>
      <trkpt lat="46.55023" lon="5.78373">
        <ele>715.36</ele>
        <time>2022-07-23T12:05:31Z</time>
      </trkpt>
      <trkpt lat="46.55025" lon="5.78366">
        <ele>715.36</ele>
        <time>2022-07-23T12:05:32Z</time>
      </trkpt>
      <trkpt lat="46.55041" lon="5.78258">
        <ele>711.99</ele>
        <time>2022-07-23T12:05:44Z</time>
      </trkpt>
      <trkpt lat="46.55045" lon="5.78217">
        <ele>711.99</ele>
        <time>2022-07-23T12:05:48Z</time>
      </trkpt>
      <trkpt lat="46.55048" lon="5.78207">
        <ele>711.99</ele>
        <time>2022-07-23T12:05:49Z</time>
      </trkpt>
      <trkpt lat="46.55051" lon="5.78197">
        <ele>711.51</ele>
        <time>2022-07-23T12:05:50Z</time>
      </trkpt>
      <trkpt lat="46.55064" lon="5.78171">
        <ele>710.07</ele>
        <time>2022-07-23T12:05:53Z</time>
      </trkpt>
      <trkpt lat="46.55069" lon="5.78162">
        <ele>710.55</ele>
        <time>2022-07-23T12:05:54Z</time>
      </trkpt>
      <trkpt lat="46.55122" lon="5.78063">
        <ele>707.19</ele>
        <time>2022-07-23T12:06:06Z</time>
      </trkpt>
      <trkpt lat="46.55163" lon="5.77937">
        <ele>703.82</ele>
        <time>2022-07-23T12:06:20Z</time>
      </trkpt>
      <trkpt lat="46.55177" lon="5.77901">
        <ele>703.82</ele>
        <time>2022-07-23T12:06:24Z</time>
      </trkpt>
      <trkpt lat="46.55232" lon="5.77815">
        <ele>700.46</ele>
        <time>2022-07-23T12:06:35Z</time>
      </trkpt>
      <trkpt lat="46.55244" lon="5.77803">
        <ele>700.46</ele>
        <time>2022-07-23T12:06:37Z</time>
      </trkpt>
      <trkpt lat="46.55258" lon="5.77794">
        <ele>699.5</ele>
        <time>2022-07-23T12:06:39Z</time>
      </trkpt>
      <trkpt lat="46.55265" lon="5.77791">
        <ele>699.5</ele>
        <time>2022-07-23T12:06:40Z</time>
      </trkpt>
      <trkpt lat="46.55305" lon="5.77772">
        <ele>698.05</ele>
        <time>2022-07-23T12:06:46Z</time>
      </trkpt>
      <trkpt lat="46.55366" lon="5.77727">
        <ele>694.69</ele>
        <time>2022-07-23T12:06:55Z</time>
      </trkpt>
      <trkpt lat="46.55401" lon="5.77698">
        <ele>693.73</ele>
        <time>2022-07-23T12:07:00Z</time>
      </trkpt>
      <trkpt lat="46.55416" lon="5.77691">
        <ele>692.29</ele>
        <time>2022-07-23T12:07:02Z</time>
      </trkpt>
      <trkpt lat="46.55448" lon="5.7768">
        <ele>691.33</ele>
        <time>2022-07-23T12:07:06Z</time>
      </trkpt>
      <trkpt lat="46.55456" lon="5.77674">
        <ele>689.88</ele>
        <time>2022-07-23T12:07:07Z</time>
      </trkpt>
      <trkpt lat="46.55463" lon="5.77667">
        <ele>689.4</ele>
        <time>2022-07-23T12:07:08Z</time>
      </trkpt>
      <trkpt lat="46.55469" lon="5.77658">
        <ele>689.88</ele>
        <time>2022-07-23T12:07:09Z</time>
      </trkpt>
      <trkpt lat="46.55475" lon="5.77649">
        <ele>689.4</ele>
        <time>2022-07-23T12:07:10Z</time>
      </trkpt>
      <trkpt lat="46.5548" lon="5.77639">
        <ele>689.4</ele>
        <time>2022-07-23T12:07:11Z</time>
      </trkpt>
      <trkpt lat="46.55528" lon="5.77537">
        <ele>686.04</ele>
        <time>2022-07-23T12:07:21Z</time>
      </trkpt>
      <trkpt lat="46.55561" lon="5.77481">
        <ele>683.63</ele>
        <time>2022-07-23T12:07:27Z</time>
      </trkpt>
      <trkpt lat="46.55565" lon="5.7747">
        <ele>684.12</ele>
        <time>2022-07-23T12:07:28Z</time>
      </trkpt>
      <trkpt lat="46.55569" lon="5.77459">
        <ele>683.15</ele>
        <time>2022-07-23T12:07:29Z</time>
      </trkpt>
      <trkpt lat="46.55587" lon="5.77401">
        <ele>681.71</ele>
        <time>2022-07-23T12:07:34Z</time>
      </trkpt>
      <trkpt lat="46.55593" lon="5.77391">
        <ele>680.75</ele>
        <time>2022-07-23T12:07:35Z</time>
      </trkpt>
      <trkpt lat="46.556" lon="5.77382">
        <ele>679.79</ele>
        <time>2022-07-23T12:07:36Z</time>
      </trkpt>
      <trkpt lat="46.55608" lon="5.77376">
        <ele>679.79</ele>
        <time>2022-07-23T12:07:37Z</time>
      </trkpt>
      <trkpt lat="46.55616" lon="5.77371">
        <ele>679.31</ele>
        <time>2022-07-23T12:07:38Z</time>
      </trkpt>
      <trkpt lat="46.55652" lon="5.77336">
        <ele>677.87</ele>
        <time>2022-07-23T12:07:43Z</time>
      </trkpt>
      <trkpt lat="46.55658" lon="5.77326">
        <ele>677.87</ele>
        <time>2022-07-23T12:07:44Z</time>
      </trkpt>
      <trkpt lat="46.55674" lon="5.77296">
        <ele>676.42</ele>
        <time>2022-07-23T12:07:47Z</time>
      </trkpt>
      <trkpt lat="46.55693" lon="5.77239">
        <ele>674.02</ele>
        <time>2022-07-23T12:07:52Z</time>
      </trkpt>
      <trkpt lat="46.55703" lon="5.77202">
        <ele>672.1</ele>
        <time>2022-07-23T12:07:55Z</time>
      </trkpt>
      <trkpt lat="46.55726" lon="5.77131">
        <ele>668.73</ele>
        <time>2022-07-23T12:08:01Z</time>
      </trkpt>
      <trkpt lat="46.5573" lon="5.77119">
        <ele>668.73</ele>
        <time>2022-07-23T12:08:02Z</time>
      </trkpt>
      <trkpt lat="46.55755" lon="5.77051">
        <ele>664.89</ele>
        <time>2022-07-23T12:08:08Z</time>
      </trkpt>
      <trkpt lat="46.55758" lon="5.77039">
        <ele>663.93</ele>
        <time>2022-07-23T12:08:09Z</time>
      </trkpt>
      <trkpt lat="46.55761" lon="5.77027">
        <ele>663.93</ele>
        <time>2022-07-23T12:08:10Z</time>
      </trkpt>
      <trkpt lat="46.55761" lon="5.77014">
        <ele>663.93</ele>
        <time>2022-07-23T12:08:11Z</time>
      </trkpt>
      <trkpt lat="46.55761" lon="5.77001">
        <ele>663.93</ele>
        <time>2022-07-23T12:08:12Z</time>
      </trkpt>
      <trkpt lat="46.55761" lon="5.76975">
        <ele>662.49</ele>
        <time>2022-07-23T12:08:14Z</time>
      </trkpt>
      <trkpt lat="46.55771" lon="5.76868">
        <ele>659.6</ele>
        <time>2022-07-23T12:08:22Z</time>
      </trkpt>
      <trkpt lat="46.55772" lon="5.76841">
        <ele>658.16</ele>
        <time>2022-07-23T12:08:24Z</time>
      </trkpt>
      <trkpt lat="46.55772" lon="5.76786">
        <ele>656.24</ele>
        <time>2022-07-23T12:08:28Z</time>
      </trkpt>
      <trkpt lat="46.5578" lon="5.76702">
        <ele>652.87</ele>
        <time>2022-07-23T12:08:34Z</time>
      </trkpt>
      <trkpt lat="46.55782" lon="5.76634">
        <ele>649.51</ele>
        <time>2022-07-23T12:08:39Z</time>
      </trkpt>
      <trkpt lat="46.5578" lon="5.76621">
        <ele>649.51</ele>
        <time>2022-07-23T12:08:40Z</time>
      </trkpt>
      <trkpt lat="46.55777" lon="5.76609">
        <ele>650.47</ele>
        <time>2022-07-23T12:08:41Z</time>
      </trkpt>
      <trkpt lat="46.55765" lon="5.76566">
        <ele>647.59</ele>
        <time>2022-07-23T12:08:44Z</time>
      </trkpt>
      <trkpt lat="46.55763" lon="5.76551">
        <ele>646.62</ele>
        <time>2022-07-23T12:08:45Z</time>
      </trkpt>
      <trkpt lat="46.55763" lon="5.76536">
        <ele>646.14</ele>
        <time>2022-07-23T12:08:46Z</time>
      </trkpt>
      <trkpt lat="46.55764" lon="5.76522">
        <ele>645.18</ele>
        <time>2022-07-23T12:08:47Z</time>
      </trkpt>
      <trkpt lat="46.55766" lon="5.76508">
        <ele>645.18</ele>
        <time>2022-07-23T12:08:48Z</time>
      </trkpt>
      <trkpt lat="46.55769" lon="5.76494">
        <ele>645.18</ele>
        <time>2022-07-23T12:08:49Z</time>
      </trkpt>
      <trkpt lat="46.55774" lon="5.76481">
        <ele>644.22</ele>
        <time>2022-07-23T12:08:50Z</time>
      </trkpt>
      <trkpt lat="46.55779" lon="5.76469">
        <ele>643.74</ele>
        <time>2022-07-23T12:08:51Z</time>
      </trkpt>
      <trkpt lat="46.55785" lon="5.76457">
        <ele>643.26</ele>
        <time>2022-07-23T12:08:52Z</time>
      </trkpt>
      <trkpt lat="46.55792" lon="5.76447">
        <ele>642.3</ele>
        <time>2022-07-23T12:08:53Z</time>
      </trkpt>
      <trkpt lat="46.55799" lon="5.76436">
        <ele>642.3</ele>
        <time>2022-07-23T12:08:54Z</time>
      </trkpt>
      <trkpt lat="46.55844" lon="5.76357">
        <ele>638.45</ele>
        <time>2022-07-23T12:09:01Z</time>
      </trkpt>
      <trkpt lat="46.55875" lon="5.76318">
        <ele>636.53</ele>
        <time>2022-07-23T12:09:05Z</time>
      </trkpt>
      <trkpt lat="46.55885" lon="5.76311">
        <ele>636.05</ele>
        <time>2022-07-23T12:09:06Z</time>
      </trkpt>
      <trkpt lat="46.55894" lon="5.76306">
        <ele>635.57</ele>
        <time>2022-07-23T12:09:07Z</time>
      </trkpt>
      <trkpt lat="46.55903" lon="5.76301">
        <ele>634.61</ele>
        <time>2022-07-23T12:09:08Z</time>
      </trkpt>
      <trkpt lat="46.55913" lon="5.76298">
        <ele>634.61</ele>
        <time>2022-07-23T12:09:09Z</time>
      </trkpt>
      <trkpt lat="46.5596" lon="5.76281">
        <ele>630.76</ele>
        <time>2022-07-23T12:09:14Z</time>
      </trkpt>
      <trkpt lat="46.55986" lon="5.76268">
        <ele>629.32</ele>
        <time>2022-07-23T12:09:17Z</time>
      </trkpt>
      <trkpt lat="46.56025" lon="5.76236">
        <ele>625.96</ele>
        <time>2022-07-23T12:09:22Z</time>
      </trkpt>
      <trkpt lat="46.56043" lon="5.76217">
        <ele>624.51</ele>
        <time>2022-07-23T12:09:25Z</time>
      </trkpt>
      <trkpt lat="46.56045" lon="5.76213">
        <ele>624.03</ele>
        <time>2022-07-23T12:09:26Z</time>
      </trkpt>
      <trkpt lat="46.56043" lon="5.76211">
        <ele>624.03</ele>
        <time>2022-07-23T12:09:27Z</time>
      </trkpt>
      <trkpt lat="46.56038" lon="5.76207">
        <ele>623.07</ele>
        <time>2022-07-23T12:09:40Z</time>
      </trkpt>
      <trkpt lat="46.56037" lon="5.76204">
        <ele>623.55</ele>
        <time>2022-07-23T12:09:49Z</time>
      </trkpt>
      <trkpt lat="46.56038" lon="5.76201">
        <ele>623.07</ele>
        <time>2022-07-23T12:09:50Z</time>
      </trkpt>
      <trkpt lat="46.56058" lon="5.76147">
        <ele>621.63</ele>
        <time>2022-07-23T12:10:01Z</time>
      </trkpt>
      <trkpt lat="46.56075" lon="5.76112">
        <ele>620.67</ele>
        <time>2022-07-23T12:10:06Z</time>
      </trkpt>
      <trkpt lat="46.56085" lon="5.76093">
        <ele>619.23</ele>
        <time>2022-07-23T12:10:09Z</time>
      </trkpt>
      <trkpt lat="46.56088" lon="5.76089">
        <ele>617.78</ele>
        <time>2022-07-23T12:10:10Z</time>
      </trkpt>
      <trkpt lat="46.5609" lon="5.76086">
        <ele>617.78</ele>
        <time>2022-07-23T12:10:11Z</time>
      </trkpt>
      <trkpt lat="46.56107" lon="5.76072">
        <ele>615.86</ele>
        <time>2022-07-23T12:10:22Z</time>
      </trkpt>
      <trkpt lat="46.56139" lon="5.76071">
        <ele>614.9</ele>
        <time>2022-07-23T12:10:32Z</time>
      </trkpt>
      <trkpt lat="46.56178" lon="5.76099">
        <ele>612.98</ele>
        <time>2022-07-23T12:10:44Z</time>
      </trkpt>
      <trkpt lat="46.56182" lon="5.76103">
        <ele>612.02</ele>
        <time>2022-07-23T12:10:45Z</time>
      </trkpt>
      <trkpt lat="46.56242" lon="5.76158">
        <ele>609.61</ele>
        <time>2022-07-23T12:10:57Z</time>
      </trkpt>
      <trkpt lat="46.56247" lon="5.76162">
        <ele>609.13</ele>
        <time>2022-07-23T12:10:58Z</time>
      </trkpt>
      <trkpt lat="46.56253" lon="5.76164">
        <ele>609.13</ele>
        <time>2022-07-23T12:10:59Z</time>
      </trkpt>
      <trkpt lat="46.5626" lon="5.76165">
        <ele>608.65</ele>
        <time>2022-07-23T12:11:00Z</time>
      </trkpt>
      <trkpt lat="46.56266" lon="5.76165">
        <ele>608.17</ele>
        <time>2022-07-23T12:11:01Z</time>
      </trkpt>
      <trkpt lat="46.56304" lon="5.76151">
        <ele>605.77</ele>
        <time>2022-07-23T12:11:06Z</time>
      </trkpt>
      <trkpt lat="46.56312" lon="5.76146">
        <ele>605.77</ele>
        <time>2022-07-23T12:11:07Z</time>
      </trkpt>
      <trkpt lat="46.56319" lon="5.7614">
        <ele>605.29</ele>
        <time>2022-07-23T12:11:08Z</time>
      </trkpt>
      <trkpt lat="46.56359" lon="5.76074">
        <ele>601.44</ele>
        <time>2022-07-23T12:11:16Z</time>
      </trkpt>
      <trkpt lat="46.56363" lon="5.76067">
        <ele>601.44</ele>
        <time>2022-07-23T12:11:17Z</time>
      </trkpt>
      <trkpt lat="46.56407" lon="5.75971">
        <ele>598.56</ele>
        <time>2022-07-23T12:11:28Z</time>
      </trkpt>
      <trkpt lat="46.56447" lon="5.75907">
        <ele>595.19</ele>
        <time>2022-07-23T12:11:36Z</time>
      </trkpt>
      <trkpt lat="46.56501" lon="5.75843">
        <ele>591.35</ele>
        <time>2022-07-23T12:11:46Z</time>
      </trkpt>
      <trkpt lat="46.56563" lon="5.7578">
        <ele>588.46</ele>
        <time>2022-07-23T12:11:56Z</time>
      </trkpt>
      <trkpt lat="46.56598" lon="5.75754">
        <ele>587.5</ele>
        <time>2022-07-23T12:12:01Z</time>
      </trkpt>
      <trkpt lat="46.56643" lon="5.7573">
        <ele>584.62</ele>
        <time>2022-07-23T12:12:07Z</time>
      </trkpt>
      <trkpt lat="46.56655" lon="5.75724">
        <ele>583.18</ele>
        <time>2022-07-23T12:12:09Z</time>
      </trkpt>
      <trkpt lat="46.56659" lon="5.7572">
        <ele>582.7</ele>
        <time>2022-07-23T12:12:10Z</time>
      </trkpt>
      <trkpt lat="46.56664" lon="5.75714">
        <ele>582.22</ele>
        <time>2022-07-23T12:12:19Z</time>
      </trkpt>
      <trkpt lat="46.56665" lon="5.75713">
        <ele>582.22</ele>
        <time>2022-07-23T12:12:48Z</time>
      </trkpt>
      <trkpt lat="46.56666" lon="5.75713">
        <ele>581.73</ele>
        <time>2022-07-23T12:13:24Z</time>
      </trkpt>
      <trkpt lat="46.56668" lon="5.75712">
        <ele>581.73</ele>
        <time>2022-07-23T12:13:30Z</time>
      </trkpt>
      <trkpt lat="46.56669" lon="5.75712">
        <ele>582.22</ele>
        <time>2022-07-23T12:13:31Z</time>
      </trkpt>
      <trkpt lat="46.56671" lon="5.75713">
        <ele>581.73</ele>
        <time>2022-07-23T12:13:32Z</time>
      </trkpt>
      <trkpt lat="46.56673" lon="5.75713">
        <ele>581.73</ele>
        <time>2022-07-23T12:13:33Z</time>
      </trkpt>
      <trkpt lat="46.56675" lon="5.75714">
        <ele>581.73</ele>
        <time>2022-07-23T12:13:34Z</time>
      </trkpt>
      <trkpt lat="46.56677" lon="5.75715">
        <ele>582.22</ele>
        <time>2022-07-23T12:13:35Z</time>
      </trkpt>
      <trkpt lat="46.56679" lon="5.75715">
        <ele>581.73</ele>
        <time>2022-07-23T12:13:36Z</time>
      </trkpt>
      <trkpt lat="46.56683" lon="5.75714">
        <ele>581.25</ele>
        <time>2022-07-23T12:13:37Z</time>
      </trkpt>
      <trkpt lat="46.56686" lon="5.75713">
        <ele>581.25</ele>
        <time>2022-07-23T12:13:38Z</time>
      </trkpt>
      <trkpt lat="46.56745" lon="5.75691">
        <ele>579.81</ele>
        <time>2022-07-23T12:13:51Z</time>
      </trkpt>
      <trkpt lat="46.56794" lon="5.75666">
        <ele>579.33</ele>
        <time>2022-07-23T12:14:01Z</time>
      </trkpt>
      <trkpt lat="46.56808" lon="5.75655">
        <ele>580.77</ele>
        <time>2022-07-23T12:14:04Z</time>
      </trkpt>
      <trkpt lat="46.56815" lon="5.75648">
        <ele>580.29</ele>
        <time>2022-07-23T12:14:06Z</time>
      </trkpt>
      <trkpt lat="46.5689" lon="5.75572">
        <ele>578.37</ele>
        <time>2022-07-23T12:14:25Z</time>
      </trkpt>
      <trkpt lat="46.56989" lon="5.75524">
        <ele>577.41</ele>
        <time>2022-07-23T12:14:46Z</time>
      </trkpt>
      <trkpt lat="46.56994" lon="5.75522">
        <ele>577.89</ele>
        <time>2022-07-23T12:14:47Z</time>
      </trkpt>
      <trkpt lat="46.56998" lon="5.75519">
        <ele>577.41</ele>
        <time>2022-07-23T12:14:48Z</time>
      </trkpt>
      <trkpt lat="46.57072" lon="5.75484">
        <ele>576.93</ele>
        <time>2022-07-23T12:15:05Z</time>
      </trkpt>
      <trkpt lat="46.57108" lon="5.75457">
        <ele>575.01</ele>
        <time>2022-07-23T12:15:16Z</time>
      </trkpt>
      <trkpt lat="46.57107" lon="5.75455">
        <ele>574.53</ele>
        <time>2022-07-23T12:15:17Z</time>
      </trkpt>
      <trkpt lat="46.57106" lon="5.75454">
        <ele>574.53</ele>
        <time>2022-07-23T12:15:18Z</time>
      </trkpt>
      <trkpt lat="46.57106" lon="5.75453">
        <ele>575.01</ele>
        <time>2022-07-23T12:15:19Z</time>
      </trkpt>
      <trkpt lat="46.57105" lon="5.75453">
        <ele>575.01</ele>
        <time>2022-07-23T12:15:20Z</time>
      </trkpt>
      <trkpt lat="46.57104" lon="5.75452">
        <ele>575.49</ele>
        <time>2022-07-23T12:15:21Z</time>
      </trkpt>
      <trkpt lat="46.57103" lon="5.75452">
        <ele>574.53</ele>
        <time>2022-07-23T12:15:22Z</time>
      </trkpt>
      <trkpt lat="46.57101" lon="5.75453">
        <ele>574.53</ele>
        <time>2022-07-23T12:15:23Z</time>
      </trkpt>
      <trkpt lat="46.571" lon="5.75455">
        <ele>574.53</ele>
        <time>2022-07-23T12:15:24Z</time>
      </trkpt>
      <trkpt lat="46.57099" lon="5.75457">
        <ele>574.53</ele>
        <time>2022-07-23T12:15:25Z</time>
      </trkpt>
      <trkpt lat="46.57098" lon="5.7546">
        <ele>574.53</ele>
        <time>2022-07-23T12:15:26Z</time>
      </trkpt>
      <trkpt lat="46.57096" lon="5.75463">
        <ele>575.01</ele>
        <time>2022-07-23T12:15:27Z</time>
      </trkpt>
      <trkpt lat="46.57093" lon="5.75464">
        <ele>575.01</ele>
        <time>2022-07-23T12:15:28Z</time>
      </trkpt>
      <trkpt lat="46.5709" lon="5.75465">
        <ele>575.01</ele>
        <time>2022-07-23T12:15:29Z</time>
      </trkpt>
      <trkpt lat="46.57057" lon="5.7547">
        <ele>574.04</ele>
        <time>2022-07-23T12:15:37Z</time>
      </trkpt>
      <trkpt lat="46.57016" lon="5.75473">
        <ele>573.08</ele>
        <time>2022-07-23T12:15:46Z</time>
      </trkpt>
      <trkpt lat="46.56958" lon="5.75489">
        <ele>571.64</ele>
        <time>2022-07-23T12:15:58Z</time>
      </trkpt>
      <trkpt lat="46.56872" lon="5.75513">
        <ele>569.72</ele>
        <time>2022-07-23T12:16:15Z</time>
      </trkpt>
      <trkpt lat="46.5678" lon="5.75511">
        <ele>565.87</ele>
        <time>2022-07-23T12:16:29Z</time>
      </trkpt>
      <trkpt lat="46.56707" lon="5.75496">
        <ele>562.51</ele>
        <time>2022-07-23T12:16:39Z</time>
      </trkpt>
      <trkpt lat="46.56691" lon="5.75496">
        <ele>561.55</ele>
        <time>2022-07-23T12:16:41Z</time>
      </trkpt>
      <trkpt lat="46.5665" lon="5.75499">
        <ele>561.55</ele>
        <time>2022-07-23T12:16:46Z</time>
      </trkpt>
      <trkpt lat="46.56642" lon="5.75502">
        <ele>560.59</ele>
        <time>2022-07-23T12:16:47Z</time>
      </trkpt>
      <trkpt lat="46.56635" lon="5.75506">
        <ele>560.59</ele>
        <time>2022-07-23T12:16:48Z</time>
      </trkpt>
      <trkpt lat="46.56628" lon="5.75512">
        <ele>560.59</ele>
        <time>2022-07-23T12:16:49Z</time>
      </trkpt>
      <trkpt lat="46.56621" lon="5.75518">
        <ele>560.11</ele>
        <time>2022-07-23T12:16:50Z</time>
      </trkpt>
      <trkpt lat="46.5659" lon="5.75551">
        <ele>559.14</ele>
        <time>2022-07-23T12:16:55Z</time>
      </trkpt>
      <trkpt lat="46.56585" lon="5.75559">
        <ele>558.66</ele>
        <time>2022-07-23T12:16:56Z</time>
      </trkpt>
      <trkpt lat="46.5656" lon="5.75598">
        <ele>558.66</ele>
        <time>2022-07-23T12:17:01Z</time>
      </trkpt>
      <trkpt lat="46.56554" lon="5.75603">
        <ele>557.7</ele>
        <time>2022-07-23T12:17:02Z</time>
      </trkpt>
      <trkpt lat="46.56547" lon="5.75607">
        <ele>557.7</ele>
        <time>2022-07-23T12:17:03Z</time>
      </trkpt>
      <trkpt lat="46.5654" lon="5.75609">
        <ele>557.7</ele>
        <time>2022-07-23T12:17:04Z</time>
      </trkpt>
      <trkpt lat="46.56533" lon="5.7561">
        <ele>557.7</ele>
        <time>2022-07-23T12:17:05Z</time>
      </trkpt>
      <trkpt lat="46.56456" lon="5.75624">
        <ele>557.7</ele>
        <time>2022-07-23T12:17:19Z</time>
      </trkpt>
      <trkpt lat="46.56428" lon="5.75626">
        <ele>558.18</ele>
        <time>2022-07-23T12:17:30Z</time>
      </trkpt>
      <trkpt lat="46.56427" lon="5.75628">
        <ele>558.66</ele>
        <time>2022-07-23T12:17:33Z</time>
      </trkpt>
      <trkpt lat="46.56425" lon="5.75633">
        <ele>558.66</ele>
        <time>2022-07-23T12:17:37Z</time>
      </trkpt>
      <trkpt lat="46.56423" lon="5.75635">
        <ele>558.18</ele>
        <time>2022-07-23T12:17:38Z</time>
      </trkpt>
      <trkpt lat="46.56421" lon="5.75636">
        <ele>558.18</ele>
        <time>2022-07-23T12:17:39Z</time>
      </trkpt>
      <trkpt lat="46.56419" lon="5.75637">
        <ele>558.66</ele>
        <time>2022-07-23T12:17:40Z</time>
      </trkpt>
      <trkpt lat="46.56418" lon="5.75637">
        <ele>558.66</ele>
        <time>2022-07-23T12:17:41Z</time>
      </trkpt>
      <trkpt lat="46.56397" lon="5.75646">
        <ele>559.62</ele>
        <time>2022-07-23T12:17:55Z</time>
      </trkpt>
      <trkpt lat="46.56373" lon="5.75654">
        <ele>559.62</ele>
        <time>2022-07-23T12:18:08Z</time>
      </trkpt>
      <trkpt lat="46.56338" lon="5.75671">
        <ele>561.07</ele>
        <time>2022-07-23T12:18:23Z</time>
      </trkpt>
      <trkpt lat="46.56334" lon="5.7567">
        <ele>560.59</ele>
        <time>2022-07-23T12:18:25Z</time>
      </trkpt>
      <trkpt lat="46.56333" lon="5.75667">
        <ele>560.11</ele>
        <time>2022-07-23T12:18:26Z</time>
      </trkpt>
      <trkpt lat="46.56333" lon="5.75663">
        <ele>561.07</ele>
        <time>2022-07-23T12:18:27Z</time>
      </trkpt>
      <trkpt lat="46.56333" lon="5.75658">
        <ele>560.11</ele>
        <time>2022-07-23T12:18:28Z</time>
      </trkpt>
      <trkpt lat="46.56332" lon="5.75653">
        <ele>559.62</ele>
        <time>2022-07-23T12:18:29Z</time>
      </trkpt>
      <trkpt lat="46.56329" lon="5.75647">
        <ele>559.62</ele>
        <time>2022-07-23T12:18:30Z</time>
      </trkpt>
      <trkpt lat="46.56324" lon="5.75635">
        <ele>559.62</ele>
        <time>2022-07-23T12:18:32Z</time>
      </trkpt>
      <trkpt lat="46.56321" lon="5.7563">
        <ele>559.14</ele>
        <time>2022-07-23T12:18:33Z</time>
      </trkpt>
      <trkpt lat="46.56317" lon="5.75627">
        <ele>559.14</ele>
        <time>2022-07-23T12:18:34Z</time>
      </trkpt>
      <trkpt lat="46.56314" lon="5.75624">
        <ele>558.66</ele>
        <time>2022-07-23T12:18:35Z</time>
      </trkpt>
      <trkpt lat="46.5631" lon="5.75621">
        <ele>558.66</ele>
        <time>2022-07-23T12:18:36Z</time>
      </trkpt>
      <trkpt lat="46.56302" lon="5.75616">
        <ele>558.66</ele>
        <time>2022-07-23T12:18:38Z</time>
      </trkpt>
      <trkpt lat="46.56299" lon="5.75612">
        <ele>558.66</ele>
        <time>2022-07-23T12:18:39Z</time>
      </trkpt>
      <trkpt lat="46.56296" lon="5.75607">
        <ele>558.18</ele>
        <time>2022-07-23T12:18:40Z</time>
      </trkpt>
      <trkpt lat="46.56271" lon="5.7555">
        <ele>556.74</ele>
        <time>2022-07-23T12:18:54Z</time>
      </trkpt>
      <trkpt lat="46.56271" lon="5.75512">
        <ele>556.26</ele>
        <time>2022-07-23T12:19:07Z</time>
      </trkpt>
      <trkpt lat="46.56273" lon="5.75509">
        <ele>556.26</ele>
        <time>2022-07-23T12:19:21Z</time>
      </trkpt>
      <trkpt lat="46.56273" lon="5.75506">
        <ele>556.26</ele>
        <time>2022-07-23T12:19:27Z</time>
      </trkpt>
      <trkpt lat="46.56273" lon="5.75483">
        <ele>555.3</ele>
        <time>2022-07-23T12:19:39Z</time>
      </trkpt>
      <trkpt lat="46.56275" lon="5.75476">
        <ele>554.82</ele>
        <time>2022-07-23T12:19:42Z</time>
      </trkpt>
      <trkpt lat="46.56288" lon="5.75476">
        <ele>554.34</ele>
        <time>2022-07-23T12:19:47Z</time>
      </trkpt>
      <trkpt lat="46.56318" lon="5.75488">
        <ele>554.82</ele>
        <time>2022-07-23T12:20:01Z</time>
      </trkpt>
      <trkpt lat="46.56318" lon="5.75484">
        <ele>554.34</ele>
        <time>2022-07-23T12:20:13Z</time>
      </trkpt>
    </trkseg>
  </trk>
</gpx>